<?xml version="1.0" encoding="UTF-8" standalone="no" ?>
<gpx xmlns="http://www.topografix.com/GPX/1/1" xmlns:xsi="http://www.w3.org/2001/XMLSchema-instance" xsi:schemaLocation="http://www.topografix.com/GPX/1/1 http://www.topografix.com/GPX/1/1/gpx.xsd" version="1.1" creator="VisuGPX - https://www.visugpx.com">
  <metadata>
    <name>Monte La Plane (Sommet de la    Loubatière)</name>
    <desc><![CDATA[Claviere - Monte La Plane (Sommet de la    Loubatière) Traversata]]></desc>
  </metadata>
  <trk>
    <name><![CDATA[M_La_Plane_12 GEN 2017]]></name>
    <trkseg>
      <trkpt lat="44.93718" lon="6.74829">
        <ele>1772.33</ele>
        <time>2017-01-12T08:04:35Z</time>
      </trkpt>
      <trkpt lat="44.93731" lon="6.74817">
        <ele>1771.85</ele>
        <time>2017-01-12T08:04:47Z</time>
      </trkpt>
      <trkpt lat="44.9373" lon="6.74805">
        <ele>1772.33</ele>
        <time>2017-01-12T08:04:59Z</time>
      </trkpt>
      <trkpt lat="44.93722" lon="6.74796">
        <ele>1771.85</ele>
        <time>2017-01-12T08:05:10Z</time>
      </trkpt>
      <trkpt lat="44.9371" lon="6.74785">
        <ele>1771.37</ele>
        <time>2017-01-12T08:05:26Z</time>
      </trkpt>
      <trkpt lat="44.93706" lon="6.74781">
        <ele>1771.37</ele>
        <time>2017-01-12T08:05:33Z</time>
      </trkpt>
      <trkpt lat="44.937" lon="6.74767">
        <ele>1771.85</ele>
        <time>2017-01-12T08:05:47Z</time>
      </trkpt>
      <trkpt lat="44.93695" lon="6.74758">
        <ele>1772.33</ele>
        <time>2017-01-12T08:05:57Z</time>
      </trkpt>
      <trkpt lat="44.93687" lon="6.74749">
        <ele>1773.77</ele>
        <time>2017-01-12T08:06:12Z</time>
      </trkpt>
      <trkpt lat="44.93681" lon="6.74731">
        <ele>1774.73</ele>
        <time>2017-01-12T08:06:25Z</time>
      </trkpt>
      <trkpt lat="44.93674" lon="6.74724">
        <ele>1775.21</ele>
        <time>2017-01-12T08:06:35Z</time>
      </trkpt>
      <trkpt lat="44.93659" lon="6.74725">
        <ele>1774.25</ele>
        <time>2017-01-12T08:06:51Z</time>
      </trkpt>
      <trkpt lat="44.93652" lon="6.74723">
        <ele>1773.29</ele>
        <time>2017-01-12T08:07:04Z</time>
      </trkpt>
      <trkpt lat="44.93652" lon="6.74712">
        <ele>1773.77</ele>
        <time>2017-01-12T08:07:15Z</time>
      </trkpt>
      <trkpt lat="44.93649" lon="6.74697">
        <ele>1772.33</ele>
        <time>2017-01-12T08:07:29Z</time>
      </trkpt>
      <trkpt lat="44.93643" lon="6.7468">
        <ele>1772.33</ele>
        <time>2017-01-12T08:07:44Z</time>
      </trkpt>
      <trkpt lat="44.93642" lon="6.74675">
        <ele>1772.81</ele>
        <time>2017-01-12T08:07:56Z</time>
      </trkpt>
      <trkpt lat="44.93641" lon="6.74673">
        <ele>1772.81</ele>
        <time>2017-01-12T08:08:15Z</time>
      </trkpt>
      <trkpt lat="44.93638" lon="6.74675">
        <ele>1772.33</ele>
        <time>2017-01-12T08:08:37Z</time>
      </trkpt>
      <trkpt lat="44.93638" lon="6.74673">
        <ele>1772.33</ele>
        <time>2017-01-12T08:08:48Z</time>
      </trkpt>
      <trkpt lat="44.93638" lon="6.74674">
        <ele>1776.17</ele>
        <time>2017-01-12T08:08:51Z</time>
      </trkpt>
      <trkpt lat="44.93638" lon="6.74674">
        <ele>1773.77</ele>
        <time>2017-01-12T08:08:52Z</time>
      </trkpt>
      <trkpt lat="44.93639" lon="6.74672">
        <ele>1773.29</ele>
        <time>2017-01-12T08:09:04Z</time>
      </trkpt>
      <trkpt lat="44.9364" lon="6.74673">
        <ele>1773.29</ele>
        <time>2017-01-12T08:09:23Z</time>
      </trkpt>
      <trkpt lat="44.9364" lon="6.74671">
        <ele>1773.29</ele>
        <time>2017-01-12T08:09:43Z</time>
      </trkpt>
      <trkpt lat="44.93639" lon="6.74668">
        <ele>1773.77</ele>
        <time>2017-01-12T08:10:03Z</time>
      </trkpt>
      <trkpt lat="44.93638" lon="6.74665">
        <ele>1774.25</ele>
        <time>2017-01-12T08:10:06Z</time>
      </trkpt>
      <trkpt lat="44.93633" lon="6.74655">
        <ele>1774.73</ele>
        <time>2017-01-12T08:10:19Z</time>
      </trkpt>
      <trkpt lat="44.93631" lon="6.74652">
        <ele>1774.73</ele>
        <time>2017-01-12T08:10:39Z</time>
      </trkpt>
      <trkpt lat="44.93633" lon="6.74651">
        <ele>1774.73</ele>
        <time>2017-01-12T08:10:53Z</time>
      </trkpt>
      <trkpt lat="44.9363" lon="6.7464">
        <ele>1775.69</ele>
        <time>2017-01-12T08:11:13Z</time>
      </trkpt>
      <trkpt lat="44.93627" lon="6.74629">
        <ele>1775.69</ele>
        <time>2017-01-12T08:11:25Z</time>
      </trkpt>
      <trkpt lat="44.93626" lon="6.74622">
        <ele>1775.69</ele>
        <time>2017-01-12T08:11:32Z</time>
      </trkpt>
      <trkpt lat="44.93623" lon="6.74616">
        <ele>1775.69</ele>
        <time>2017-01-12T08:11:37Z</time>
      </trkpt>
      <trkpt lat="44.93616" lon="6.74602">
        <ele>1775.69</ele>
        <time>2017-01-12T08:11:51Z</time>
      </trkpt>
      <trkpt lat="44.93608" lon="6.74589">
        <ele>1776.65</ele>
        <time>2017-01-12T08:12:05Z</time>
      </trkpt>
      <trkpt lat="44.93602" lon="6.74577">
        <ele>1777.61</ele>
        <time>2017-01-12T08:12:18Z</time>
      </trkpt>
      <trkpt lat="44.93594" lon="6.7456">
        <ele>1777.13</ele>
        <time>2017-01-12T08:12:34Z</time>
      </trkpt>
      <trkpt lat="44.93584" lon="6.74544">
        <ele>1777.61</ele>
        <time>2017-01-12T08:12:48Z</time>
      </trkpt>
      <trkpt lat="44.93576" lon="6.7453">
        <ele>1778.1</ele>
        <time>2017-01-12T08:13:03Z</time>
      </trkpt>
      <trkpt lat="44.93571" lon="6.74518">
        <ele>1778.58</ele>
        <time>2017-01-12T08:13:16Z</time>
      </trkpt>
      <trkpt lat="44.93568" lon="6.74512">
        <ele>1779.54</ele>
        <time>2017-01-12T08:13:24Z</time>
      </trkpt>
      <trkpt lat="44.93559" lon="6.74496">
        <ele>1779.06</ele>
        <time>2017-01-12T08:13:39Z</time>
      </trkpt>
      <trkpt lat="44.93554" lon="6.74484">
        <ele>1779.54</ele>
        <time>2017-01-12T08:13:52Z</time>
      </trkpt>
      <trkpt lat="44.93544" lon="6.74469">
        <ele>1780.5</ele>
        <time>2017-01-12T08:14:06Z</time>
      </trkpt>
      <trkpt lat="44.9354" lon="6.74461">
        <ele>1780.98</ele>
        <time>2017-01-12T08:14:15Z</time>
      </trkpt>
      <trkpt lat="44.93533" lon="6.74448">
        <ele>1781.46</ele>
        <time>2017-01-12T08:14:29Z</time>
      </trkpt>
      <trkpt lat="44.93532" lon="6.74445">
        <ele>1781.46</ele>
        <time>2017-01-12T08:14:32Z</time>
      </trkpt>
      <trkpt lat="44.9353" lon="6.74441">
        <ele>1781.94</ele>
        <time>2017-01-12T08:14:36Z</time>
      </trkpt>
      <trkpt lat="44.93525" lon="6.74428">
        <ele>1782.9</ele>
        <time>2017-01-12T08:14:49Z</time>
      </trkpt>
      <trkpt lat="44.93519" lon="6.74415">
        <ele>1783.86</ele>
        <time>2017-01-12T08:15:02Z</time>
      </trkpt>
      <trkpt lat="44.93514" lon="6.74402">
        <ele>1783.86</ele>
        <time>2017-01-12T08:15:16Z</time>
      </trkpt>
      <trkpt lat="44.93512" lon="6.74395">
        <ele>1784.34</ele>
        <time>2017-01-12T08:15:23Z</time>
      </trkpt>
      <trkpt lat="44.93509" lon="6.74389">
        <ele>1784.82</ele>
        <time>2017-01-12T08:15:28Z</time>
      </trkpt>
      <trkpt lat="44.93502" lon="6.74377">
        <ele>1785.31</ele>
        <time>2017-01-12T08:15:41Z</time>
      </trkpt>
      <trkpt lat="44.93499" lon="6.74369">
        <ele>1784.82</ele>
        <time>2017-01-12T08:15:47Z</time>
      </trkpt>
      <trkpt lat="44.93497" lon="6.74363">
        <ele>1785.31</ele>
        <time>2017-01-12T08:15:53Z</time>
      </trkpt>
      <trkpt lat="44.9349" lon="6.74348">
        <ele>1785.79</ele>
        <time>2017-01-12T08:16:07Z</time>
      </trkpt>
      <trkpt lat="44.93483" lon="6.74335">
        <ele>1786.27</ele>
        <time>2017-01-12T08:16:20Z</time>
      </trkpt>
      <trkpt lat="44.93478" lon="6.74328">
        <ele>1786.75</ele>
        <time>2017-01-12T08:16:31Z</time>
      </trkpt>
      <trkpt lat="44.93468" lon="6.7432">
        <ele>1786.27</ele>
        <time>2017-01-12T08:16:46Z</time>
      </trkpt>
      <trkpt lat="44.93456" lon="6.74319">
        <ele>1787.23</ele>
        <time>2017-01-12T08:17:02Z</time>
      </trkpt>
      <trkpt lat="44.93446" lon="6.74311">
        <ele>1787.71</ele>
        <time>2017-01-12T08:17:18Z</time>
      </trkpt>
      <trkpt lat="44.93435" lon="6.74299">
        <ele>1788.67</ele>
        <time>2017-01-12T08:17:33Z</time>
      </trkpt>
      <trkpt lat="44.93424" lon="6.74289">
        <ele>1789.63</ele>
        <time>2017-01-12T08:17:47Z</time>
      </trkpt>
      <trkpt lat="44.93416" lon="6.74279">
        <ele>1790.11</ele>
        <time>2017-01-12T08:18:01Z</time>
      </trkpt>
      <trkpt lat="44.93406" lon="6.74263">
        <ele>1791.55</ele>
        <time>2017-01-12T08:18:17Z</time>
      </trkpt>
      <trkpt lat="44.93397" lon="6.7425">
        <ele>1792.03</ele>
        <time>2017-01-12T08:18:32Z</time>
      </trkpt>
      <trkpt lat="44.93387" lon="6.74241">
        <ele>1793</ele>
        <time>2017-01-12T08:18:47Z</time>
      </trkpt>
      <trkpt lat="44.93378" lon="6.74229">
        <ele>1794.44</ele>
        <time>2017-01-12T08:19:02Z</time>
      </trkpt>
      <trkpt lat="44.93371" lon="6.74219">
        <ele>1795.88</ele>
        <time>2017-01-12T08:19:17Z</time>
      </trkpt>
      <trkpt lat="44.93362" lon="6.74207">
        <ele>1795.88</ele>
        <time>2017-01-12T08:19:31Z</time>
      </trkpt>
      <trkpt lat="44.93357" lon="6.74206">
        <ele>1795.88</ele>
        <time>2017-01-12T08:19:35Z</time>
      </trkpt>
      <trkpt lat="44.93349" lon="6.74208">
        <ele>1796.84</ele>
        <time>2017-01-12T08:19:45Z</time>
      </trkpt>
      <trkpt lat="44.93339" lon="6.74209">
        <ele>1796.84</ele>
        <time>2017-01-12T08:19:57Z</time>
      </trkpt>
      <trkpt lat="44.93329" lon="6.74207">
        <ele>1798.28</ele>
        <time>2017-01-12T08:20:10Z</time>
      </trkpt>
      <trkpt lat="44.93326" lon="6.74206">
        <ele>1798.28</ele>
        <time>2017-01-12T08:20:14Z</time>
      </trkpt>
      <trkpt lat="44.93319" lon="6.74206">
        <ele>1798.76</ele>
        <time>2017-01-12T08:20:22Z</time>
      </trkpt>
      <trkpt lat="44.93309" lon="6.74202">
        <ele>1799.73</ele>
        <time>2017-01-12T08:20:35Z</time>
      </trkpt>
      <trkpt lat="44.933" lon="6.74198">
        <ele>1800.21</ele>
        <time>2017-01-12T08:20:49Z</time>
      </trkpt>
      <trkpt lat="44.933" lon="6.74197">
        <ele>1800.21</ele>
        <time>2017-01-12T08:20:50Z</time>
      </trkpt>
      <trkpt lat="44.93289" lon="6.74189">
        <ele>1801.65</ele>
        <time>2017-01-12T08:21:04Z</time>
      </trkpt>
      <trkpt lat="44.93285" lon="6.74182">
        <ele>1802.13</ele>
        <time>2017-01-12T08:21:16Z</time>
      </trkpt>
      <trkpt lat="44.93282" lon="6.74172">
        <ele>1803.57</ele>
        <time>2017-01-12T08:21:30Z</time>
      </trkpt>
      <trkpt lat="44.93279" lon="6.74161">
        <ele>1805.49</ele>
        <time>2017-01-12T08:21:47Z</time>
      </trkpt>
      <trkpt lat="44.93274" lon="6.74152">
        <ele>1807.42</ele>
        <time>2017-01-12T08:22:02Z</time>
      </trkpt>
      <trkpt lat="44.9327" lon="6.74141">
        <ele>1808.38</ele>
        <time>2017-01-12T08:22:15Z</time>
      </trkpt>
      <trkpt lat="44.93267" lon="6.74128">
        <ele>1809.82</ele>
        <time>2017-01-12T08:22:30Z</time>
      </trkpt>
      <trkpt lat="44.93263" lon="6.74113">
        <ele>1811.74</ele>
        <time>2017-01-12T08:22:46Z</time>
      </trkpt>
      <trkpt lat="44.9326" lon="6.74101">
        <ele>1811.74</ele>
        <time>2017-01-12T08:22:59Z</time>
      </trkpt>
      <trkpt lat="44.93254" lon="6.74089">
        <ele>1812.7</ele>
        <time>2017-01-12T08:23:12Z</time>
      </trkpt>
      <trkpt lat="44.93248" lon="6.74077">
        <ele>1813.18</ele>
        <time>2017-01-12T08:23:25Z</time>
      </trkpt>
      <trkpt lat="44.93241" lon="6.74065">
        <ele>1813.66</ele>
        <time>2017-01-12T08:23:37Z</time>
      </trkpt>
      <trkpt lat="44.93232" lon="6.7405">
        <ele>1813.66</ele>
        <time>2017-01-12T08:23:51Z</time>
      </trkpt>
      <trkpt lat="44.93226" lon="6.74039">
        <ele>1814.15</ele>
        <time>2017-01-12T08:24:04Z</time>
      </trkpt>
      <trkpt lat="44.9322" lon="6.74028">
        <ele>1814.63</ele>
        <time>2017-01-12T08:24:16Z</time>
      </trkpt>
      <trkpt lat="44.93216" lon="6.74016">
        <ele>1815.11</ele>
        <time>2017-01-12T08:24:29Z</time>
      </trkpt>
      <trkpt lat="44.93216" lon="6.74014">
        <ele>1815.59</ele>
        <time>2017-01-12T08:24:33Z</time>
      </trkpt>
      <trkpt lat="44.93214" lon="6.73997">
        <ele>1817.03</ele>
        <time>2017-01-12T08:24:47Z</time>
      </trkpt>
      <trkpt lat="44.93215" lon="6.73994">
        <ele>1817.03</ele>
        <time>2017-01-12T08:24:50Z</time>
      </trkpt>
      <trkpt lat="44.93215" lon="6.73991">
        <ele>1817.03</ele>
        <time>2017-01-12T08:24:52Z</time>
      </trkpt>
      <trkpt lat="44.93215" lon="6.73974">
        <ele>1816.55</ele>
        <time>2017-01-12T08:25:04Z</time>
      </trkpt>
      <trkpt lat="44.93213" lon="6.73961">
        <ele>1817.99</ele>
        <time>2017-01-12T08:25:16Z</time>
      </trkpt>
      <trkpt lat="44.93212" lon="6.73957">
        <ele>1817.03</ele>
        <time>2017-01-12T08:25:20Z</time>
      </trkpt>
      <trkpt lat="44.93211" lon="6.73952">
        <ele>1817.51</ele>
        <time>2017-01-12T08:25:25Z</time>
      </trkpt>
      <trkpt lat="44.93205" lon="6.73937">
        <ele>1819.43</ele>
        <time>2017-01-12T08:25:39Z</time>
      </trkpt>
      <trkpt lat="44.932" lon="6.7393">
        <ele>1819.91</ele>
        <time>2017-01-12T08:25:50Z</time>
      </trkpt>
      <trkpt lat="44.93192" lon="6.73919">
        <ele>1820.87</ele>
        <time>2017-01-12T08:26:04Z</time>
      </trkpt>
      <trkpt lat="44.93184" lon="6.73908">
        <ele>1820.87</ele>
        <time>2017-01-12T08:26:18Z</time>
      </trkpt>
      <trkpt lat="44.93179" lon="6.739">
        <ele>1821.84</ele>
        <time>2017-01-12T08:26:29Z</time>
      </trkpt>
      <trkpt lat="44.9317" lon="6.73886">
        <ele>1822.32</ele>
        <time>2017-01-12T08:26:43Z</time>
      </trkpt>
      <trkpt lat="44.93165" lon="6.73874">
        <ele>1821.35</ele>
        <time>2017-01-12T08:26:55Z</time>
      </trkpt>
      <trkpt lat="44.93159" lon="6.7386">
        <ele>1821.84</ele>
        <time>2017-01-12T08:27:08Z</time>
      </trkpt>
      <trkpt lat="44.93157" lon="6.73854">
        <ele>1821.84</ele>
        <time>2017-01-12T08:27:13Z</time>
      </trkpt>
      <trkpt lat="44.93152" lon="6.73841">
        <ele>1822.32</ele>
        <time>2017-01-12T08:27:25Z</time>
      </trkpt>
      <trkpt lat="44.93145" lon="6.73825">
        <ele>1821.84</ele>
        <time>2017-01-12T08:27:38Z</time>
      </trkpt>
      <trkpt lat="44.93138" lon="6.73811">
        <ele>1821.84</ele>
        <time>2017-01-12T08:27:51Z</time>
      </trkpt>
      <trkpt lat="44.93135" lon="6.73806">
        <ele>1821.84</ele>
        <time>2017-01-12T08:27:56Z</time>
      </trkpt>
      <trkpt lat="44.93128" lon="6.73794">
        <ele>1822.8</ele>
        <time>2017-01-12T08:28:09Z</time>
      </trkpt>
      <trkpt lat="44.93121" lon="6.73783">
        <ele>1824.24</ele>
        <time>2017-01-12T08:28:21Z</time>
      </trkpt>
      <trkpt lat="44.93114" lon="6.7377">
        <ele>1822.8</ele>
        <time>2017-01-12T08:28:34Z</time>
      </trkpt>
      <trkpt lat="44.93107" lon="6.73757">
        <ele>1823.28</ele>
        <time>2017-01-12T08:28:47Z</time>
      </trkpt>
      <trkpt lat="44.93101" lon="6.73746">
        <ele>1824.24</ele>
        <time>2017-01-12T08:29:01Z</time>
      </trkpt>
      <trkpt lat="44.931" lon="6.73745">
        <ele>1824.24</ele>
        <time>2017-01-12T08:29:02Z</time>
      </trkpt>
      <trkpt lat="44.93094" lon="6.73741">
        <ele>1824.72</ele>
        <time>2017-01-12T08:29:17Z</time>
      </trkpt>
      <trkpt lat="44.93094" lon="6.73742">
        <ele>1825.2</ele>
        <time>2017-01-12T08:29:30Z</time>
      </trkpt>
      <trkpt lat="44.93094" lon="6.73745">
        <ele>1825.2</ele>
        <time>2017-01-12T08:29:55Z</time>
      </trkpt>
      <trkpt lat="44.93093" lon="6.73745">
        <ele>1825.68</ele>
        <time>2017-01-12T08:30:27Z</time>
      </trkpt>
      <trkpt lat="44.93092" lon="6.73746">
        <ele>1826.16</ele>
        <time>2017-01-12T08:30:51Z</time>
      </trkpt>
      <trkpt lat="44.93086" lon="6.73738">
        <ele>1826.16</ele>
        <time>2017-01-12T08:31:06Z</time>
      </trkpt>
      <trkpt lat="44.93082" lon="6.73737">
        <ele>1827.6</ele>
        <time>2017-01-12T08:31:12Z</time>
      </trkpt>
      <trkpt lat="44.93073" lon="6.73732">
        <ele>1827.6</ele>
        <time>2017-01-12T08:31:26Z</time>
      </trkpt>
      <trkpt lat="44.93071" lon="6.73726">
        <ele>1827.6</ele>
        <time>2017-01-12T08:31:34Z</time>
      </trkpt>
      <trkpt lat="44.9307" lon="6.73721">
        <ele>1828.08</ele>
        <time>2017-01-12T08:31:40Z</time>
      </trkpt>
      <trkpt lat="44.93066" lon="6.73709">
        <ele>1829.05</ele>
        <time>2017-01-12T08:31:54Z</time>
      </trkpt>
      <trkpt lat="44.93063" lon="6.7371">
        <ele>1829.05</ele>
        <time>2017-01-12T08:31:59Z</time>
      </trkpt>
      <trkpt lat="44.93054" lon="6.73707">
        <ele>1829.53</ele>
        <time>2017-01-12T08:32:14Z</time>
      </trkpt>
      <trkpt lat="44.93054" lon="6.73707">
        <ele>1830.01</ele>
        <time>2017-01-12T08:32:15Z</time>
      </trkpt>
      <trkpt lat="44.93042" lon="6.73705">
        <ele>1830.97</ele>
        <time>2017-01-12T08:32:30Z</time>
      </trkpt>
      <trkpt lat="44.93035" lon="6.73702">
        <ele>1831.45</ele>
        <time>2017-01-12T08:32:43Z</time>
      </trkpt>
      <trkpt lat="44.93028" lon="6.73693">
        <ele>1831.45</ele>
        <time>2017-01-12T08:33:00Z</time>
      </trkpt>
      <trkpt lat="44.93024" lon="6.7369">
        <ele>1831.45</ele>
        <time>2017-01-12T08:33:06Z</time>
      </trkpt>
      <trkpt lat="44.93017" lon="6.73682">
        <ele>1832.41</ele>
        <time>2017-01-12T08:33:19Z</time>
      </trkpt>
      <trkpt lat="44.93011" lon="6.73671">
        <ele>1832.41</ele>
        <time>2017-01-12T08:33:34Z</time>
      </trkpt>
      <trkpt lat="44.93004" lon="6.73664">
        <ele>1833.85</ele>
        <time>2017-01-12T08:33:48Z</time>
      </trkpt>
      <trkpt lat="44.92998" lon="6.73654">
        <ele>1834.81</ele>
        <time>2017-01-12T08:34:01Z</time>
      </trkpt>
      <trkpt lat="44.92991" lon="6.73646">
        <ele>1835.77</ele>
        <time>2017-01-12T08:34:14Z</time>
      </trkpt>
      <trkpt lat="44.92985" lon="6.7364">
        <ele>1836.74</ele>
        <time>2017-01-12T08:34:25Z</time>
      </trkpt>
      <trkpt lat="44.92979" lon="6.73629">
        <ele>1837.22</ele>
        <time>2017-01-12T08:34:39Z</time>
      </trkpt>
      <trkpt lat="44.92974" lon="6.73623">
        <ele>1838.66</ele>
        <time>2017-01-12T08:34:55Z</time>
      </trkpt>
      <trkpt lat="44.92968" lon="6.73614">
        <ele>1840.1</ele>
        <time>2017-01-12T08:35:09Z</time>
      </trkpt>
      <trkpt lat="44.92961" lon="6.73606">
        <ele>1841.54</ele>
        <time>2017-01-12T08:35:22Z</time>
      </trkpt>
      <trkpt lat="44.92955" lon="6.73597">
        <ele>1842.5</ele>
        <time>2017-01-12T08:35:35Z</time>
      </trkpt>
      <trkpt lat="44.92946" lon="6.73588">
        <ele>1843.95</ele>
        <time>2017-01-12T08:35:49Z</time>
      </trkpt>
      <trkpt lat="44.92935" lon="6.73581">
        <ele>1845.39</ele>
        <time>2017-01-12T08:36:07Z</time>
      </trkpt>
      <trkpt lat="44.92926" lon="6.73572">
        <ele>1846.35</ele>
        <time>2017-01-12T08:36:22Z</time>
      </trkpt>
      <trkpt lat="44.92921" lon="6.73567">
        <ele>1846.83</ele>
        <time>2017-01-12T08:36:34Z</time>
      </trkpt>
      <trkpt lat="44.92915" lon="6.73563">
        <ele>1847.79</ele>
        <time>2017-01-12T08:36:46Z</time>
      </trkpt>
      <trkpt lat="44.9291" lon="6.73557">
        <ele>1848.27</ele>
        <time>2017-01-12T08:36:58Z</time>
      </trkpt>
      <trkpt lat="44.92902" lon="6.73549">
        <ele>1848.75</ele>
        <time>2017-01-12T08:37:11Z</time>
      </trkpt>
      <trkpt lat="44.92893" lon="6.73539">
        <ele>1849.71</ele>
        <time>2017-01-12T08:37:26Z</time>
      </trkpt>
      <trkpt lat="44.92887" lon="6.73531">
        <ele>1850.68</ele>
        <time>2017-01-12T08:37:38Z</time>
      </trkpt>
      <trkpt lat="44.92882" lon="6.73527">
        <ele>1851.16</ele>
        <time>2017-01-12T08:37:45Z</time>
      </trkpt>
      <trkpt lat="44.92874" lon="6.7352">
        <ele>1852.12</ele>
        <time>2017-01-12T08:37:58Z</time>
      </trkpt>
      <trkpt lat="44.92873" lon="6.7352">
        <ele>1852.12</ele>
        <time>2017-01-12T08:37:59Z</time>
      </trkpt>
      <trkpt lat="44.92864" lon="6.73512">
        <ele>1853.56</ele>
        <time>2017-01-12T08:38:13Z</time>
      </trkpt>
      <trkpt lat="44.92854" lon="6.735">
        <ele>1854.04</ele>
        <time>2017-01-12T08:38:27Z</time>
      </trkpt>
      <trkpt lat="44.9285" lon="6.73493">
        <ele>1856.44</ele>
        <time>2017-01-12T08:38:40Z</time>
      </trkpt>
      <trkpt lat="44.92849" lon="6.73492">
        <ele>1855.96</ele>
        <time>2017-01-12T08:38:42Z</time>
      </trkpt>
      <trkpt lat="44.92842" lon="6.73481">
        <ele>1856.92</ele>
        <time>2017-01-12T08:38:57Z</time>
      </trkpt>
      <trkpt lat="44.92838" lon="6.73471">
        <ele>1858.37</ele>
        <time>2017-01-12T08:39:11Z</time>
      </trkpt>
      <trkpt lat="44.92829" lon="6.73459">
        <ele>1860.29</ele>
        <time>2017-01-12T08:39:28Z</time>
      </trkpt>
      <trkpt lat="44.92823" lon="6.73451">
        <ele>1862.21</ele>
        <time>2017-01-12T08:39:44Z</time>
      </trkpt>
      <trkpt lat="44.92824" lon="6.73453">
        <ele>1862.69</ele>
        <time>2017-01-12T08:39:58Z</time>
      </trkpt>
      <trkpt lat="44.9282" lon="6.73444">
        <ele>1863.17</ele>
        <time>2017-01-12T08:40:12Z</time>
      </trkpt>
      <trkpt lat="44.92814" lon="6.73443">
        <ele>1863.65</ele>
        <time>2017-01-12T08:40:20Z</time>
      </trkpt>
      <trkpt lat="44.92806" lon="6.73442">
        <ele>1862.69</ele>
        <time>2017-01-12T08:40:33Z</time>
      </trkpt>
      <trkpt lat="44.92799" lon="6.7344">
        <ele>1863.65</ele>
        <time>2017-01-12T08:40:42Z</time>
      </trkpt>
      <trkpt lat="44.9279" lon="6.73438">
        <ele>1862.69</ele>
        <time>2017-01-12T08:40:49Z</time>
      </trkpt>
      <trkpt lat="44.92778" lon="6.73436">
        <ele>1862.69</ele>
        <time>2017-01-12T08:41:01Z</time>
      </trkpt>
      <trkpt lat="44.92767" lon="6.73431">
        <ele>1865.09</ele>
        <time>2017-01-12T08:41:16Z</time>
      </trkpt>
      <trkpt lat="44.92761" lon="6.73427">
        <ele>1866.06</ele>
        <time>2017-01-12T08:41:28Z</time>
      </trkpt>
      <trkpt lat="44.92761" lon="6.73427">
        <ele>1866.54</ele>
        <time>2017-01-12T08:41:41Z</time>
      </trkpt>
      <trkpt lat="44.92755" lon="6.73425">
        <ele>1865.58</ele>
        <time>2017-01-12T08:41:55Z</time>
      </trkpt>
      <trkpt lat="44.92752" lon="6.73426">
        <ele>1866.06</ele>
        <time>2017-01-12T08:42:07Z</time>
      </trkpt>
      <trkpt lat="44.92747" lon="6.73432">
        <ele>1866.06</ele>
        <time>2017-01-12T08:42:21Z</time>
      </trkpt>
      <trkpt lat="44.92743" lon="6.73432">
        <ele>1867.5</ele>
        <time>2017-01-12T08:42:33Z</time>
      </trkpt>
      <trkpt lat="44.92738" lon="6.73426">
        <ele>1869.42</ele>
        <time>2017-01-12T08:42:47Z</time>
      </trkpt>
      <trkpt lat="44.92729" lon="6.73423">
        <ele>1870.86</ele>
        <time>2017-01-12T08:43:01Z</time>
      </trkpt>
      <trkpt lat="44.92728" lon="6.7342">
        <ele>1871.82</ele>
        <time>2017-01-12T08:43:14Z</time>
      </trkpt>
      <trkpt lat="44.92724" lon="6.73426">
        <ele>1872.79</ele>
        <time>2017-01-12T08:43:27Z</time>
      </trkpt>
      <trkpt lat="44.92725" lon="6.73438">
        <ele>1874.23</ele>
        <time>2017-01-12T08:43:39Z</time>
      </trkpt>
      <trkpt lat="44.92726" lon="6.73446">
        <ele>1876.15</ele>
        <time>2017-01-12T08:43:54Z</time>
      </trkpt>
      <trkpt lat="44.92728" lon="6.73444">
        <ele>1877.59</ele>
        <time>2017-01-12T08:44:08Z</time>
      </trkpt>
      <trkpt lat="44.92722" lon="6.73447">
        <ele>1878.07</ele>
        <time>2017-01-12T08:44:20Z</time>
      </trkpt>
      <trkpt lat="44.92728" lon="6.73464">
        <ele>1879.51</ele>
        <time>2017-01-12T08:44:36Z</time>
      </trkpt>
      <trkpt lat="44.92728" lon="6.73472">
        <ele>1881.92</ele>
        <time>2017-01-12T08:44:53Z</time>
      </trkpt>
      <trkpt lat="44.92732" lon="6.73479">
        <ele>1883.36</ele>
        <time>2017-01-12T08:45:07Z</time>
      </trkpt>
      <trkpt lat="44.92732" lon="6.73487">
        <ele>1883.84</ele>
        <time>2017-01-12T08:45:24Z</time>
      </trkpt>
      <trkpt lat="44.92728" lon="6.73492">
        <ele>1886.24</ele>
        <time>2017-01-12T08:45:38Z</time>
      </trkpt>
      <trkpt lat="44.92723" lon="6.73496">
        <ele>1888.65</ele>
        <time>2017-01-12T08:45:54Z</time>
      </trkpt>
      <trkpt lat="44.92718" lon="6.73499">
        <ele>1890.57</ele>
        <time>2017-01-12T08:46:10Z</time>
      </trkpt>
      <trkpt lat="44.92715" lon="6.73498">
        <ele>1891.53</ele>
        <time>2017-01-12T08:46:25Z</time>
      </trkpt>
      <trkpt lat="44.92707" lon="6.73496">
        <ele>1891.53</ele>
        <time>2017-01-12T08:46:41Z</time>
      </trkpt>
      <trkpt lat="44.92702" lon="6.73498">
        <ele>1893.45</ele>
        <time>2017-01-12T08:46:49Z</time>
      </trkpt>
      <trkpt lat="44.92698" lon="6.735">
        <ele>1893.93</ele>
        <time>2017-01-12T08:46:54Z</time>
      </trkpt>
      <trkpt lat="44.92691" lon="6.73496">
        <ele>1893.93</ele>
        <time>2017-01-12T08:47:08Z</time>
      </trkpt>
      <trkpt lat="44.92685" lon="6.73492">
        <ele>1896.82</ele>
        <time>2017-01-12T08:47:24Z</time>
      </trkpt>
      <trkpt lat="44.9268" lon="6.73488">
        <ele>1897.78</ele>
        <time>2017-01-12T08:47:38Z</time>
      </trkpt>
      <trkpt lat="44.92682" lon="6.73488">
        <ele>1897.78</ele>
        <time>2017-01-12T08:47:58Z</time>
      </trkpt>
      <trkpt lat="44.92676" lon="6.73485">
        <ele>1898.26</ele>
        <time>2017-01-12T08:48:27Z</time>
      </trkpt>
      <trkpt lat="44.92671" lon="6.73484">
        <ele>1901.14</ele>
        <time>2017-01-12T08:48:41Z</time>
      </trkpt>
      <trkpt lat="44.92663" lon="6.73483">
        <ele>1900.18</ele>
        <time>2017-01-12T08:48:54Z</time>
      </trkpt>
      <trkpt lat="44.92662" lon="6.73484">
        <ele>1898.26</ele>
        <time>2017-01-12T08:48:57Z</time>
      </trkpt>
      <trkpt lat="44.92661" lon="6.73484">
        <ele>1901.63</ele>
        <time>2017-01-12T08:48:59Z</time>
      </trkpt>
      <trkpt lat="44.9266" lon="6.73484">
        <ele>1901.63</ele>
        <time>2017-01-12T08:49:00Z</time>
      </trkpt>
      <trkpt lat="44.92654" lon="6.73485">
        <ele>1899.7</ele>
        <time>2017-01-12T08:49:13Z</time>
      </trkpt>
      <trkpt lat="44.92647" lon="6.73484">
        <ele>1902.59</ele>
        <time>2017-01-12T08:49:28Z</time>
      </trkpt>
      <trkpt lat="44.92636" lon="6.73479">
        <ele>1904.99</ele>
        <time>2017-01-12T08:49:42Z</time>
      </trkpt>
      <trkpt lat="44.92632" lon="6.73478">
        <ele>1905.95</ele>
        <time>2017-01-12T08:49:48Z</time>
      </trkpt>
      <trkpt lat="44.92623" lon="6.73478">
        <ele>1907.87</ele>
        <time>2017-01-12T08:50:03Z</time>
      </trkpt>
      <trkpt lat="44.92613" lon="6.73474">
        <ele>1908.35</ele>
        <time>2017-01-12T08:50:18Z</time>
      </trkpt>
      <trkpt lat="44.92603" lon="6.73469">
        <ele>1908.83</ele>
        <time>2017-01-12T08:50:33Z</time>
      </trkpt>
      <trkpt lat="44.92595" lon="6.73465">
        <ele>1909.8</ele>
        <time>2017-01-12T08:50:48Z</time>
      </trkpt>
      <trkpt lat="44.92587" lon="6.73462">
        <ele>1910.28</ele>
        <time>2017-01-12T08:51:00Z</time>
      </trkpt>
      <trkpt lat="44.92576" lon="6.73453">
        <ele>1910.76</ele>
        <time>2017-01-12T08:51:16Z</time>
      </trkpt>
      <trkpt lat="44.92575" lon="6.73451">
        <ele>1910.76</ele>
        <time>2017-01-12T08:51:19Z</time>
      </trkpt>
      <trkpt lat="44.92558" lon="6.73429">
        <ele>1907.87</ele>
        <time>2017-01-12T08:51:30Z</time>
      </trkpt>
      <trkpt lat="44.92548" lon="6.73422">
        <ele>1907.87</ele>
        <time>2017-01-12T08:51:43Z</time>
      </trkpt>
      <trkpt lat="44.92538" lon="6.73413">
        <ele>1909.32</ele>
        <time>2017-01-12T08:51:58Z</time>
      </trkpt>
      <trkpt lat="44.92527" lon="6.73406">
        <ele>1909.32</ele>
        <time>2017-01-12T08:52:12Z</time>
      </trkpt>
      <trkpt lat="44.92516" lon="6.73403">
        <ele>1910.28</ele>
        <time>2017-01-12T08:52:27Z</time>
      </trkpt>
      <trkpt lat="44.92506" lon="6.73401">
        <ele>1910.76</ele>
        <time>2017-01-12T08:52:43Z</time>
      </trkpt>
      <trkpt lat="44.92497" lon="6.73398">
        <ele>1912.2</ele>
        <time>2017-01-12T08:52:55Z</time>
      </trkpt>
      <trkpt lat="44.92489" lon="6.73398">
        <ele>1912.68</ele>
        <time>2017-01-12T08:53:11Z</time>
      </trkpt>
      <trkpt lat="44.92483" lon="6.73399">
        <ele>1915.08</ele>
        <time>2017-01-12T08:53:26Z</time>
      </trkpt>
      <trkpt lat="44.92474" lon="6.734">
        <ele>1916.53</ele>
        <time>2017-01-12T08:53:42Z</time>
      </trkpt>
      <trkpt lat="44.92464" lon="6.734">
        <ele>1918.93</ele>
        <time>2017-01-12T08:53:59Z</time>
      </trkpt>
      <trkpt lat="44.92459" lon="6.734">
        <ele>1920.85</ele>
        <time>2017-01-12T08:54:14Z</time>
      </trkpt>
      <trkpt lat="44.92452" lon="6.73403">
        <ele>1923.25</ele>
        <time>2017-01-12T08:54:31Z</time>
      </trkpt>
      <trkpt lat="44.92449" lon="6.73404">
        <ele>1924.22</ele>
        <time>2017-01-12T08:54:36Z</time>
      </trkpt>
      <trkpt lat="44.92441" lon="6.73405">
        <ele>1926.14</ele>
        <time>2017-01-12T08:54:52Z</time>
      </trkpt>
      <trkpt lat="44.92433" lon="6.73407">
        <ele>1927.1</ele>
        <time>2017-01-12T08:55:08Z</time>
      </trkpt>
      <trkpt lat="44.92424" lon="6.73408">
        <ele>1928.54</ele>
        <time>2017-01-12T08:55:27Z</time>
      </trkpt>
      <trkpt lat="44.92414" lon="6.73409">
        <ele>1929.5</ele>
        <time>2017-01-12T08:55:42Z</time>
      </trkpt>
      <trkpt lat="44.92411" lon="6.73408">
        <ele>1929.98</ele>
        <time>2017-01-12T08:55:45Z</time>
      </trkpt>
      <trkpt lat="44.92399" lon="6.7341">
        <ele>1930.46</ele>
        <time>2017-01-12T08:55:59Z</time>
      </trkpt>
      <trkpt lat="44.92393" lon="6.7341">
        <ele>1932.87</ele>
        <time>2017-01-12T08:56:09Z</time>
      </trkpt>
      <trkpt lat="44.92383" lon="6.73412">
        <ele>1935.27</ele>
        <time>2017-01-12T08:56:24Z</time>
      </trkpt>
      <trkpt lat="44.92372" lon="6.73411">
        <ele>1935.27</ele>
        <time>2017-01-12T08:56:38Z</time>
      </trkpt>
      <trkpt lat="44.92362" lon="6.73409">
        <ele>1936.23</ele>
        <time>2017-01-12T08:56:55Z</time>
      </trkpt>
      <trkpt lat="44.9235" lon="6.73409">
        <ele>1938.16</ele>
        <time>2017-01-12T08:57:15Z</time>
      </trkpt>
      <trkpt lat="44.92343" lon="6.7341">
        <ele>1938.64</ele>
        <time>2017-01-12T08:57:33Z</time>
      </trkpt>
      <trkpt lat="44.92332" lon="6.7341">
        <ele>1940.56</ele>
        <time>2017-01-12T08:57:50Z</time>
      </trkpt>
      <trkpt lat="44.92321" lon="6.73414">
        <ele>1943.44</ele>
        <time>2017-01-12T08:58:06Z</time>
      </trkpt>
      <trkpt lat="44.92311" lon="6.73419">
        <ele>1945.36</ele>
        <time>2017-01-12T08:58:21Z</time>
      </trkpt>
      <trkpt lat="44.92304" lon="6.73424">
        <ele>1946.81</ele>
        <time>2017-01-12T08:58:34Z</time>
      </trkpt>
      <trkpt lat="44.92298" lon="6.73428">
        <ele>1947.77</ele>
        <time>2017-01-12T08:58:44Z</time>
      </trkpt>
      <trkpt lat="44.92284" lon="6.73435">
        <ele>1948.73</ele>
        <time>2017-01-12T08:59:00Z</time>
      </trkpt>
      <trkpt lat="44.92274" lon="6.73441">
        <ele>1949.21</ele>
        <time>2017-01-12T08:59:14Z</time>
      </trkpt>
      <trkpt lat="44.92261" lon="6.73447">
        <ele>1950.65</ele>
        <time>2017-01-12T08:59:31Z</time>
      </trkpt>
      <trkpt lat="44.92247" lon="6.73453">
        <ele>1951.61</ele>
        <time>2017-01-12T08:59:49Z</time>
      </trkpt>
      <trkpt lat="44.92239" lon="6.73458">
        <ele>1952.09</ele>
        <time>2017-01-12T09:00:03Z</time>
      </trkpt>
      <trkpt lat="44.9223" lon="6.73461">
        <ele>1953.54</ele>
        <time>2017-01-12T09:00:22Z</time>
      </trkpt>
      <trkpt lat="44.92221" lon="6.73469">
        <ele>1952.57</ele>
        <time>2017-01-12T09:00:35Z</time>
      </trkpt>
      <trkpt lat="44.9221" lon="6.73474">
        <ele>1953.54</ele>
        <time>2017-01-12T09:00:52Z</time>
      </trkpt>
      <trkpt lat="44.922" lon="6.73477">
        <ele>1954.02</ele>
        <time>2017-01-12T09:01:08Z</time>
      </trkpt>
      <trkpt lat="44.92188" lon="6.73483">
        <ele>1955.94</ele>
        <time>2017-01-12T09:01:27Z</time>
      </trkpt>
      <trkpt lat="44.92179" lon="6.73487">
        <ele>1958.34</ele>
        <time>2017-01-12T09:01:47Z</time>
      </trkpt>
      <trkpt lat="44.92169" lon="6.73492">
        <ele>1959.3</ele>
        <time>2017-01-12T09:02:02Z</time>
      </trkpt>
      <trkpt lat="44.92159" lon="6.73498">
        <ele>1961.23</ele>
        <time>2017-01-12T09:02:19Z</time>
      </trkpt>
      <trkpt lat="44.92149" lon="6.73509">
        <ele>1963.15</ele>
        <time>2017-01-12T09:02:38Z</time>
      </trkpt>
      <trkpt lat="44.9214" lon="6.73514">
        <ele>1964.11</ele>
        <time>2017-01-12T09:02:53Z</time>
      </trkpt>
      <trkpt lat="44.92132" lon="6.73522">
        <ele>1965.07</ele>
        <time>2017-01-12T09:03:13Z</time>
      </trkpt>
      <trkpt lat="44.92121" lon="6.73531">
        <ele>1966.51</ele>
        <time>2017-01-12T09:03:31Z</time>
      </trkpt>
      <trkpt lat="44.92112" lon="6.73536">
        <ele>1966.99</ele>
        <time>2017-01-12T09:03:45Z</time>
      </trkpt>
      <trkpt lat="44.92102" lon="6.73542">
        <ele>1967.48</ele>
        <time>2017-01-12T09:04:01Z</time>
      </trkpt>
      <trkpt lat="44.92093" lon="6.73543">
        <ele>1970.36</ele>
        <time>2017-01-12T09:04:20Z</time>
      </trkpt>
      <trkpt lat="44.92083" lon="6.73549">
        <ele>1971.32</ele>
        <time>2017-01-12T09:04:38Z</time>
      </trkpt>
      <trkpt lat="44.92078" lon="6.73549">
        <ele>1973.72</ele>
        <time>2017-01-12T09:04:56Z</time>
      </trkpt>
      <trkpt lat="44.92071" lon="6.73556">
        <ele>1974.69</ele>
        <time>2017-01-12T09:05:11Z</time>
      </trkpt>
      <trkpt lat="44.92062" lon="6.73566">
        <ele>1978.05</ele>
        <time>2017-01-12T09:05:29Z</time>
      </trkpt>
      <trkpt lat="44.92057" lon="6.73576">
        <ele>1979.49</ele>
        <time>2017-01-12T09:05:43Z</time>
      </trkpt>
      <trkpt lat="44.9205" lon="6.73588">
        <ele>1981.41</ele>
        <time>2017-01-12T09:06:03Z</time>
      </trkpt>
      <trkpt lat="44.92046" lon="6.73599">
        <ele>1983.82</ele>
        <time>2017-01-12T09:06:22Z</time>
      </trkpt>
      <trkpt lat="44.92041" lon="6.73608">
        <ele>1985.74</ele>
        <time>2017-01-12T09:06:38Z</time>
      </trkpt>
      <trkpt lat="44.92035" lon="6.73615">
        <ele>1988.14</ele>
        <time>2017-01-12T09:06:56Z</time>
      </trkpt>
      <trkpt lat="44.92029" lon="6.73622">
        <ele>1988.62</ele>
        <time>2017-01-12T09:07:11Z</time>
      </trkpt>
      <trkpt lat="44.92024" lon="6.7363">
        <ele>1991.51</ele>
        <time>2017-01-12T09:07:31Z</time>
      </trkpt>
      <trkpt lat="44.92016" lon="6.7364">
        <ele>1994.39</ele>
        <time>2017-01-12T09:07:49Z</time>
      </trkpt>
      <trkpt lat="44.92013" lon="6.73649">
        <ele>1995.83</ele>
        <time>2017-01-12T09:08:08Z</time>
      </trkpt>
      <trkpt lat="44.92007" lon="6.73659">
        <ele>1998.24</ele>
        <time>2017-01-12T09:08:27Z</time>
      </trkpt>
      <trkpt lat="44.92006" lon="6.73661">
        <ele>1999.68</ele>
        <time>2017-01-12T09:08:32Z</time>
      </trkpt>
      <trkpt lat="44.92" lon="6.73669">
        <ele>2000.64</ele>
        <time>2017-01-12T09:08:48Z</time>
      </trkpt>
      <trkpt lat="44.91997" lon="6.73676">
        <ele>2002.08</ele>
        <time>2017-01-12T09:09:05Z</time>
      </trkpt>
      <trkpt lat="44.91994" lon="6.73681">
        <ele>2004.01</ele>
        <time>2017-01-12T09:09:14Z</time>
      </trkpt>
      <trkpt lat="44.91991" lon="6.73691">
        <ele>2004.01</ele>
        <time>2017-01-12T09:09:30Z</time>
      </trkpt>
      <trkpt lat="44.91988" lon="6.73697">
        <ele>2006.41</ele>
        <time>2017-01-12T09:09:48Z</time>
      </trkpt>
      <trkpt lat="44.91985" lon="6.7371">
        <ele>2008.81</ele>
        <time>2017-01-12T09:10:07Z</time>
      </trkpt>
      <trkpt lat="44.91979" lon="6.73718">
        <ele>2011.22</ele>
        <time>2017-01-12T09:10:27Z</time>
      </trkpt>
      <trkpt lat="44.91979" lon="6.73727">
        <ele>2011.7</ele>
        <time>2017-01-12T09:10:42Z</time>
      </trkpt>
      <trkpt lat="44.91976" lon="6.73734">
        <ele>2013.62</ele>
        <time>2017-01-12T09:11:00Z</time>
      </trkpt>
      <trkpt lat="44.91972" lon="6.73739">
        <ele>2015.54</ele>
        <time>2017-01-12T09:11:12Z</time>
      </trkpt>
      <trkpt lat="44.91969" lon="6.73747">
        <ele>2017.46</ele>
        <time>2017-01-12T09:11:27Z</time>
      </trkpt>
      <trkpt lat="44.91963" lon="6.73754">
        <ele>2020.35</ele>
        <time>2017-01-12T09:11:43Z</time>
      </trkpt>
      <trkpt lat="44.9196" lon="6.73763">
        <ele>2021.79</ele>
        <time>2017-01-12T09:12:03Z</time>
      </trkpt>
      <trkpt lat="44.91954" lon="6.7377">
        <ele>2023.23</ele>
        <time>2017-01-12T09:12:21Z</time>
      </trkpt>
      <trkpt lat="44.91949" lon="6.73779">
        <ele>2025.15</ele>
        <time>2017-01-12T09:12:38Z</time>
      </trkpt>
      <trkpt lat="44.91944" lon="6.73787">
        <ele>2026.6</ele>
        <time>2017-01-12T09:12:57Z</time>
      </trkpt>
      <trkpt lat="44.91938" lon="6.73796">
        <ele>2029</ele>
        <time>2017-01-12T09:13:15Z</time>
      </trkpt>
      <trkpt lat="44.91932" lon="6.73803">
        <ele>2030.92</ele>
        <time>2017-01-12T09:13:34Z</time>
      </trkpt>
      <trkpt lat="44.91931" lon="6.73808">
        <ele>2031.4</ele>
        <time>2017-01-12T09:13:50Z</time>
      </trkpt>
      <trkpt lat="44.91931" lon="6.73806">
        <ele>2029.96</ele>
        <time>2017-01-12T09:14:27Z</time>
      </trkpt>
      <trkpt lat="44.91932" lon="6.73807">
        <ele>2029.96</ele>
        <time>2017-01-12T09:15:04Z</time>
      </trkpt>
      <trkpt lat="44.91933" lon="6.73809">
        <ele>2030.92</ele>
        <time>2017-01-12T09:15:49Z</time>
      </trkpt>
      <trkpt lat="44.91932" lon="6.7381">
        <ele>2030.44</ele>
        <time>2017-01-12T09:16:22Z</time>
      </trkpt>
      <trkpt lat="44.91933" lon="6.73808">
        <ele>2030.44</ele>
        <time>2017-01-12T09:17:09Z</time>
      </trkpt>
      <trkpt lat="44.91934" lon="6.73808">
        <ele>2030.92</ele>
        <time>2017-01-12T09:17:54Z</time>
      </trkpt>
      <trkpt lat="44.9193" lon="6.73806">
        <ele>2030.92</ele>
        <time>2017-01-12T09:18:22Z</time>
      </trkpt>
      <trkpt lat="44.91931" lon="6.7381">
        <ele>2030.92</ele>
        <time>2017-01-12T09:19:08Z</time>
      </trkpt>
      <trkpt lat="44.91936" lon="6.73808">
        <ele>2030.92</ele>
        <time>2017-01-12T09:19:52Z</time>
      </trkpt>
      <trkpt lat="44.91934" lon="6.73807">
        <ele>2031.88</ele>
        <time>2017-01-12T09:20:35Z</time>
      </trkpt>
      <trkpt lat="44.91932" lon="6.73806">
        <ele>2031.4</ele>
        <time>2017-01-12T09:21:14Z</time>
      </trkpt>
      <trkpt lat="44.91931" lon="6.73809">
        <ele>2031.4</ele>
        <time>2017-01-12T09:21:53Z</time>
      </trkpt>
      <trkpt lat="44.91931" lon="6.73808">
        <ele>2032.84</ele>
        <time>2017-01-12T09:22:14Z</time>
      </trkpt>
      <trkpt lat="44.91935" lon="6.73805">
        <ele>2032.84</ele>
        <time>2017-01-12T09:22:40Z</time>
      </trkpt>
      <trkpt lat="44.91928" lon="6.73817">
        <ele>2034.77</ele>
        <time>2017-01-12T09:22:57Z</time>
      </trkpt>
      <trkpt lat="44.91926" lon="6.73821">
        <ele>2036.21</ele>
        <time>2017-01-12T09:23:12Z</time>
      </trkpt>
      <trkpt lat="44.91923" lon="6.7383">
        <ele>2037.65</ele>
        <time>2017-01-12T09:23:28Z</time>
      </trkpt>
      <trkpt lat="44.9192" lon="6.7384">
        <ele>2039.09</ele>
        <time>2017-01-12T09:23:44Z</time>
      </trkpt>
      <trkpt lat="44.91919" lon="6.73844">
        <ele>2040.54</ele>
        <time>2017-01-12T09:23:59Z</time>
      </trkpt>
      <trkpt lat="44.91918" lon="6.73854">
        <ele>2041.98</ele>
        <time>2017-01-12T09:24:13Z</time>
      </trkpt>
      <trkpt lat="44.91916" lon="6.73859">
        <ele>2043.42</ele>
        <time>2017-01-12T09:24:27Z</time>
      </trkpt>
      <trkpt lat="44.91911" lon="6.73864">
        <ele>2044.86</ele>
        <time>2017-01-12T09:24:41Z</time>
      </trkpt>
      <trkpt lat="44.91909" lon="6.7387">
        <ele>2045.82</ele>
        <time>2017-01-12T09:24:54Z</time>
      </trkpt>
      <trkpt lat="44.91907" lon="6.73875">
        <ele>2046.3</ele>
        <time>2017-01-12T09:25:12Z</time>
      </trkpt>
      <trkpt lat="44.91908" lon="6.73885">
        <ele>2048.23</ele>
        <time>2017-01-12T09:25:27Z</time>
      </trkpt>
      <trkpt lat="44.9191" lon="6.73886">
        <ele>2049.67</ele>
        <time>2017-01-12T09:25:43Z</time>
      </trkpt>
      <trkpt lat="44.91909" lon="6.73891">
        <ele>2050.63</ele>
        <time>2017-01-12T09:26:00Z</time>
      </trkpt>
      <trkpt lat="44.91906" lon="6.73896">
        <ele>2052.07</ele>
        <time>2017-01-12T09:26:16Z</time>
      </trkpt>
      <trkpt lat="44.91903" lon="6.73901">
        <ele>2053.99</ele>
        <time>2017-01-12T09:26:31Z</time>
      </trkpt>
      <trkpt lat="44.91903" lon="6.73905">
        <ele>2055.44</ele>
        <time>2017-01-12T09:26:45Z</time>
      </trkpt>
      <trkpt lat="44.91901" lon="6.73911">
        <ele>2055.92</ele>
        <time>2017-01-12T09:27:02Z</time>
      </trkpt>
      <trkpt lat="44.91905" lon="6.73918">
        <ele>2058.32</ele>
        <time>2017-01-12T09:27:18Z</time>
      </trkpt>
      <trkpt lat="44.91907" lon="6.73917">
        <ele>2058.8</ele>
        <time>2017-01-12T09:27:34Z</time>
      </trkpt>
      <trkpt lat="44.91905" lon="6.7392">
        <ele>2058.32</ele>
        <time>2017-01-12T09:27:56Z</time>
      </trkpt>
      <trkpt lat="44.91906" lon="6.73919">
        <ele>2057.84</ele>
        <time>2017-01-12T09:28:13Z</time>
      </trkpt>
      <trkpt lat="44.91907" lon="6.73918">
        <ele>2057.84</ele>
        <time>2017-01-12T09:28:37Z</time>
      </trkpt>
      <trkpt lat="44.9191" lon="6.73918">
        <ele>2055.92</ele>
        <time>2017-01-12T09:29:08Z</time>
      </trkpt>
      <trkpt lat="44.91909" lon="6.73918">
        <ele>2059.28</ele>
        <time>2017-01-12T09:29:09Z</time>
      </trkpt>
      <trkpt lat="44.91906" lon="6.7392">
        <ele>2058.32</ele>
        <time>2017-01-12T09:29:18Z</time>
      </trkpt>
      <trkpt lat="44.91905" lon="6.73917">
        <ele>2057.84</ele>
        <time>2017-01-12T09:29:36Z</time>
      </trkpt>
      <trkpt lat="44.91905" lon="6.7392">
        <ele>2057.84</ele>
        <time>2017-01-12T09:29:57Z</time>
      </trkpt>
      <trkpt lat="44.91903" lon="6.73918">
        <ele>2057.36</ele>
        <time>2017-01-12T09:30:13Z</time>
      </trkpt>
      <trkpt lat="44.91905" lon="6.73919">
        <ele>2061.68</ele>
        <time>2017-01-12T09:30:26Z</time>
      </trkpt>
      <trkpt lat="44.91906" lon="6.73919">
        <ele>2058.32</ele>
        <time>2017-01-12T09:30:27Z</time>
      </trkpt>
      <trkpt lat="44.91902" lon="6.73921">
        <ele>2058.32</ele>
        <time>2017-01-12T09:30:44Z</time>
      </trkpt>
      <trkpt lat="44.91903" lon="6.73922">
        <ele>2059.28</ele>
        <time>2017-01-12T09:30:59Z</time>
      </trkpt>
      <trkpt lat="44.91905" lon="6.73927">
        <ele>2060.72</ele>
        <time>2017-01-12T09:31:14Z</time>
      </trkpt>
      <trkpt lat="44.91907" lon="6.73931">
        <ele>2062.65</ele>
        <time>2017-01-12T09:31:31Z</time>
      </trkpt>
      <trkpt lat="44.91908" lon="6.73931">
        <ele>2063.61</ele>
        <time>2017-01-12T09:31:44Z</time>
      </trkpt>
      <trkpt lat="44.91911" lon="6.73931">
        <ele>2063.61</ele>
        <time>2017-01-12T09:32:01Z</time>
      </trkpt>
      <trkpt lat="44.91911" lon="6.73932">
        <ele>2063.61</ele>
        <time>2017-01-12T09:32:21Z</time>
      </trkpt>
      <trkpt lat="44.91905" lon="6.73936">
        <ele>2064.57</ele>
        <time>2017-01-12T09:32:36Z</time>
      </trkpt>
      <trkpt lat="44.91904" lon="6.73941">
        <ele>2065.53</ele>
        <time>2017-01-12T09:32:46Z</time>
      </trkpt>
      <trkpt lat="44.91899" lon="6.73945">
        <ele>2066.97</ele>
        <time>2017-01-12T09:33:00Z</time>
      </trkpt>
      <trkpt lat="44.91896" lon="6.73951">
        <ele>2068.41</ele>
        <time>2017-01-12T09:33:14Z</time>
      </trkpt>
      <trkpt lat="44.91893" lon="6.73958">
        <ele>2069.86</ele>
        <time>2017-01-12T09:33:28Z</time>
      </trkpt>
      <trkpt lat="44.91895" lon="6.73966">
        <ele>2071.3</ele>
        <time>2017-01-12T09:33:41Z</time>
      </trkpt>
      <trkpt lat="44.91894" lon="6.73967">
        <ele>2072.74</ele>
        <time>2017-01-12T09:33:56Z</time>
      </trkpt>
      <trkpt lat="44.91895" lon="6.73973">
        <ele>2074.66</ele>
        <time>2017-01-12T09:34:12Z</time>
      </trkpt>
      <trkpt lat="44.91895" lon="6.7398">
        <ele>2076.1</ele>
        <time>2017-01-12T09:34:27Z</time>
      </trkpt>
      <trkpt lat="44.91897" lon="6.73986">
        <ele>2078.51</ele>
        <time>2017-01-12T09:34:43Z</time>
      </trkpt>
      <trkpt lat="44.91901" lon="6.7399">
        <ele>2080.43</ele>
        <time>2017-01-12T09:35:01Z</time>
      </trkpt>
      <trkpt lat="44.91905" lon="6.73993">
        <ele>2081.87</ele>
        <time>2017-01-12T09:35:18Z</time>
      </trkpt>
      <trkpt lat="44.91909" lon="6.73994">
        <ele>2083.79</ele>
        <time>2017-01-12T09:35:36Z</time>
      </trkpt>
      <trkpt lat="44.91908" lon="6.73997">
        <ele>2085.24</ele>
        <time>2017-01-12T09:35:50Z</time>
      </trkpt>
      <trkpt lat="44.91907" lon="6.74001">
        <ele>2085.72</ele>
        <time>2017-01-12T09:36:02Z</time>
      </trkpt>
      <trkpt lat="44.91904" lon="6.74007">
        <ele>2087.16</ele>
        <time>2017-01-12T09:36:14Z</time>
      </trkpt>
      <trkpt lat="44.91903" lon="6.74014">
        <ele>2089.08</ele>
        <time>2017-01-12T09:36:32Z</time>
      </trkpt>
      <trkpt lat="44.91904" lon="6.74021">
        <ele>2090.52</ele>
        <time>2017-01-12T09:36:48Z</time>
      </trkpt>
      <trkpt lat="44.91905" lon="6.74028">
        <ele>2091.97</ele>
        <time>2017-01-12T09:37:04Z</time>
      </trkpt>
      <trkpt lat="44.91907" lon="6.74032">
        <ele>2093.41</ele>
        <time>2017-01-12T09:37:19Z</time>
      </trkpt>
      <trkpt lat="44.9191" lon="6.74037">
        <ele>2094.85</ele>
        <time>2017-01-12T09:37:35Z</time>
      </trkpt>
      <trkpt lat="44.91913" lon="6.7404">
        <ele>2096.29</ele>
        <time>2017-01-12T09:37:51Z</time>
      </trkpt>
      <trkpt lat="44.91916" lon="6.74042">
        <ele>2098.21</ele>
        <time>2017-01-12T09:38:06Z</time>
      </trkpt>
      <trkpt lat="44.91916" lon="6.74044">
        <ele>2099.66</ele>
        <time>2017-01-12T09:38:20Z</time>
      </trkpt>
      <trkpt lat="44.91915" lon="6.74048">
        <ele>2100.62</ele>
        <time>2017-01-12T09:38:33Z</time>
      </trkpt>
      <trkpt lat="44.91913" lon="6.74054">
        <ele>2102.06</ele>
        <time>2017-01-12T09:38:48Z</time>
      </trkpt>
      <trkpt lat="44.91914" lon="6.74062">
        <ele>2103.5</ele>
        <time>2017-01-12T09:39:03Z</time>
      </trkpt>
      <trkpt lat="44.91918" lon="6.74065">
        <ele>2105.42</ele>
        <time>2017-01-12T09:39:20Z</time>
      </trkpt>
      <trkpt lat="44.91917" lon="6.74067">
        <ele>2106.39</ele>
        <time>2017-01-12T09:39:34Z</time>
      </trkpt>
      <trkpt lat="44.91916" lon="6.74071">
        <ele>2107.83</ele>
        <time>2017-01-12T09:39:48Z</time>
      </trkpt>
      <trkpt lat="44.91914" lon="6.74076">
        <ele>2109.27</ele>
        <time>2017-01-12T09:40:01Z</time>
      </trkpt>
      <trkpt lat="44.91914" lon="6.74083">
        <ele>2110.23</ele>
        <time>2017-01-12T09:40:16Z</time>
      </trkpt>
      <trkpt lat="44.91915" lon="6.74088">
        <ele>2111.67</ele>
        <time>2017-01-12T09:40:31Z</time>
      </trkpt>
      <trkpt lat="44.91916" lon="6.74094">
        <ele>2113.6</ele>
        <time>2017-01-12T09:40:48Z</time>
      </trkpt>
      <trkpt lat="44.91916" lon="6.74099">
        <ele>2115.52</ele>
        <time>2017-01-12T09:41:03Z</time>
      </trkpt>
      <trkpt lat="44.91916" lon="6.74103">
        <ele>2117.44</ele>
        <time>2017-01-12T09:41:17Z</time>
      </trkpt>
      <trkpt lat="44.91916" lon="6.7411">
        <ele>2118.88</ele>
        <time>2017-01-12T09:41:34Z</time>
      </trkpt>
      <trkpt lat="44.91918" lon="6.74114">
        <ele>2120.32</ele>
        <time>2017-01-12T09:41:54Z</time>
      </trkpt>
      <trkpt lat="44.91924" lon="6.74113">
        <ele>2122.25</ele>
        <time>2017-01-12T09:42:08Z</time>
      </trkpt>
      <trkpt lat="44.91924" lon="6.74116">
        <ele>2123.21</ele>
        <time>2017-01-12T09:42:22Z</time>
      </trkpt>
      <trkpt lat="44.91931" lon="6.74119">
        <ele>2125.13</ele>
        <time>2017-01-12T09:42:38Z</time>
      </trkpt>
      <trkpt lat="44.91937" lon="6.74119">
        <ele>2126.57</ele>
        <time>2017-01-12T09:42:51Z</time>
      </trkpt>
      <trkpt lat="44.91942" lon="6.74119">
        <ele>2127.53</ele>
        <time>2017-01-12T09:43:08Z</time>
      </trkpt>
      <trkpt lat="44.91942" lon="6.74117">
        <ele>2128.5</ele>
        <time>2017-01-12T09:43:23Z</time>
      </trkpt>
      <trkpt lat="44.9194" lon="6.7412">
        <ele>2129.94</ele>
        <time>2017-01-12T09:43:36Z</time>
      </trkpt>
      <trkpt lat="44.91938" lon="6.74124">
        <ele>2130.9</ele>
        <time>2017-01-12T09:43:50Z</time>
      </trkpt>
      <trkpt lat="44.91937" lon="6.74131">
        <ele>2131.86</ele>
        <time>2017-01-12T09:44:04Z</time>
      </trkpt>
      <trkpt lat="44.91933" lon="6.74135">
        <ele>2133.3</ele>
        <time>2017-01-12T09:44:17Z</time>
      </trkpt>
      <trkpt lat="44.91933" lon="6.74137">
        <ele>2133.78</ele>
        <time>2017-01-12T09:44:28Z</time>
      </trkpt>
      <trkpt lat="44.91931" lon="6.74141">
        <ele>2134.26</ele>
        <time>2017-01-12T09:44:40Z</time>
      </trkpt>
      <trkpt lat="44.91926" lon="6.74148">
        <ele>2134.74</ele>
        <time>2017-01-12T09:44:55Z</time>
      </trkpt>
      <trkpt lat="44.91923" lon="6.74152">
        <ele>2135.71</ele>
        <time>2017-01-12T09:45:09Z</time>
      </trkpt>
      <trkpt lat="44.9192" lon="6.74156">
        <ele>2136.67</ele>
        <time>2017-01-12T09:45:23Z</time>
      </trkpt>
      <trkpt lat="44.91916" lon="6.74157">
        <ele>2138.11</ele>
        <time>2017-01-12T09:45:37Z</time>
      </trkpt>
      <trkpt lat="44.91914" lon="6.74164">
        <ele>2139.55</ele>
        <time>2017-01-12T09:45:50Z</time>
      </trkpt>
      <trkpt lat="44.91913" lon="6.74167">
        <ele>2140.99</ele>
        <time>2017-01-12T09:46:04Z</time>
      </trkpt>
      <trkpt lat="44.9191" lon="6.74169">
        <ele>2142.44</ele>
        <time>2017-01-12T09:46:19Z</time>
      </trkpt>
      <trkpt lat="44.91906" lon="6.74172">
        <ele>2144.36</ele>
        <time>2017-01-12T09:46:33Z</time>
      </trkpt>
      <trkpt lat="44.91903" lon="6.74175">
        <ele>2145.32</ele>
        <time>2017-01-12T09:46:46Z</time>
      </trkpt>
      <trkpt lat="44.91904" lon="6.74181">
        <ele>2146.28</ele>
        <time>2017-01-12T09:47:00Z</time>
      </trkpt>
      <trkpt lat="44.91904" lon="6.74184">
        <ele>2146.76</ele>
        <time>2017-01-12T09:47:23Z</time>
      </trkpt>
      <trkpt lat="44.91903" lon="6.74184">
        <ele>2146.76</ele>
        <time>2017-01-12T09:47:45Z</time>
      </trkpt>
      <trkpt lat="44.91905" lon="6.74187">
        <ele>2147.72</ele>
        <time>2017-01-12T09:48:03Z</time>
      </trkpt>
      <trkpt lat="44.91911" lon="6.74191">
        <ele>2150.13</ele>
        <time>2017-01-12T09:48:20Z</time>
      </trkpt>
      <trkpt lat="44.91913" lon="6.7419">
        <ele>2150.13</ele>
        <time>2017-01-12T09:48:37Z</time>
      </trkpt>
      <trkpt lat="44.91908" lon="6.7419">
        <ele>2151.09</ele>
        <time>2017-01-12T09:48:52Z</time>
      </trkpt>
      <trkpt lat="44.91903" lon="6.74191">
        <ele>2152.05</ele>
        <time>2017-01-12T09:49:08Z</time>
      </trkpt>
      <trkpt lat="44.91901" lon="6.74192">
        <ele>2153.01</ele>
        <time>2017-01-12T09:49:22Z</time>
      </trkpt>
      <trkpt lat="44.91895" lon="6.74192">
        <ele>2154.45</ele>
        <time>2017-01-12T09:49:36Z</time>
      </trkpt>
      <trkpt lat="44.91891" lon="6.74193">
        <ele>2155.41</ele>
        <time>2017-01-12T09:49:50Z</time>
      </trkpt>
      <trkpt lat="44.91886" lon="6.74194">
        <ele>2156.37</ele>
        <time>2017-01-12T09:50:05Z</time>
      </trkpt>
      <trkpt lat="44.9188" lon="6.74194">
        <ele>2156.37</ele>
        <time>2017-01-12T09:50:21Z</time>
      </trkpt>
      <trkpt lat="44.91877" lon="6.74194">
        <ele>2156.86</ele>
        <time>2017-01-12T09:50:38Z</time>
      </trkpt>
      <trkpt lat="44.91873" lon="6.74191">
        <ele>2157.34</ele>
        <time>2017-01-12T09:50:55Z</time>
      </trkpt>
      <trkpt lat="44.91867" lon="6.74192">
        <ele>2158.3</ele>
        <time>2017-01-12T09:51:10Z</time>
      </trkpt>
      <trkpt lat="44.91868" lon="6.742">
        <ele>2159.26</ele>
        <time>2017-01-12T09:51:24Z</time>
      </trkpt>
      <trkpt lat="44.91868" lon="6.74203">
        <ele>2160.22</ele>
        <time>2017-01-12T09:51:36Z</time>
      </trkpt>
      <trkpt lat="44.91873" lon="6.74205">
        <ele>2160.7</ele>
        <time>2017-01-12T09:51:54Z</time>
      </trkpt>
      <trkpt lat="44.91876" lon="6.74208">
        <ele>2161.18</ele>
        <time>2017-01-12T09:52:09Z</time>
      </trkpt>
      <trkpt lat="44.91881" lon="6.74212">
        <ele>2163.1</ele>
        <time>2017-01-12T09:52:26Z</time>
      </trkpt>
      <trkpt lat="44.91885" lon="6.74217">
        <ele>2164.55</ele>
        <time>2017-01-12T09:52:42Z</time>
      </trkpt>
      <trkpt lat="44.91887" lon="6.74222">
        <ele>2165.51</ele>
        <time>2017-01-12T09:52:58Z</time>
      </trkpt>
      <trkpt lat="44.91889" lon="6.7422">
        <ele>2166.47</ele>
        <time>2017-01-12T09:53:11Z</time>
      </trkpt>
      <trkpt lat="44.91886" lon="6.74219">
        <ele>2168.39</ele>
        <time>2017-01-12T09:53:25Z</time>
      </trkpt>
      <trkpt lat="44.91886" lon="6.74221">
        <ele>2168.39</ele>
        <time>2017-01-12T09:53:44Z</time>
      </trkpt>
      <trkpt lat="44.91882" lon="6.74218">
        <ele>2169.83</ele>
        <time>2017-01-12T09:54:05Z</time>
      </trkpt>
      <trkpt lat="44.91879" lon="6.74223">
        <ele>2170.79</ele>
        <time>2017-01-12T09:54:18Z</time>
      </trkpt>
      <trkpt lat="44.91881" lon="6.74229">
        <ele>2172.24</ele>
        <time>2017-01-12T09:54:34Z</time>
      </trkpt>
      <trkpt lat="44.91885" lon="6.74235">
        <ele>2172.72</ele>
        <time>2017-01-12T09:54:51Z</time>
      </trkpt>
      <trkpt lat="44.9189" lon="6.74241">
        <ele>2174.64</ele>
        <time>2017-01-12T09:55:08Z</time>
      </trkpt>
      <trkpt lat="44.9189" lon="6.74244">
        <ele>2175.6</ele>
        <time>2017-01-12T09:55:23Z</time>
      </trkpt>
      <trkpt lat="44.91891" lon="6.74241">
        <ele>2176.56</ele>
        <time>2017-01-12T09:55:36Z</time>
      </trkpt>
      <trkpt lat="44.91888" lon="6.74239">
        <ele>2178</ele>
        <time>2017-01-12T09:55:50Z</time>
      </trkpt>
      <trkpt lat="44.91883" lon="6.7424">
        <ele>2178.48</ele>
        <time>2017-01-12T09:56:03Z</time>
      </trkpt>
      <trkpt lat="44.91879" lon="6.74238">
        <ele>2179.45</ele>
        <time>2017-01-12T09:56:17Z</time>
      </trkpt>
      <trkpt lat="44.91873" lon="6.74237">
        <ele>2180.41</ele>
        <time>2017-01-12T09:56:31Z</time>
      </trkpt>
      <trkpt lat="44.91869" lon="6.74236">
        <ele>2181.37</ele>
        <time>2017-01-12T09:56:44Z</time>
      </trkpt>
      <trkpt lat="44.91863" lon="6.74233">
        <ele>2182.33</ele>
        <time>2017-01-12T09:56:59Z</time>
      </trkpt>
      <trkpt lat="44.91859" lon="6.74233">
        <ele>2182.81</ele>
        <time>2017-01-12T09:57:12Z</time>
      </trkpt>
      <trkpt lat="44.91855" lon="6.74231">
        <ele>2184.25</ele>
        <time>2017-01-12T09:57:25Z</time>
      </trkpt>
      <trkpt lat="44.91851" lon="6.74231">
        <ele>2184.73</ele>
        <time>2017-01-12T09:57:40Z</time>
      </trkpt>
      <trkpt lat="44.91849" lon="6.74232">
        <ele>2184.73</ele>
        <time>2017-01-12T09:57:55Z</time>
      </trkpt>
      <trkpt lat="44.9185" lon="6.74232">
        <ele>2185.21</ele>
        <time>2017-01-12T09:58:14Z</time>
      </trkpt>
      <trkpt lat="44.91849" lon="6.74231">
        <ele>2185.21</ele>
        <time>2017-01-12T09:58:38Z</time>
      </trkpt>
      <trkpt lat="44.91847" lon="6.74237">
        <ele>2185.69</ele>
        <time>2017-01-12T09:58:54Z</time>
      </trkpt>
      <trkpt lat="44.91847" lon="6.74241">
        <ele>2186.18</ele>
        <time>2017-01-12T09:59:11Z</time>
      </trkpt>
      <trkpt lat="44.91851" lon="6.74245">
        <ele>2186.66</ele>
        <time>2017-01-12T09:59:34Z</time>
      </trkpt>
      <trkpt lat="44.91856" lon="6.7425">
        <ele>2188.58</ele>
        <time>2017-01-12T09:59:53Z</time>
      </trkpt>
      <trkpt lat="44.91859" lon="6.74254">
        <ele>2190.02</ele>
        <time>2017-01-12T10:00:10Z</time>
      </trkpt>
      <trkpt lat="44.91864" lon="6.74257">
        <ele>2190.98</ele>
        <time>2017-01-12T10:00:25Z</time>
      </trkpt>
      <trkpt lat="44.91866" lon="6.74262">
        <ele>2192.9</ele>
        <time>2017-01-12T10:00:41Z</time>
      </trkpt>
      <trkpt lat="44.91868" lon="6.74266">
        <ele>2194.35</ele>
        <time>2017-01-12T10:00:56Z</time>
      </trkpt>
      <trkpt lat="44.91869" lon="6.74272">
        <ele>2195.79</ele>
        <time>2017-01-12T10:01:10Z</time>
      </trkpt>
      <trkpt lat="44.91869" lon="6.74277">
        <ele>2196.75</ele>
        <time>2017-01-12T10:01:29Z</time>
      </trkpt>
      <trkpt lat="44.91872" lon="6.74281">
        <ele>2198.19</ele>
        <time>2017-01-12T10:01:43Z</time>
      </trkpt>
      <trkpt lat="44.91877" lon="6.74286">
        <ele>2199.15</ele>
        <time>2017-01-12T10:02:02Z</time>
      </trkpt>
      <trkpt lat="44.91879" lon="6.7429">
        <ele>2200.11</ele>
        <time>2017-01-12T10:02:17Z</time>
      </trkpt>
      <trkpt lat="44.91878" lon="6.74299">
        <ele>2201.08</ele>
        <time>2017-01-12T10:02:32Z</time>
      </trkpt>
      <trkpt lat="44.91879" lon="6.74304">
        <ele>2202.04</ele>
        <time>2017-01-12T10:02:47Z</time>
      </trkpt>
      <trkpt lat="44.91879" lon="6.74306">
        <ele>2201.08</ele>
        <time>2017-01-12T10:02:59Z</time>
      </trkpt>
      <trkpt lat="44.9188" lon="6.74304">
        <ele>2201.08</ele>
        <time>2017-01-12T10:03:41Z</time>
      </trkpt>
      <trkpt lat="44.91881" lon="6.74304">
        <ele>2201.08</ele>
        <time>2017-01-12T10:04:09Z</time>
      </trkpt>
      <trkpt lat="44.91884" lon="6.74303">
        <ele>2201.08</ele>
        <time>2017-01-12T10:04:42Z</time>
      </trkpt>
      <trkpt lat="44.91882" lon="6.74309">
        <ele>2201.08</ele>
        <time>2017-01-12T10:05:25Z</time>
      </trkpt>
      <trkpt lat="44.9188" lon="6.74305">
        <ele>2201.08</ele>
        <time>2017-01-12T10:06:01Z</time>
      </trkpt>
      <trkpt lat="44.91878" lon="6.74306">
        <ele>2201.08</ele>
        <time>2017-01-12T10:06:44Z</time>
      </trkpt>
      <trkpt lat="44.91878" lon="6.74304">
        <ele>2200.59</ele>
        <time>2017-01-12T10:07:17Z</time>
      </trkpt>
      <trkpt lat="44.91878" lon="6.74306">
        <ele>2201.08</ele>
        <time>2017-01-12T10:08:00Z</time>
      </trkpt>
      <trkpt lat="44.91879" lon="6.74308">
        <ele>2200.59</ele>
        <time>2017-01-12T10:08:32Z</time>
      </trkpt>
      <trkpt lat="44.91876" lon="6.74308">
        <ele>2200.59</ele>
        <time>2017-01-12T10:09:08Z</time>
      </trkpt>
      <trkpt lat="44.91877" lon="6.74308">
        <ele>2200.59</ele>
        <time>2017-01-12T10:09:42Z</time>
      </trkpt>
      <trkpt lat="44.91883" lon="6.74306">
        <ele>2200.11</ele>
        <time>2017-01-12T10:10:17Z</time>
      </trkpt>
      <trkpt lat="44.91882" lon="6.74306">
        <ele>2200.11</ele>
        <time>2017-01-12T10:10:54Z</time>
      </trkpt>
      <trkpt lat="44.9188" lon="6.74306">
        <ele>2200.11</ele>
        <time>2017-01-12T10:11:31Z</time>
      </trkpt>
      <trkpt lat="44.9188" lon="6.74305">
        <ele>2200.59</ele>
        <time>2017-01-12T10:11:46Z</time>
      </trkpt>
      <trkpt lat="44.91879" lon="6.74308">
        <ele>2200.59</ele>
        <time>2017-01-12T10:12:09Z</time>
      </trkpt>
      <trkpt lat="44.91877" lon="6.74308">
        <ele>2202.52</ele>
        <time>2017-01-12T10:12:34Z</time>
      </trkpt>
      <trkpt lat="44.91876" lon="6.74308">
        <ele>2200.59</ele>
        <time>2017-01-12T10:13:01Z</time>
      </trkpt>
      <trkpt lat="44.91878" lon="6.74308">
        <ele>2200.11</ele>
        <time>2017-01-12T10:13:31Z</time>
      </trkpt>
      <trkpt lat="44.91878" lon="6.74308">
        <ele>2200.11</ele>
        <time>2017-01-12T10:14:09Z</time>
      </trkpt>
      <trkpt lat="44.91877" lon="6.74307">
        <ele>2199.63</ele>
        <time>2017-01-12T10:14:46Z</time>
      </trkpt>
      <trkpt lat="44.91875" lon="6.74307">
        <ele>2199.15</ele>
        <time>2017-01-12T10:15:19Z</time>
      </trkpt>
      <trkpt lat="44.91876" lon="6.74306">
        <ele>2199.15</ele>
        <time>2017-01-12T10:15:48Z</time>
      </trkpt>
      <trkpt lat="44.91876" lon="6.74309">
        <ele>2199.15</ele>
        <time>2017-01-12T10:16:02Z</time>
      </trkpt>
      <trkpt lat="44.91875" lon="6.74311">
        <ele>2199.15</ele>
        <time>2017-01-12T10:16:22Z</time>
      </trkpt>
      <trkpt lat="44.91868" lon="6.74316">
        <ele>2200.59</ele>
        <time>2017-01-12T10:16:39Z</time>
      </trkpt>
      <trkpt lat="44.91863" lon="6.74322">
        <ele>2202.04</ele>
        <time>2017-01-12T10:16:54Z</time>
      </trkpt>
      <trkpt lat="44.91858" lon="6.74326">
        <ele>2203.48</ele>
        <time>2017-01-12T10:17:11Z</time>
      </trkpt>
      <trkpt lat="44.91851" lon="6.74329">
        <ele>2205.4</ele>
        <time>2017-01-12T10:17:29Z</time>
      </trkpt>
      <trkpt lat="44.91847" lon="6.7433">
        <ele>2206.84</ele>
        <time>2017-01-12T10:17:43Z</time>
      </trkpt>
      <trkpt lat="44.91842" lon="6.74337">
        <ele>2207.81</ele>
        <time>2017-01-12T10:17:58Z</time>
      </trkpt>
      <trkpt lat="44.9184" lon="6.74346">
        <ele>2209.73</ele>
        <time>2017-01-12T10:18:17Z</time>
      </trkpt>
      <trkpt lat="44.91839" lon="6.74353">
        <ele>2212.13</ele>
        <time>2017-01-12T10:18:33Z</time>
      </trkpt>
      <trkpt lat="44.91839" lon="6.74358">
        <ele>2213.09</ele>
        <time>2017-01-12T10:18:47Z</time>
      </trkpt>
      <trkpt lat="44.91838" lon="6.74364">
        <ele>2214.53</ele>
        <time>2017-01-12T10:19:01Z</time>
      </trkpt>
      <trkpt lat="44.91835" lon="6.74365">
        <ele>2215.5</ele>
        <time>2017-01-12T10:19:15Z</time>
      </trkpt>
      <trkpt lat="44.91831" lon="6.74368">
        <ele>2217.42</ele>
        <time>2017-01-12T10:19:30Z</time>
      </trkpt>
      <trkpt lat="44.91827" lon="6.74369">
        <ele>2218.38</ele>
        <time>2017-01-12T10:19:45Z</time>
      </trkpt>
      <trkpt lat="44.91822" lon="6.74371">
        <ele>2219.82</ele>
        <time>2017-01-12T10:20:00Z</time>
      </trkpt>
      <trkpt lat="44.91818" lon="6.74376">
        <ele>2221.26</ele>
        <time>2017-01-12T10:20:14Z</time>
      </trkpt>
      <trkpt lat="44.91816" lon="6.74378">
        <ele>2222.71</ele>
        <time>2017-01-12T10:20:27Z</time>
      </trkpt>
      <trkpt lat="44.91814" lon="6.7438">
        <ele>2223.19</ele>
        <time>2017-01-12T10:20:42Z</time>
      </trkpt>
      <trkpt lat="44.91814" lon="6.74381">
        <ele>2222.71</ele>
        <time>2017-01-12T10:21:11Z</time>
      </trkpt>
      <trkpt lat="44.91815" lon="6.74381">
        <ele>2223.19</ele>
        <time>2017-01-12T10:21:36Z</time>
      </trkpt>
      <trkpt lat="44.91813" lon="6.7438">
        <ele>2223.19</ele>
        <time>2017-01-12T10:21:58Z</time>
      </trkpt>
      <trkpt lat="44.91814" lon="6.74381">
        <ele>2223.19</ele>
        <time>2017-01-12T10:22:14Z</time>
      </trkpt>
      <trkpt lat="44.91811" lon="6.74388">
        <ele>2224.63</ele>
        <time>2017-01-12T10:22:32Z</time>
      </trkpt>
      <trkpt lat="44.91808" lon="6.74396">
        <ele>2226.07</ele>
        <time>2017-01-12T10:22:45Z</time>
      </trkpt>
      <trkpt lat="44.91804" lon="6.74402">
        <ele>2227.51</ele>
        <time>2017-01-12T10:23:02Z</time>
      </trkpt>
      <trkpt lat="44.918" lon="6.74406">
        <ele>2228.95</ele>
        <time>2017-01-12T10:23:17Z</time>
      </trkpt>
      <trkpt lat="44.91793" lon="6.74412">
        <ele>2229.92</ele>
        <time>2017-01-12T10:23:31Z</time>
      </trkpt>
      <trkpt lat="44.91788" lon="6.74421">
        <ele>2231.84</ele>
        <time>2017-01-12T10:23:49Z</time>
      </trkpt>
      <trkpt lat="44.91785" lon="6.74427">
        <ele>2232.8</ele>
        <time>2017-01-12T10:24:03Z</time>
      </trkpt>
      <trkpt lat="44.91782" lon="6.74432">
        <ele>2234.72</ele>
        <time>2017-01-12T10:24:18Z</time>
      </trkpt>
      <trkpt lat="44.91779" lon="6.74437">
        <ele>2235.68</ele>
        <time>2017-01-12T10:24:32Z</time>
      </trkpt>
      <trkpt lat="44.91776" lon="6.74444">
        <ele>2236.64</ele>
        <time>2017-01-12T10:24:47Z</time>
      </trkpt>
      <trkpt lat="44.91773" lon="6.7445">
        <ele>2238.09</ele>
        <time>2017-01-12T10:25:01Z</time>
      </trkpt>
      <trkpt lat="44.91769" lon="6.74455">
        <ele>2239.53</ele>
        <time>2017-01-12T10:25:16Z</time>
      </trkpt>
      <trkpt lat="44.91766" lon="6.7446">
        <ele>2240.97</ele>
        <time>2017-01-12T10:25:30Z</time>
      </trkpt>
      <trkpt lat="44.91764" lon="6.74464">
        <ele>2242.41</ele>
        <time>2017-01-12T10:25:44Z</time>
      </trkpt>
      <trkpt lat="44.9176" lon="6.74468">
        <ele>2243.85</ele>
        <time>2017-01-12T10:25:59Z</time>
      </trkpt>
      <trkpt lat="44.91757" lon="6.74473">
        <ele>2245.78</ele>
        <time>2017-01-12T10:26:15Z</time>
      </trkpt>
      <trkpt lat="44.91752" lon="6.7448">
        <ele>2246.74</ele>
        <time>2017-01-12T10:26:30Z</time>
      </trkpt>
      <trkpt lat="44.91749" lon="6.74484">
        <ele>2247.7</ele>
        <time>2017-01-12T10:26:46Z</time>
      </trkpt>
      <trkpt lat="44.91745" lon="6.74488">
        <ele>2249.14</ele>
        <time>2017-01-12T10:27:00Z</time>
      </trkpt>
      <trkpt lat="44.91741" lon="6.74491">
        <ele>2251.06</ele>
        <time>2017-01-12T10:27:14Z</time>
      </trkpt>
      <trkpt lat="44.91739" lon="6.74495">
        <ele>2252.03</ele>
        <time>2017-01-12T10:27:27Z</time>
      </trkpt>
      <trkpt lat="44.91739" lon="6.74495">
        <ele>2252.51</ele>
        <time>2017-01-12T10:27:50Z</time>
      </trkpt>
      <trkpt lat="44.91739" lon="6.74496">
        <ele>2252.99</ele>
        <time>2017-01-12T10:28:08Z</time>
      </trkpt>
      <trkpt lat="44.91736" lon="6.745">
        <ele>2254.43</ele>
        <time>2017-01-12T10:28:21Z</time>
      </trkpt>
      <trkpt lat="44.91732" lon="6.74506">
        <ele>2256.35</ele>
        <time>2017-01-12T10:28:35Z</time>
      </trkpt>
      <trkpt lat="44.91728" lon="6.74514">
        <ele>2257.79</ele>
        <time>2017-01-12T10:28:50Z</time>
      </trkpt>
      <trkpt lat="44.91725" lon="6.74519">
        <ele>2259.24</ele>
        <time>2017-01-12T10:29:05Z</time>
      </trkpt>
      <trkpt lat="44.91722" lon="6.74524">
        <ele>2261.16</ele>
        <time>2017-01-12T10:29:21Z</time>
      </trkpt>
      <trkpt lat="44.9172" lon="6.7453">
        <ele>2262.6</ele>
        <time>2017-01-12T10:29:37Z</time>
      </trkpt>
      <trkpt lat="44.91719" lon="6.74536">
        <ele>2264.04</ele>
        <time>2017-01-12T10:29:53Z</time>
      </trkpt>
      <trkpt lat="44.91718" lon="6.74542">
        <ele>2265.48</ele>
        <time>2017-01-12T10:30:08Z</time>
      </trkpt>
      <trkpt lat="44.91716" lon="6.74547">
        <ele>2266.93</ele>
        <time>2017-01-12T10:30:23Z</time>
      </trkpt>
      <trkpt lat="44.91715" lon="6.74554">
        <ele>2268.37</ele>
        <time>2017-01-12T10:30:38Z</time>
      </trkpt>
      <trkpt lat="44.91713" lon="6.74558">
        <ele>2269.81</ele>
        <time>2017-01-12T10:30:52Z</time>
      </trkpt>
      <trkpt lat="44.9171" lon="6.74567">
        <ele>2270.77</ele>
        <time>2017-01-12T10:31:06Z</time>
      </trkpt>
      <trkpt lat="44.91708" lon="6.74573">
        <ele>2271.73</ele>
        <time>2017-01-12T10:31:19Z</time>
      </trkpt>
      <trkpt lat="44.91705" lon="6.74579">
        <ele>2272.69</ele>
        <time>2017-01-12T10:31:32Z</time>
      </trkpt>
      <trkpt lat="44.91703" lon="6.74585">
        <ele>2273.66</ele>
        <time>2017-01-12T10:31:45Z</time>
      </trkpt>
      <trkpt lat="44.917" lon="6.74591">
        <ele>2274.62</ele>
        <time>2017-01-12T10:32:01Z</time>
      </trkpt>
      <trkpt lat="44.91698" lon="6.74595">
        <ele>2276.06</ele>
        <time>2017-01-12T10:32:14Z</time>
      </trkpt>
      <trkpt lat="44.91695" lon="6.74598">
        <ele>2277.02</ele>
        <time>2017-01-12T10:32:28Z</time>
      </trkpt>
      <trkpt lat="44.91692" lon="6.74601">
        <ele>2278.46</ele>
        <time>2017-01-12T10:32:40Z</time>
      </trkpt>
      <trkpt lat="44.9169" lon="6.74605">
        <ele>2278.94</ele>
        <time>2017-01-12T10:32:53Z</time>
      </trkpt>
      <trkpt lat="44.91688" lon="6.74608">
        <ele>2279.9</ele>
        <time>2017-01-12T10:33:06Z</time>
      </trkpt>
      <trkpt lat="44.91685" lon="6.74612">
        <ele>2280.87</ele>
        <time>2017-01-12T10:33:18Z</time>
      </trkpt>
      <trkpt lat="44.91682" lon="6.74616">
        <ele>2282.31</ele>
        <time>2017-01-12T10:33:30Z</time>
      </trkpt>
      <trkpt lat="44.91679" lon="6.74618">
        <ele>2282.79</ele>
        <time>2017-01-12T10:33:42Z</time>
      </trkpt>
      <trkpt lat="44.91676" lon="6.74622">
        <ele>2284.23</ele>
        <time>2017-01-12T10:33:56Z</time>
      </trkpt>
      <trkpt lat="44.91673" lon="6.74625">
        <ele>2284.71</ele>
        <time>2017-01-12T10:34:09Z</time>
      </trkpt>
      <trkpt lat="44.91671" lon="6.74629">
        <ele>2286.15</ele>
        <time>2017-01-12T10:34:21Z</time>
      </trkpt>
      <trkpt lat="44.91668" lon="6.74633">
        <ele>2287.11</ele>
        <time>2017-01-12T10:34:34Z</time>
      </trkpt>
      <trkpt lat="44.91666" lon="6.74638">
        <ele>2288.08</ele>
        <time>2017-01-12T10:34:47Z</time>
      </trkpt>
      <trkpt lat="44.91663" lon="6.7464">
        <ele>2289.52</ele>
        <time>2017-01-12T10:35:01Z</time>
      </trkpt>
      <trkpt lat="44.9166" lon="6.74644">
        <ele>2290.96</ele>
        <time>2017-01-12T10:35:16Z</time>
      </trkpt>
      <trkpt lat="44.91657" lon="6.74649">
        <ele>2292.4</ele>
        <time>2017-01-12T10:35:30Z</time>
      </trkpt>
      <trkpt lat="44.91656" lon="6.74651">
        <ele>2293.36</ele>
        <time>2017-01-12T10:35:45Z</time>
      </trkpt>
      <trkpt lat="44.91659" lon="6.74653">
        <ele>2293.84</ele>
        <time>2017-01-12T10:35:59Z</time>
      </trkpt>
      <trkpt lat="44.91662" lon="6.74656">
        <ele>2294.8</ele>
        <time>2017-01-12T10:36:18Z</time>
      </trkpt>
      <trkpt lat="44.91666" lon="6.74657">
        <ele>2296.25</ele>
        <time>2017-01-12T10:36:32Z</time>
      </trkpt>
      <trkpt lat="44.91671" lon="6.74659">
        <ele>2297.69</ele>
        <time>2017-01-12T10:36:46Z</time>
      </trkpt>
      <trkpt lat="44.91674" lon="6.74659">
        <ele>2299.13</ele>
        <time>2017-01-12T10:37:01Z</time>
      </trkpt>
      <trkpt lat="44.91677" lon="6.7466">
        <ele>2300.57</ele>
        <time>2017-01-12T10:37:15Z</time>
      </trkpt>
      <trkpt lat="44.91674" lon="6.74661">
        <ele>2301.05</ele>
        <time>2017-01-12T10:37:33Z</time>
      </trkpt>
      <trkpt lat="44.91672" lon="6.74665">
        <ele>2302.01</ele>
        <time>2017-01-12T10:37:46Z</time>
      </trkpt>
      <trkpt lat="44.91669" lon="6.7467">
        <ele>2303.46</ele>
        <time>2017-01-12T10:38:00Z</time>
      </trkpt>
      <trkpt lat="44.91668" lon="6.74672">
        <ele>2304.42</ele>
        <time>2017-01-12T10:38:15Z</time>
      </trkpt>
      <trkpt lat="44.91666" lon="6.74676">
        <ele>2305.86</ele>
        <time>2017-01-12T10:38:29Z</time>
      </trkpt>
      <trkpt lat="44.91667" lon="6.74681">
        <ele>2307.3</ele>
        <time>2017-01-12T10:38:45Z</time>
      </trkpt>
      <trkpt lat="44.91668" lon="6.74682">
        <ele>2307.78</ele>
        <time>2017-01-12T10:39:04Z</time>
      </trkpt>
      <trkpt lat="44.91672" lon="6.74682">
        <ele>2309.22</ele>
        <time>2017-01-12T10:39:19Z</time>
      </trkpt>
      <trkpt lat="44.91673" lon="6.74682">
        <ele>2309.7</ele>
        <time>2017-01-12T10:39:39Z</time>
      </trkpt>
      <trkpt lat="44.91676" lon="6.74679">
        <ele>2311.15</ele>
        <time>2017-01-12T10:39:55Z</time>
      </trkpt>
      <trkpt lat="44.91674" lon="6.74681">
        <ele>2311.15</ele>
        <time>2017-01-12T10:40:10Z</time>
      </trkpt>
      <trkpt lat="44.91672" lon="6.74685">
        <ele>2312.59</ele>
        <time>2017-01-12T10:40:32Z</time>
      </trkpt>
      <trkpt lat="44.91669" lon="6.7469">
        <ele>2313.55</ele>
        <time>2017-01-12T10:40:46Z</time>
      </trkpt>
      <trkpt lat="44.91666" lon="6.74693">
        <ele>2314.99</ele>
        <time>2017-01-12T10:41:00Z</time>
      </trkpt>
      <trkpt lat="44.91662" lon="6.74696">
        <ele>2315.95</ele>
        <time>2017-01-12T10:41:14Z</time>
      </trkpt>
      <trkpt lat="44.9166" lon="6.747">
        <ele>2317.4</ele>
        <time>2017-01-12T10:41:27Z</time>
      </trkpt>
      <trkpt lat="44.9166" lon="6.74703">
        <ele>2317.4</ele>
        <time>2017-01-12T10:41:43Z</time>
      </trkpt>
      <trkpt lat="44.91665" lon="6.74704">
        <ele>2317.88</ele>
        <time>2017-01-12T10:42:03Z</time>
      </trkpt>
      <trkpt lat="44.91669" lon="6.74705">
        <ele>2319.32</ele>
        <time>2017-01-12T10:42:17Z</time>
      </trkpt>
      <trkpt lat="44.91669" lon="6.74706">
        <ele>2320.28</ele>
        <time>2017-01-12T10:42:30Z</time>
      </trkpt>
      <trkpt lat="44.91672" lon="6.74708">
        <ele>2321.24</ele>
        <time>2017-01-12T10:42:43Z</time>
      </trkpt>
      <trkpt lat="44.9167" lon="6.74707">
        <ele>2321.72</ele>
        <time>2017-01-12T10:42:59Z</time>
      </trkpt>
      <trkpt lat="44.91668" lon="6.74708">
        <ele>2322.68</ele>
        <time>2017-01-12T10:43:14Z</time>
      </trkpt>
      <trkpt lat="44.91668" lon="6.7471">
        <ele>2323.16</ele>
        <time>2017-01-12T10:43:25Z</time>
      </trkpt>
      <trkpt lat="44.91665" lon="6.74711">
        <ele>2324.61</ele>
        <time>2017-01-12T10:43:38Z</time>
      </trkpt>
      <trkpt lat="44.91662" lon="6.74715">
        <ele>2325.57</ele>
        <time>2017-01-12T10:43:51Z</time>
      </trkpt>
      <trkpt lat="44.9166" lon="6.74719">
        <ele>2326.53</ele>
        <time>2017-01-12T10:44:04Z</time>
      </trkpt>
      <trkpt lat="44.91657" lon="6.74721">
        <ele>2327.97</ele>
        <time>2017-01-12T10:44:17Z</time>
      </trkpt>
      <trkpt lat="44.91655" lon="6.74725">
        <ele>2329.41</ele>
        <time>2017-01-12T10:44:30Z</time>
      </trkpt>
      <trkpt lat="44.91652" lon="6.74728">
        <ele>2330.37</ele>
        <time>2017-01-12T10:44:42Z</time>
      </trkpt>
      <trkpt lat="44.9165" lon="6.7473">
        <ele>2331.33</ele>
        <time>2017-01-12T10:44:55Z</time>
      </trkpt>
      <trkpt lat="44.91646" lon="6.74732">
        <ele>2332.78</ele>
        <time>2017-01-12T10:45:09Z</time>
      </trkpt>
      <trkpt lat="44.91644" lon="6.74734">
        <ele>2334.22</ele>
        <time>2017-01-12T10:45:22Z</time>
      </trkpt>
      <trkpt lat="44.91642" lon="6.74736">
        <ele>2335.18</ele>
        <time>2017-01-12T10:45:35Z</time>
      </trkpt>
      <trkpt lat="44.91639" lon="6.74737">
        <ele>2336.14</ele>
        <time>2017-01-12T10:45:48Z</time>
      </trkpt>
      <trkpt lat="44.91637" lon="6.7474">
        <ele>2337.58</ele>
        <time>2017-01-12T10:46:01Z</time>
      </trkpt>
      <trkpt lat="44.91633" lon="6.74741">
        <ele>2338.54</ele>
        <time>2017-01-12T10:46:14Z</time>
      </trkpt>
      <trkpt lat="44.91631" lon="6.74742">
        <ele>2339.02</ele>
        <time>2017-01-12T10:46:28Z</time>
      </trkpt>
      <trkpt lat="44.9163" lon="6.74744">
        <ele>2339.02</ele>
        <time>2017-01-12T10:46:45Z</time>
      </trkpt>
      <trkpt lat="44.91628" lon="6.74747">
        <ele>2340.95</ele>
        <time>2017-01-12T10:47:03Z</time>
      </trkpt>
      <trkpt lat="44.91628" lon="6.7475">
        <ele>2340.95</ele>
        <time>2017-01-12T10:47:24Z</time>
      </trkpt>
      <trkpt lat="44.91633" lon="6.74753">
        <ele>2341.91</ele>
        <time>2017-01-12T10:47:41Z</time>
      </trkpt>
      <trkpt lat="44.91637" lon="6.74755">
        <ele>2343.83</ele>
        <time>2017-01-12T10:47:56Z</time>
      </trkpt>
      <trkpt lat="44.91641" lon="6.74758">
        <ele>2345.27</ele>
        <time>2017-01-12T10:48:12Z</time>
      </trkpt>
      <trkpt lat="44.91645" lon="6.74762">
        <ele>2346.72</ele>
        <time>2017-01-12T10:48:27Z</time>
      </trkpt>
      <trkpt lat="44.91649" lon="6.74765">
        <ele>2348.16</ele>
        <time>2017-01-12T10:48:41Z</time>
      </trkpt>
      <trkpt lat="44.91649" lon="6.74764">
        <ele>2349.12</ele>
        <time>2017-01-12T10:48:45Z</time>
      </trkpt>
      <trkpt lat="44.91652" lon="6.74766">
        <ele>2349.6</ele>
        <time>2017-01-12T10:49:00Z</time>
      </trkpt>
      <trkpt lat="44.91658" lon="6.74767">
        <ele>2350.08</ele>
        <time>2017-01-12T10:49:15Z</time>
      </trkpt>
      <trkpt lat="44.91663" lon="6.74769">
        <ele>2351.52</ele>
        <time>2017-01-12T10:49:32Z</time>
      </trkpt>
      <trkpt lat="44.91667" lon="6.74771">
        <ele>2352.48</ele>
        <time>2017-01-12T10:49:47Z</time>
      </trkpt>
      <trkpt lat="44.91672" lon="6.74771">
        <ele>2353.93</ele>
        <time>2017-01-12T10:50:02Z</time>
      </trkpt>
      <trkpt lat="44.91676" lon="6.74771">
        <ele>2355.37</ele>
        <time>2017-01-12T10:50:17Z</time>
      </trkpt>
      <trkpt lat="44.9168" lon="6.74772">
        <ele>2356.81</ele>
        <time>2017-01-12T10:50:32Z</time>
      </trkpt>
      <trkpt lat="44.91684" lon="6.74772">
        <ele>2357.77</ele>
        <time>2017-01-12T10:50:47Z</time>
      </trkpt>
      <trkpt lat="44.91689" lon="6.74772">
        <ele>2358.73</ele>
        <time>2017-01-12T10:51:02Z</time>
      </trkpt>
      <trkpt lat="44.91693" lon="6.74773">
        <ele>2359.69</ele>
        <time>2017-01-12T10:51:18Z</time>
      </trkpt>
      <trkpt lat="44.91698" lon="6.74773">
        <ele>2361.62</ele>
        <time>2017-01-12T10:51:34Z</time>
      </trkpt>
      <trkpt lat="44.91704" lon="6.74774">
        <ele>2363.06</ele>
        <time>2017-01-12T10:51:51Z</time>
      </trkpt>
      <trkpt lat="44.91709" lon="6.7477">
        <ele>2364.02</ele>
        <time>2017-01-12T10:52:07Z</time>
      </trkpt>
      <trkpt lat="44.91715" lon="6.74766">
        <ele>2365.46</ele>
        <time>2017-01-12T10:52:25Z</time>
      </trkpt>
      <trkpt lat="44.91719" lon="6.74764">
        <ele>2366.42</ele>
        <time>2017-01-12T10:52:41Z</time>
      </trkpt>
      <trkpt lat="44.91723" lon="6.74763">
        <ele>2367.86</ele>
        <time>2017-01-12T10:52:57Z</time>
      </trkpt>
      <trkpt lat="44.91728" lon="6.74763">
        <ele>2368.83</ele>
        <time>2017-01-12T10:53:11Z</time>
      </trkpt>
      <trkpt lat="44.91733" lon="6.74764">
        <ele>2370.75</ele>
        <time>2017-01-12T10:53:27Z</time>
      </trkpt>
      <trkpt lat="44.91734" lon="6.74765">
        <ele>2371.23</ele>
        <time>2017-01-12T10:53:43Z</time>
      </trkpt>
      <trkpt lat="44.91739" lon="6.74767">
        <ele>2372.67</ele>
        <time>2017-01-12T10:53:59Z</time>
      </trkpt>
      <trkpt lat="44.91741" lon="6.74765">
        <ele>2373.63</ele>
        <time>2017-01-12T10:54:16Z</time>
      </trkpt>
      <trkpt lat="44.91741" lon="6.74763">
        <ele>2372.67</ele>
        <time>2017-01-12T10:54:21Z</time>
      </trkpt>
      <trkpt lat="44.91741" lon="6.74763">
        <ele>2374.11</ele>
        <time>2017-01-12T10:54:26Z</time>
      </trkpt>
      <trkpt lat="44.91739" lon="6.74765">
        <ele>2374.59</ele>
        <time>2017-01-12T10:54:37Z</time>
      </trkpt>
      <trkpt lat="44.91735" lon="6.7477">
        <ele>2375.55</ele>
        <time>2017-01-12T10:54:52Z</time>
      </trkpt>
      <trkpt lat="44.91733" lon="6.74778">
        <ele>2377</ele>
        <time>2017-01-12T10:55:06Z</time>
      </trkpt>
      <trkpt lat="44.91731" lon="6.74782">
        <ele>2378.44</ele>
        <time>2017-01-12T10:55:22Z</time>
      </trkpt>
      <trkpt lat="44.9173" lon="6.74787">
        <ele>2380.36</ele>
        <time>2017-01-12T10:55:39Z</time>
      </trkpt>
      <trkpt lat="44.91729" lon="6.74791">
        <ele>2381.32</ele>
        <time>2017-01-12T10:55:51Z</time>
      </trkpt>
      <trkpt lat="44.91728" lon="6.74796">
        <ele>2382.76</ele>
        <time>2017-01-12T10:56:05Z</time>
      </trkpt>
      <trkpt lat="44.91727" lon="6.74802">
        <ele>2383.73</ele>
        <time>2017-01-12T10:56:18Z</time>
      </trkpt>
      <trkpt lat="44.91726" lon="6.74806">
        <ele>2385.65</ele>
        <time>2017-01-12T10:56:33Z</time>
      </trkpt>
      <trkpt lat="44.91725" lon="6.74811">
        <ele>2386.61</ele>
        <time>2017-01-12T10:56:47Z</time>
      </trkpt>
      <trkpt lat="44.91723" lon="6.74814">
        <ele>2388.05</ele>
        <time>2017-01-12T10:57:00Z</time>
      </trkpt>
      <trkpt lat="44.91721" lon="6.74818">
        <ele>2389.49</ele>
        <time>2017-01-12T10:57:13Z</time>
      </trkpt>
      <trkpt lat="44.9172" lon="6.74823">
        <ele>2390.94</ele>
        <time>2017-01-12T10:57:27Z</time>
      </trkpt>
      <trkpt lat="44.91718" lon="6.74826">
        <ele>2392.38</ele>
        <time>2017-01-12T10:57:40Z</time>
      </trkpt>
      <trkpt lat="44.91718" lon="6.7483">
        <ele>2392.86</ele>
        <time>2017-01-12T10:57:51Z</time>
      </trkpt>
      <trkpt lat="44.91717" lon="6.74834">
        <ele>2394.78</ele>
        <time>2017-01-12T10:58:05Z</time>
      </trkpt>
      <trkpt lat="44.91714" lon="6.74838">
        <ele>2396.22</ele>
        <time>2017-01-12T10:58:20Z</time>
      </trkpt>
      <trkpt lat="44.91713" lon="6.74843">
        <ele>2397.67</ele>
        <time>2017-01-12T10:58:34Z</time>
      </trkpt>
      <trkpt lat="44.91712" lon="6.74844">
        <ele>2399.59</ele>
        <time>2017-01-12T10:58:48Z</time>
      </trkpt>
      <trkpt lat="44.9171" lon="6.74844">
        <ele>2399.59</ele>
        <time>2017-01-12T10:59:00Z</time>
      </trkpt>
      <trkpt lat="44.9171" lon="6.74844">
        <ele>2398.15</ele>
        <time>2017-01-12T10:59:03Z</time>
      </trkpt>
      <trkpt lat="44.91706" lon="6.74845">
        <ele>2401.51</ele>
        <time>2017-01-12T10:59:19Z</time>
      </trkpt>
      <trkpt lat="44.91706" lon="6.74848">
        <ele>2401.99</ele>
        <time>2017-01-12T10:59:38Z</time>
      </trkpt>
      <trkpt lat="44.91709" lon="6.74854">
        <ele>2402.47</ele>
        <time>2017-01-12T10:59:54Z</time>
      </trkpt>
      <trkpt lat="44.91714" lon="6.74861">
        <ele>2403.91</ele>
        <time>2017-01-12T11:00:13Z</time>
      </trkpt>
      <trkpt lat="44.91716" lon="6.74865">
        <ele>2405.36</ele>
        <time>2017-01-12T11:00:28Z</time>
      </trkpt>
      <trkpt lat="44.91717" lon="6.74869">
        <ele>2407.76</ele>
        <time>2017-01-12T11:00:42Z</time>
      </trkpt>
      <trkpt lat="44.9172" lon="6.74874">
        <ele>2408.24</ele>
        <time>2017-01-12T11:01:01Z</time>
      </trkpt>
      <trkpt lat="44.91722" lon="6.74878">
        <ele>2409.68</ele>
        <time>2017-01-12T11:01:16Z</time>
      </trkpt>
      <trkpt lat="44.91722" lon="6.74883">
        <ele>2412.09</ele>
        <time>2017-01-12T11:01:33Z</time>
      </trkpt>
      <trkpt lat="44.91722" lon="6.74889">
        <ele>2413.05</ele>
        <time>2017-01-12T11:01:48Z</time>
      </trkpt>
      <trkpt lat="44.91721" lon="6.74894">
        <ele>2414.01</ele>
        <time>2017-01-12T11:02:02Z</time>
      </trkpt>
      <trkpt lat="44.91719" lon="6.74899">
        <ele>2416.41</ele>
        <time>2017-01-12T11:02:23Z</time>
      </trkpt>
      <trkpt lat="44.91715" lon="6.74899">
        <ele>2417.37</ele>
        <time>2017-01-12T11:02:31Z</time>
      </trkpt>
      <trkpt lat="44.91714" lon="6.74904">
        <ele>2416.89</ele>
        <time>2017-01-12T11:02:49Z</time>
      </trkpt>
      <trkpt lat="44.91713" lon="6.74915">
        <ele>2417.37</ele>
        <time>2017-01-12T11:03:02Z</time>
      </trkpt>
      <trkpt lat="44.9171" lon="6.74924">
        <ele>2416.89</ele>
        <time>2017-01-12T11:03:21Z</time>
      </trkpt>
      <trkpt lat="44.91708" lon="6.74937">
        <ele>2417.85</ele>
        <time>2017-01-12T11:03:37Z</time>
      </trkpt>
      <trkpt lat="44.91705" lon="6.74948">
        <ele>2418.81</ele>
        <time>2017-01-12T11:03:52Z</time>
      </trkpt>
      <trkpt lat="44.91704" lon="6.74958">
        <ele>2420.26</ele>
        <time>2017-01-12T11:04:09Z</time>
      </trkpt>
      <trkpt lat="44.91704" lon="6.74967">
        <ele>2421.22</ele>
        <time>2017-01-12T11:04:26Z</time>
      </trkpt>
      <trkpt lat="44.91705" lon="6.74976">
        <ele>2422.18</ele>
        <time>2017-01-12T11:04:42Z</time>
      </trkpt>
      <trkpt lat="44.91706" lon="6.74985">
        <ele>2424.1</ele>
        <time>2017-01-12T11:04:59Z</time>
      </trkpt>
      <trkpt lat="44.91707" lon="6.74994">
        <ele>2425.06</ele>
        <time>2017-01-12T11:05:17Z</time>
      </trkpt>
      <trkpt lat="44.91708" lon="6.75001">
        <ele>2426.02</ele>
        <time>2017-01-12T11:05:32Z</time>
      </trkpt>
      <trkpt lat="44.91709" lon="6.7501">
        <ele>2426.99</ele>
        <time>2017-01-12T11:05:50Z</time>
      </trkpt>
      <trkpt lat="44.91709" lon="6.7502">
        <ele>2428.43</ele>
        <time>2017-01-12T11:06:06Z</time>
      </trkpt>
      <trkpt lat="44.91711" lon="6.75029">
        <ele>2429.87</ele>
        <time>2017-01-12T11:06:23Z</time>
      </trkpt>
      <trkpt lat="44.91713" lon="6.75038">
        <ele>2431.31</ele>
        <time>2017-01-12T11:06:40Z</time>
      </trkpt>
      <trkpt lat="44.91715" lon="6.75048">
        <ele>2433.23</ele>
        <time>2017-01-12T11:06:57Z</time>
      </trkpt>
      <trkpt lat="44.91717" lon="6.75058">
        <ele>2434.2</ele>
        <time>2017-01-12T11:07:16Z</time>
      </trkpt>
      <trkpt lat="44.91719" lon="6.75068">
        <ele>2435.16</ele>
        <time>2017-01-12T11:07:32Z</time>
      </trkpt>
      <trkpt lat="44.91722" lon="6.75075">
        <ele>2436.6</ele>
        <time>2017-01-12T11:07:48Z</time>
      </trkpt>
      <trkpt lat="44.91726" lon="6.75083">
        <ele>2438.52</ele>
        <time>2017-01-12T11:08:04Z</time>
      </trkpt>
      <trkpt lat="44.91731" lon="6.75088">
        <ele>2439.96</ele>
        <time>2017-01-12T11:08:20Z</time>
      </trkpt>
      <trkpt lat="44.91734" lon="6.75095">
        <ele>2441.41</ele>
        <time>2017-01-12T11:08:35Z</time>
      </trkpt>
      <trkpt lat="44.91738" lon="6.75103">
        <ele>2442.37</ele>
        <time>2017-01-12T11:08:52Z</time>
      </trkpt>
      <trkpt lat="44.91741" lon="6.75108">
        <ele>2443.81</ele>
        <time>2017-01-12T11:09:07Z</time>
      </trkpt>
      <trkpt lat="44.91744" lon="6.75113">
        <ele>2445.73</ele>
        <time>2017-01-12T11:09:23Z</time>
      </trkpt>
      <trkpt lat="44.91746" lon="6.7512">
        <ele>2447.17</ele>
        <time>2017-01-12T11:09:39Z</time>
      </trkpt>
      <trkpt lat="44.91749" lon="6.75124">
        <ele>2448.62</ele>
        <time>2017-01-12T11:09:54Z</time>
      </trkpt>
      <trkpt lat="44.91751" lon="6.7513">
        <ele>2449.58</ele>
        <time>2017-01-12T11:10:09Z</time>
      </trkpt>
      <trkpt lat="44.91757" lon="6.75134">
        <ele>2451.5</ele>
        <time>2017-01-12T11:10:27Z</time>
      </trkpt>
      <trkpt lat="44.91761" lon="6.75136">
        <ele>2451.02</ele>
        <time>2017-01-12T11:10:42Z</time>
      </trkpt>
      <trkpt lat="44.91761" lon="6.75136">
        <ele>2454.38</ele>
        <time>2017-01-12T11:10:43Z</time>
      </trkpt>
      <trkpt lat="44.91761" lon="6.75136">
        <ele>2453.42</ele>
        <time>2017-01-12T11:10:44Z</time>
      </trkpt>
      <trkpt lat="44.91761" lon="6.75136">
        <ele>2451.5</ele>
        <time>2017-01-12T11:10:46Z</time>
      </trkpt>
      <trkpt lat="44.91761" lon="6.75137">
        <ele>2451.98</ele>
        <time>2017-01-12T11:11:02Z</time>
      </trkpt>
      <trkpt lat="44.91762" lon="6.75144">
        <ele>2452.46</ele>
        <time>2017-01-12T11:11:17Z</time>
      </trkpt>
      <trkpt lat="44.91763" lon="6.75146">
        <ele>2453.42</ele>
        <time>2017-01-12T11:11:43Z</time>
      </trkpt>
      <trkpt lat="44.91764" lon="6.75144">
        <ele>2453.9</ele>
        <time>2017-01-12T11:11:56Z</time>
      </trkpt>
      <trkpt lat="44.91767" lon="6.75145">
        <ele>2454.86</ele>
        <time>2017-01-12T11:12:10Z</time>
      </trkpt>
      <trkpt lat="44.91767" lon="6.75145">
        <ele>2451.5</ele>
        <time>2017-01-12T11:12:24Z</time>
      </trkpt>
      <trkpt lat="44.91767" lon="6.75144">
        <ele>2452.46</ele>
        <time>2017-01-12T11:12:25Z</time>
      </trkpt>
      <trkpt lat="44.91766" lon="6.75145">
        <ele>2453.42</ele>
        <time>2017-01-12T11:12:57Z</time>
      </trkpt>
      <trkpt lat="44.91767" lon="6.75143">
        <ele>2453.42</ele>
        <time>2017-01-12T11:13:24Z</time>
      </trkpt>
      <trkpt lat="44.91767" lon="6.75143">
        <ele>2452.94</ele>
        <time>2017-01-12T11:13:56Z</time>
      </trkpt>
      <trkpt lat="44.91767" lon="6.75143">
        <ele>2450.06</ele>
        <time>2017-01-12T11:13:59Z</time>
      </trkpt>
      <trkpt lat="44.91767" lon="6.75143">
        <ele>2451.5</ele>
        <time>2017-01-12T11:14:01Z</time>
      </trkpt>
      <trkpt lat="44.91765" lon="6.75143">
        <ele>2452.46</ele>
        <time>2017-01-12T11:14:33Z</time>
      </trkpt>
      <trkpt lat="44.91765" lon="6.75142">
        <ele>2452.46</ele>
        <time>2017-01-12T11:15:07Z</time>
      </trkpt>
      <trkpt lat="44.91765" lon="6.75144">
        <ele>2454.86</ele>
        <time>2017-01-12T11:15:20Z</time>
      </trkpt>
      <trkpt lat="44.91766" lon="6.75144">
        <ele>2454.86</ele>
        <time>2017-01-12T11:15:31Z</time>
      </trkpt>
      <trkpt lat="44.91766" lon="6.75143">
        <ele>2453.9</ele>
        <time>2017-01-12T11:15:34Z</time>
      </trkpt>
      <trkpt lat="44.91766" lon="6.75143">
        <ele>2454.86</ele>
        <time>2017-01-12T11:15:37Z</time>
      </trkpt>
      <trkpt lat="44.91768" lon="6.75145">
        <ele>2454.86</ele>
        <time>2017-01-12T11:15:55Z</time>
      </trkpt>
      <trkpt lat="44.91773" lon="6.75141">
        <ele>2455.82</ele>
        <time>2017-01-12T11:16:07Z</time>
      </trkpt>
      <trkpt lat="44.9178" lon="6.75134">
        <ele>2455.82</ele>
        <time>2017-01-12T11:16:22Z</time>
      </trkpt>
      <trkpt lat="44.91786" lon="6.7513">
        <ele>2457.27</ele>
        <time>2017-01-12T11:16:35Z</time>
      </trkpt>
      <trkpt lat="44.91791" lon="6.75128">
        <ele>2458.71</ele>
        <time>2017-01-12T11:16:49Z</time>
      </trkpt>
      <trkpt lat="44.91796" lon="6.75122">
        <ele>2460.15</ele>
        <time>2017-01-12T11:17:07Z</time>
      </trkpt>
      <trkpt lat="44.91802" lon="6.75117">
        <ele>2460.15</ele>
        <time>2017-01-12T11:17:25Z</time>
      </trkpt>
      <trkpt lat="44.91806" lon="6.75112">
        <ele>2462.07</ele>
        <time>2017-01-12T11:17:45Z</time>
      </trkpt>
      <trkpt lat="44.9181" lon="6.75107">
        <ele>2465.44</ele>
        <time>2017-01-12T11:18:05Z</time>
      </trkpt>
      <trkpt lat="44.91815" lon="6.75103">
        <ele>2464.96</ele>
        <time>2017-01-12T11:18:25Z</time>
      </trkpt>
      <trkpt lat="44.91819" lon="6.75099">
        <ele>2466.4</ele>
        <time>2017-01-12T11:18:44Z</time>
      </trkpt>
      <trkpt lat="44.91822" lon="6.751">
        <ele>2467.36</ele>
        <time>2017-01-12T11:18:59Z</time>
      </trkpt>
      <trkpt lat="44.91823" lon="6.75106">
        <ele>2468.8</ele>
        <time>2017-01-12T11:19:15Z</time>
      </trkpt>
      <trkpt lat="44.91824" lon="6.75112">
        <ele>2469.76</ele>
        <time>2017-01-12T11:19:29Z</time>
      </trkpt>
      <trkpt lat="44.91826" lon="6.75118">
        <ele>2469.76</ele>
        <time>2017-01-12T11:19:44Z</time>
      </trkpt>
      <trkpt lat="44.91829" lon="6.75124">
        <ele>2472.65</ele>
        <time>2017-01-12T11:20:01Z</time>
      </trkpt>
      <trkpt lat="44.91833" lon="6.75128">
        <ele>2473.13</ele>
        <time>2017-01-12T11:20:16Z</time>
      </trkpt>
      <trkpt lat="44.91838" lon="6.75127">
        <ele>2474.09</ele>
        <time>2017-01-12T11:20:32Z</time>
      </trkpt>
      <trkpt lat="44.91842" lon="6.75121">
        <ele>2476.01</ele>
        <time>2017-01-12T11:20:48Z</time>
      </trkpt>
      <trkpt lat="44.91845" lon="6.75114">
        <ele>2477.45</ele>
        <time>2017-01-12T11:21:04Z</time>
      </trkpt>
      <trkpt lat="44.9185" lon="6.75108">
        <ele>2478.42</ele>
        <time>2017-01-12T11:21:22Z</time>
      </trkpt>
      <trkpt lat="44.91852" lon="6.75103">
        <ele>2478.9</ele>
        <time>2017-01-12T11:21:35Z</time>
      </trkpt>
      <trkpt lat="44.91855" lon="6.751">
        <ele>2479.86</ele>
        <time>2017-01-12T11:21:47Z</time>
      </trkpt>
      <trkpt lat="44.91857" lon="6.75096">
        <ele>2480.34</ele>
        <time>2017-01-12T11:21:59Z</time>
      </trkpt>
      <trkpt lat="44.91861" lon="6.75087">
        <ele>2481.78</ele>
        <time>2017-01-12T11:22:16Z</time>
      </trkpt>
      <trkpt lat="44.91867" lon="6.75077">
        <ele>2482.74</ele>
        <time>2017-01-12T11:22:36Z</time>
      </trkpt>
      <trkpt lat="44.91871" lon="6.75072">
        <ele>2483.7</ele>
        <time>2017-01-12T11:22:52Z</time>
      </trkpt>
      <trkpt lat="44.91875" lon="6.75066">
        <ele>2483.7</ele>
        <time>2017-01-12T11:23:06Z</time>
      </trkpt>
      <trkpt lat="44.9188" lon="6.75062">
        <ele>2486.59</ele>
        <time>2017-01-12T11:23:21Z</time>
      </trkpt>
      <trkpt lat="44.91883" lon="6.75059">
        <ele>2486.59</ele>
        <time>2017-01-12T11:23:37Z</time>
      </trkpt>
      <trkpt lat="44.91885" lon="6.75056">
        <ele>2487.55</ele>
        <time>2017-01-12T11:23:52Z</time>
      </trkpt>
      <trkpt lat="44.91888" lon="6.75049">
        <ele>2488.99</ele>
        <time>2017-01-12T11:24:07Z</time>
      </trkpt>
      <trkpt lat="44.91891" lon="6.75047">
        <ele>2489.95</ele>
        <time>2017-01-12T11:24:24Z</time>
      </trkpt>
      <trkpt lat="44.91895" lon="6.75044">
        <ele>2492.36</ele>
        <time>2017-01-12T11:24:38Z</time>
      </trkpt>
      <trkpt lat="44.91897" lon="6.75039">
        <ele>2492.84</ele>
        <time>2017-01-12T11:24:54Z</time>
      </trkpt>
      <trkpt lat="44.919" lon="6.75034">
        <ele>2493.8</ele>
        <time>2017-01-12T11:25:11Z</time>
      </trkpt>
      <trkpt lat="44.91902" lon="6.75028">
        <ele>2494.76</ele>
        <time>2017-01-12T11:25:26Z</time>
      </trkpt>
      <trkpt lat="44.91905" lon="6.75025">
        <ele>2495.72</ele>
        <time>2017-01-12T11:25:40Z</time>
      </trkpt>
      <trkpt lat="44.91908" lon="6.75019">
        <ele>2497.16</ele>
        <time>2017-01-12T11:25:56Z</time>
      </trkpt>
      <trkpt lat="44.91911" lon="6.75014">
        <ele>2498.6</ele>
        <time>2017-01-12T11:26:11Z</time>
      </trkpt>
      <trkpt lat="44.91915" lon="6.75009">
        <ele>2500.05</ele>
        <time>2017-01-12T11:26:28Z</time>
      </trkpt>
      <trkpt lat="44.91918" lon="6.75004">
        <ele>2501.01</ele>
        <time>2017-01-12T11:26:44Z</time>
      </trkpt>
      <trkpt lat="44.91921" lon="6.74999">
        <ele>2501.97</ele>
        <time>2017-01-12T11:26:58Z</time>
      </trkpt>
      <trkpt lat="44.91923" lon="6.74996">
        <ele>2502.93</ele>
        <time>2017-01-12T11:27:12Z</time>
      </trkpt>
      <trkpt lat="44.91926" lon="6.74992">
        <ele>2504.37</ele>
        <time>2017-01-12T11:27:27Z</time>
      </trkpt>
      <trkpt lat="44.91929" lon="6.74987">
        <ele>2505.33</ele>
        <time>2017-01-12T11:27:42Z</time>
      </trkpt>
      <trkpt lat="44.91931" lon="6.74982">
        <ele>2506.77</ele>
        <time>2017-01-12T11:27:57Z</time>
      </trkpt>
      <trkpt lat="44.91934" lon="6.74976">
        <ele>2510.14</ele>
        <time>2017-01-12T11:28:11Z</time>
      </trkpt>
      <trkpt lat="44.91936" lon="6.74968">
        <ele>2508.7</ele>
        <time>2017-01-12T11:28:28Z</time>
      </trkpt>
      <trkpt lat="44.91939" lon="6.74962">
        <ele>2510.14</ele>
        <time>2017-01-12T11:28:44Z</time>
      </trkpt>
      <trkpt lat="44.91942" lon="6.74954">
        <ele>2510.62</ele>
        <time>2017-01-12T11:29:01Z</time>
      </trkpt>
      <trkpt lat="44.91945" lon="6.74945">
        <ele>2512.54</ele>
        <time>2017-01-12T11:29:18Z</time>
      </trkpt>
      <trkpt lat="44.91946" lon="6.74942">
        <ele>2513.5</ele>
        <time>2017-01-12T11:29:34Z</time>
      </trkpt>
      <trkpt lat="44.91947" lon="6.74943">
        <ele>2513.98</ele>
        <time>2017-01-12T11:29:57Z</time>
      </trkpt>
      <trkpt lat="44.91947" lon="6.74943">
        <ele>2513.5</ele>
        <time>2017-01-12T11:30:27Z</time>
      </trkpt>
      <trkpt lat="44.91945" lon="6.74943">
        <ele>2513.98</ele>
        <time>2017-01-12T11:30:56Z</time>
      </trkpt>
      <trkpt lat="44.91946" lon="6.7494">
        <ele>2513.98</ele>
        <time>2017-01-12T11:31:09Z</time>
      </trkpt>
      <trkpt lat="44.91946" lon="6.74941">
        <ele>2511.58</ele>
        <time>2017-01-12T11:31:18Z</time>
      </trkpt>
      <trkpt lat="44.91946" lon="6.74941">
        <ele>2513.98</ele>
        <time>2017-01-12T11:31:20Z</time>
      </trkpt>
      <trkpt lat="44.91946" lon="6.74942">
        <ele>2517.35</ele>
        <time>2017-01-12T11:31:23Z</time>
      </trkpt>
      <trkpt lat="44.91946" lon="6.74942">
        <ele>2513.5</ele>
        <time>2017-01-12T11:31:24Z</time>
      </trkpt>
      <trkpt lat="44.91946" lon="6.7494">
        <ele>2513.5</ele>
        <time>2017-01-12T11:31:45Z</time>
      </trkpt>
      <trkpt lat="44.91947" lon="6.74945">
        <ele>2513.5</ele>
        <time>2017-01-12T11:32:06Z</time>
      </trkpt>
      <trkpt lat="44.91948" lon="6.74946">
        <ele>2513.98</ele>
        <time>2017-01-12T11:32:28Z</time>
      </trkpt>
      <trkpt lat="44.91947" lon="6.74946">
        <ele>2513.98</ele>
        <time>2017-01-12T11:32:50Z</time>
      </trkpt>
      <trkpt lat="44.9195" lon="6.74943">
        <ele>2514.95</ele>
        <time>2017-01-12T11:33:04Z</time>
      </trkpt>
      <trkpt lat="44.91954" lon="6.74937">
        <ele>2515.91</ele>
        <time>2017-01-12T11:33:20Z</time>
      </trkpt>
      <trkpt lat="44.91959" lon="6.74931">
        <ele>2516.87</ele>
        <time>2017-01-12T11:33:36Z</time>
      </trkpt>
      <trkpt lat="44.91964" lon="6.74928">
        <ele>2519.27</ele>
        <time>2017-01-12T11:33:52Z</time>
      </trkpt>
      <trkpt lat="44.9197" lon="6.74925">
        <ele>2519.27</ele>
        <time>2017-01-12T11:34:09Z</time>
      </trkpt>
      <trkpt lat="44.91972" lon="6.74926">
        <ele>2519.75</ele>
        <time>2017-01-12T11:34:26Z</time>
      </trkpt>
      <trkpt lat="44.91976" lon="6.74921">
        <ele>2520.71</ele>
        <time>2017-01-12T11:34:51Z</time>
      </trkpt>
      <trkpt lat="44.91977" lon="6.74923">
        <ele>2523.12</ele>
        <time>2017-01-12T11:35:05Z</time>
      </trkpt>
      <trkpt lat="44.91976" lon="6.74926">
        <ele>2524.08</ele>
        <time>2017-01-12T11:35:17Z</time>
      </trkpt>
      <trkpt lat="44.91976" lon="6.74933">
        <ele>2525.04</ele>
        <time>2017-01-12T11:35:33Z</time>
      </trkpt>
      <trkpt lat="44.91976" lon="6.7494">
        <ele>2526</ele>
        <time>2017-01-12T11:35:51Z</time>
      </trkpt>
      <trkpt lat="44.91977" lon="6.74948">
        <ele>2526.96</ele>
        <time>2017-01-12T11:36:05Z</time>
      </trkpt>
      <trkpt lat="44.91976" lon="6.74952">
        <ele>2528.4</ele>
        <time>2017-01-12T11:36:22Z</time>
      </trkpt>
      <trkpt lat="44.91976" lon="6.74959">
        <ele>2529.85</ele>
        <time>2017-01-12T11:36:37Z</time>
      </trkpt>
      <trkpt lat="44.91976" lon="6.74966">
        <ele>2531.29</ele>
        <time>2017-01-12T11:36:50Z</time>
      </trkpt>
      <trkpt lat="44.91976" lon="6.7497">
        <ele>2533.69</ele>
        <time>2017-01-12T11:37:04Z</time>
      </trkpt>
      <trkpt lat="44.91977" lon="6.74976">
        <ele>2535.13</ele>
        <time>2017-01-12T11:37:17Z</time>
      </trkpt>
      <trkpt lat="44.9198" lon="6.74982">
        <ele>2537.06</ele>
        <time>2017-01-12T11:37:31Z</time>
      </trkpt>
      <trkpt lat="44.91983" lon="6.74986">
        <ele>2537.54</ele>
        <time>2017-01-12T11:37:45Z</time>
      </trkpt>
      <trkpt lat="44.91985" lon="6.74989">
        <ele>2538.5</ele>
        <time>2017-01-12T11:37:59Z</time>
      </trkpt>
      <trkpt lat="44.91987" lon="6.74994">
        <ele>2539.94</ele>
        <time>2017-01-12T11:38:14Z</time>
      </trkpt>
      <trkpt lat="44.9199" lon="6.74999">
        <ele>2539.94</ele>
        <time>2017-01-12T11:38:30Z</time>
      </trkpt>
      <trkpt lat="44.91992" lon="6.75005">
        <ele>2541.38</ele>
        <time>2017-01-12T11:38:52Z</time>
      </trkpt>
      <trkpt lat="44.91994" lon="6.75009">
        <ele>2544.27</ele>
        <time>2017-01-12T11:39:06Z</time>
      </trkpt>
      <trkpt lat="44.91998" lon="6.75014">
        <ele>2544.27</ele>
        <time>2017-01-12T11:39:21Z</time>
      </trkpt>
      <trkpt lat="44.92" lon="6.75017">
        <ele>2543.79</ele>
        <time>2017-01-12T11:39:34Z</time>
      </trkpt>
      <trkpt lat="44.92001" lon="6.75016">
        <ele>2543.31</ele>
        <time>2017-01-12T11:39:48Z</time>
      </trkpt>
      <trkpt lat="44.92001" lon="6.75015">
        <ele>2543.31</ele>
        <time>2017-01-12T11:40:15Z</time>
      </trkpt>
      <trkpt lat="44.92002" lon="6.75014">
        <ele>2543.31</ele>
        <time>2017-01-12T11:40:25Z</time>
      </trkpt>
      <trkpt lat="44.92001" lon="6.75015">
        <ele>2543.31</ele>
        <time>2017-01-12T11:40:38Z</time>
      </trkpt>
      <trkpt lat="44.92003" lon="6.7501">
        <ele>2544.75</ele>
        <time>2017-01-12T11:40:57Z</time>
      </trkpt>
      <trkpt lat="44.92004" lon="6.75001">
        <ele>2546.67</ele>
        <time>2017-01-12T11:41:13Z</time>
      </trkpt>
      <trkpt lat="44.92007" lon="6.74994">
        <ele>2549.07</ele>
        <time>2017-01-12T11:41:29Z</time>
      </trkpt>
      <trkpt lat="44.92005" lon="6.74989">
        <ele>2551</ele>
        <time>2017-01-12T11:41:45Z</time>
      </trkpt>
      <trkpt lat="44.92006" lon="6.7499">
        <ele>2550.03</ele>
        <time>2017-01-12T11:42:07Z</time>
      </trkpt>
      <trkpt lat="44.92004" lon="6.74989">
        <ele>2550.03</ele>
        <time>2017-01-12T11:42:31Z</time>
      </trkpt>
      <trkpt lat="44.92005" lon="6.74992">
        <ele>2549.55</ele>
        <time>2017-01-12T11:42:46Z</time>
      </trkpt>
      <trkpt lat="44.92006" lon="6.74992">
        <ele>2549.07</ele>
        <time>2017-01-12T11:42:56Z</time>
      </trkpt>
      <trkpt lat="44.92008" lon="6.7499">
        <ele>2549.07</ele>
        <time>2017-01-12T11:43:20Z</time>
      </trkpt>
      <trkpt lat="44.92007" lon="6.74989">
        <ele>2549.55</ele>
        <time>2017-01-12T11:43:35Z</time>
      </trkpt>
      <trkpt lat="44.92007" lon="6.74989">
        <ele>2549.55</ele>
        <time>2017-01-12T11:43:56Z</time>
      </trkpt>
      <trkpt lat="44.92008" lon="6.74991">
        <ele>2550.51</ele>
        <time>2017-01-12T11:44:15Z</time>
      </trkpt>
      <trkpt lat="44.92007" lon="6.74988">
        <ele>2550.03</ele>
        <time>2017-01-12T11:44:33Z</time>
      </trkpt>
      <trkpt lat="44.92006" lon="6.74988">
        <ele>2550.03</ele>
        <time>2017-01-12T11:44:50Z</time>
      </trkpt>
      <trkpt lat="44.92006" lon="6.74987">
        <ele>2550.03</ele>
        <time>2017-01-12T11:45:11Z</time>
      </trkpt>
      <trkpt lat="44.92006" lon="6.74989">
        <ele>2550.03</ele>
        <time>2017-01-12T11:45:27Z</time>
      </trkpt>
      <trkpt lat="44.92006" lon="6.74992">
        <ele>2548.59</ele>
        <time>2017-01-12T11:45:33Z</time>
      </trkpt>
      <trkpt lat="44.92008" lon="6.74995">
        <ele>2549.55</ele>
        <time>2017-01-12T11:46:04Z</time>
      </trkpt>
      <trkpt lat="44.9201" lon="6.74994">
        <ele>2549.07</ele>
        <time>2017-01-12T11:46:47Z</time>
      </trkpt>
      <trkpt lat="44.92009" lon="6.74995">
        <ele>2549.55</ele>
        <time>2017-01-12T11:47:21Z</time>
      </trkpt>
      <trkpt lat="44.92008" lon="6.74994">
        <ele>2549.07</ele>
        <time>2017-01-12T11:48:03Z</time>
      </trkpt>
      <trkpt lat="44.92006" lon="6.74994">
        <ele>2549.55</ele>
        <time>2017-01-12T11:48:34Z</time>
      </trkpt>
      <trkpt lat="44.92008" lon="6.74991">
        <ele>2551</ele>
        <time>2017-01-12T11:49:11Z</time>
      </trkpt>
      <trkpt lat="44.92008" lon="6.74992">
        <ele>2551</ele>
        <time>2017-01-12T11:49:58Z</time>
      </trkpt>
      <trkpt lat="44.92007" lon="6.74997">
        <ele>2551.48</ele>
        <time>2017-01-12T11:50:23Z</time>
      </trkpt>
      <trkpt lat="44.92004" lon="6.74999">
        <ele>2551.48</ele>
        <time>2017-01-12T11:51:02Z</time>
      </trkpt>
      <trkpt lat="44.92005" lon="6.74993">
        <ele>2551.96</ele>
        <time>2017-01-12T11:51:37Z</time>
      </trkpt>
      <trkpt lat="44.92005" lon="6.74992">
        <ele>2553.4</ele>
        <time>2017-01-12T11:51:41Z</time>
      </trkpt>
      <trkpt lat="44.92006" lon="6.7499">
        <ele>2555.32</ele>
        <time>2017-01-12T11:51:49Z</time>
      </trkpt>
      <trkpt lat="44.92006" lon="6.74988">
        <ele>2552.92</ele>
        <time>2017-01-12T11:52:03Z</time>
      </trkpt>
      <trkpt lat="44.92005" lon="6.74992">
        <ele>2552.92</ele>
        <time>2017-01-12T11:52:21Z</time>
      </trkpt>
      <trkpt lat="44.92005" lon="6.74991">
        <ele>2553.4</ele>
        <time>2017-01-12T11:52:37Z</time>
      </trkpt>
      <trkpt lat="44.92005" lon="6.74994">
        <ele>2552.92</ele>
        <time>2017-01-12T11:52:57Z</time>
      </trkpt>
      <trkpt lat="44.92005" lon="6.74993">
        <ele>2552.44</ele>
        <time>2017-01-12T11:53:19Z</time>
      </trkpt>
      <trkpt lat="44.92006" lon="6.7499">
        <ele>2551.96</ele>
        <time>2017-01-12T11:53:39Z</time>
      </trkpt>
      <trkpt lat="44.92005" lon="6.74991">
        <ele>2554.36</ele>
        <time>2017-01-12T11:53:55Z</time>
      </trkpt>
      <trkpt lat="44.92006" lon="6.7499">
        <ele>2551.48</ele>
        <time>2017-01-12T11:54:01Z</time>
      </trkpt>
      <trkpt lat="44.92006" lon="6.74989">
        <ele>2551.48</ele>
        <time>2017-01-12T11:54:21Z</time>
      </trkpt>
      <trkpt lat="44.92008" lon="6.7499">
        <ele>2549.07</ele>
        <time>2017-01-12T11:54:45Z</time>
      </trkpt>
      <trkpt lat="44.92007" lon="6.74989">
        <ele>2550.51</ele>
        <time>2017-01-12T11:54:48Z</time>
      </trkpt>
      <trkpt lat="44.92006" lon="6.74989">
        <ele>2549.55</ele>
        <time>2017-01-12T11:55:12Z</time>
      </trkpt>
      <trkpt lat="44.92007" lon="6.74989">
        <ele>2552.44</ele>
        <time>2017-01-12T11:55:21Z</time>
      </trkpt>
      <trkpt lat="44.92006" lon="6.74988">
        <ele>2552.92</ele>
        <time>2017-01-12T11:55:40Z</time>
      </trkpt>
      <trkpt lat="44.92006" lon="6.74989">
        <ele>2550.03</ele>
        <time>2017-01-12T11:55:52Z</time>
      </trkpt>
      <trkpt lat="44.92006" lon="6.74989">
        <ele>2550.51</ele>
        <time>2017-01-12T11:55:53Z</time>
      </trkpt>
      <trkpt lat="44.92005" lon="6.74989">
        <ele>2552.44</ele>
        <time>2017-01-12T11:55:58Z</time>
      </trkpt>
      <trkpt lat="44.92006" lon="6.7499">
        <ele>2551</ele>
        <time>2017-01-12T11:56:04Z</time>
      </trkpt>
      <trkpt lat="44.92006" lon="6.7499">
        <ele>2549.55</ele>
        <time>2017-01-12T11:56:06Z</time>
      </trkpt>
      <trkpt lat="44.92005" lon="6.74989">
        <ele>2553.88</ele>
        <time>2017-01-12T11:56:18Z</time>
      </trkpt>
      <trkpt lat="44.92005" lon="6.7499">
        <ele>2553.88</ele>
        <time>2017-01-12T11:56:23Z</time>
      </trkpt>
      <trkpt lat="44.92005" lon="6.7499">
        <ele>2556.76</ele>
        <time>2017-01-12T11:56:26Z</time>
      </trkpt>
      <trkpt lat="44.92005" lon="6.7499">
        <ele>2555.8</ele>
        <time>2017-01-12T11:56:27Z</time>
      </trkpt>
      <trkpt lat="44.92006" lon="6.74989">
        <ele>2551.96</ele>
        <time>2017-01-12T11:56:34Z</time>
      </trkpt>
      <trkpt lat="44.92006" lon="6.74989">
        <ele>2551.96</ele>
        <time>2017-01-12T11:56:35Z</time>
      </trkpt>
      <trkpt lat="44.92005" lon="6.7499">
        <ele>2551.96</ele>
        <time>2017-01-12T11:56:45Z</time>
      </trkpt>
      <trkpt lat="44.92005" lon="6.74989">
        <ele>2552.92</ele>
        <time>2017-01-12T11:56:50Z</time>
      </trkpt>
      <trkpt lat="44.92006" lon="6.7499">
        <ele>2551.48</ele>
        <time>2017-01-12T11:57:09Z</time>
      </trkpt>
      <trkpt lat="44.92006" lon="6.74993">
        <ele>2551.48</ele>
        <time>2017-01-12T11:57:16Z</time>
      </trkpt>
      <trkpt lat="44.92002" lon="6.75003">
        <ele>2547.15</ele>
        <time>2017-01-12T11:57:20Z</time>
      </trkpt>
      <trkpt lat="44.92002" lon="6.75004">
        <ele>2546.19</ele>
        <time>2017-01-12T11:57:34Z</time>
      </trkpt>
      <trkpt lat="44.92001" lon="6.75005">
        <ele>2546.67</ele>
        <time>2017-01-12T11:57:55Z</time>
      </trkpt>
      <trkpt lat="44.92001" lon="6.75005">
        <ele>2546.67</ele>
        <time>2017-01-12T11:58:13Z</time>
      </trkpt>
      <trkpt lat="44.92002" lon="6.75006">
        <ele>2547.15</ele>
        <time>2017-01-12T11:58:39Z</time>
      </trkpt>
      <trkpt lat="44.92002" lon="6.75006">
        <ele>2546.67</ele>
        <time>2017-01-12T11:59:00Z</time>
      </trkpt>
      <trkpt lat="44.92001" lon="6.75004">
        <ele>2546.19</ele>
        <time>2017-01-12T11:59:20Z</time>
      </trkpt>
      <trkpt lat="44.92001" lon="6.75004">
        <ele>2547.63</ele>
        <time>2017-01-12T11:59:25Z</time>
      </trkpt>
      <trkpt lat="44.92" lon="6.75006">
        <ele>2545.23</ele>
        <time>2017-01-12T11:59:45Z</time>
      </trkpt>
      <trkpt lat="44.91999" lon="6.75006">
        <ele>2545.23</ele>
        <time>2017-01-12T11:59:58Z</time>
      </trkpt>
      <trkpt lat="44.91998" lon="6.75006">
        <ele>2545.23</ele>
        <time>2017-01-12T12:00:14Z</time>
      </trkpt>
      <trkpt lat="44.91992" lon="6.74993">
        <ele>2544.75</ele>
        <time>2017-01-12T12:00:18Z</time>
      </trkpt>
      <trkpt lat="44.91987" lon="6.74992">
        <ele>2540.42</ele>
        <time>2017-01-12T12:00:20Z</time>
      </trkpt>
      <trkpt lat="44.91982" lon="6.74999">
        <ele>2537.06</ele>
        <time>2017-01-12T12:00:22Z</time>
      </trkpt>
      <trkpt lat="44.91973" lon="6.74992">
        <ele>2534.17</ele>
        <time>2017-01-12T12:00:26Z</time>
      </trkpt>
      <trkpt lat="44.9197" lon="6.74995">
        <ele>2533.69</ele>
        <time>2017-01-12T12:00:27Z</time>
      </trkpt>
      <trkpt lat="44.91969" lon="6.74999">
        <ele>2529.37</ele>
        <time>2017-01-12T12:00:28Z</time>
      </trkpt>
      <trkpt lat="44.91967" lon="6.74999">
        <ele>2529.85</ele>
        <time>2017-01-12T12:00:29Z</time>
      </trkpt>
      <trkpt lat="44.91966" lon="6.74992">
        <ele>2528.89</ele>
        <time>2017-01-12T12:00:31Z</time>
      </trkpt>
      <trkpt lat="44.91966" lon="6.74985">
        <ele>2525.52</ele>
        <time>2017-01-12T12:00:35Z</time>
      </trkpt>
      <trkpt lat="44.9196" lon="6.74983">
        <ele>2521.19</ele>
        <time>2017-01-12T12:00:38Z</time>
      </trkpt>
      <trkpt lat="44.91958" lon="6.74988">
        <ele>2521.19</ele>
        <time>2017-01-12T12:00:39Z</time>
      </trkpt>
      <trkpt lat="44.91957" lon="6.74994">
        <ele>2520.71</ele>
        <time>2017-01-12T12:00:40Z</time>
      </trkpt>
      <trkpt lat="44.91954" lon="6.75018">
        <ele>2520.71</ele>
        <time>2017-01-12T12:00:50Z</time>
      </trkpt>
      <trkpt lat="44.91953" lon="6.75022">
        <ele>2519.75</ele>
        <time>2017-01-12T12:01:00Z</time>
      </trkpt>
      <trkpt lat="44.91952" lon="6.75032">
        <ele>2518.79</ele>
        <time>2017-01-12T12:01:15Z</time>
      </trkpt>
      <trkpt lat="44.91952" lon="6.75037">
        <ele>2518.31</ele>
        <time>2017-01-12T12:01:20Z</time>
      </trkpt>
      <trkpt lat="44.91947" lon="6.75039">
        <ele>2516.87</ele>
        <time>2017-01-12T12:01:23Z</time>
      </trkpt>
      <trkpt lat="44.91939" lon="6.75037">
        <ele>2511.58</ele>
        <time>2017-01-12T12:01:25Z</time>
      </trkpt>
      <trkpt lat="44.91934" lon="6.75046">
        <ele>2511.1</ele>
        <time>2017-01-12T12:01:27Z</time>
      </trkpt>
      <trkpt lat="44.91923" lon="6.75062">
        <ele>2505.81</ele>
        <time>2017-01-12T12:01:32Z</time>
      </trkpt>
      <trkpt lat="44.91921" lon="6.75071">
        <ele>2504.37</ele>
        <time>2017-01-12T12:01:34Z</time>
      </trkpt>
      <trkpt lat="44.91918" lon="6.75111">
        <ele>2500.53</ele>
        <time>2017-01-12T12:01:41Z</time>
      </trkpt>
      <trkpt lat="44.91914" lon="6.75126">
        <ele>2501.49</ele>
        <time>2017-01-12T12:01:47Z</time>
      </trkpt>
      <trkpt lat="44.91914" lon="6.75124">
        <ele>2501.49</ele>
        <time>2017-01-12T12:02:06Z</time>
      </trkpt>
      <trkpt lat="44.91914" lon="6.75125">
        <ele>2500.53</ele>
        <time>2017-01-12T12:02:17Z</time>
      </trkpt>
      <trkpt lat="44.91902" lon="6.75136">
        <ele>2497.64</ele>
        <time>2017-01-12T12:02:24Z</time>
      </trkpt>
      <trkpt lat="44.91899" lon="6.75135">
        <ele>2493.8</ele>
        <time>2017-01-12T12:02:25Z</time>
      </trkpt>
      <trkpt lat="44.9189" lon="6.7514">
        <ele>2490.91</ele>
        <time>2017-01-12T12:02:28Z</time>
      </trkpt>
      <trkpt lat="44.91885" lon="6.75124">
        <ele>2488.51</ele>
        <time>2017-01-12T12:02:31Z</time>
      </trkpt>
      <trkpt lat="44.9188" lon="6.75117">
        <ele>2482.26</ele>
        <time>2017-01-12T12:02:35Z</time>
      </trkpt>
      <trkpt lat="44.91879" lon="6.75122">
        <ele>2483.22</ele>
        <time>2017-01-12T12:02:43Z</time>
      </trkpt>
      <trkpt lat="44.91879" lon="6.7512">
        <ele>2482.74</ele>
        <time>2017-01-12T12:03:00Z</time>
      </trkpt>
      <trkpt lat="44.91879" lon="6.75121">
        <ele>2482.74</ele>
        <time>2017-01-12T12:03:04Z</time>
      </trkpt>
      <trkpt lat="44.9187" lon="6.75135">
        <ele>2478.9</ele>
        <time>2017-01-12T12:03:08Z</time>
      </trkpt>
      <trkpt lat="44.91867" lon="6.75141">
        <ele>2477.94</ele>
        <time>2017-01-12T12:03:09Z</time>
      </trkpt>
      <trkpt lat="44.91858" lon="6.75165">
        <ele>2475.53</ele>
        <time>2017-01-12T12:03:13Z</time>
      </trkpt>
      <trkpt lat="44.91853" lon="6.7519">
        <ele>2474.09</ele>
        <time>2017-01-12T12:03:18Z</time>
      </trkpt>
      <trkpt lat="44.91854" lon="6.7519">
        <ele>2474.09</ele>
        <time>2017-01-12T12:03:29Z</time>
      </trkpt>
      <trkpt lat="44.91854" lon="6.75193">
        <ele>2473.61</ele>
        <time>2017-01-12T12:03:48Z</time>
      </trkpt>
      <trkpt lat="44.91853" lon="6.75193">
        <ele>2473.61</ele>
        <time>2017-01-12T12:04:16Z</time>
      </trkpt>
      <trkpt lat="44.91846" lon="6.75209">
        <ele>2471.21</ele>
        <time>2017-01-12T12:04:22Z</time>
      </trkpt>
      <trkpt lat="44.91835" lon="6.75208">
        <ele>2466.88</ele>
        <time>2017-01-12T12:04:26Z</time>
      </trkpt>
      <trkpt lat="44.91831" lon="6.75207">
        <ele>2467.36</ele>
        <time>2017-01-12T12:04:27Z</time>
      </trkpt>
      <trkpt lat="44.91823" lon="6.75203">
        <ele>2465.44</ele>
        <time>2017-01-12T12:04:29Z</time>
      </trkpt>
      <trkpt lat="44.91814" lon="6.75199">
        <ele>2463.04</ele>
        <time>2017-01-12T12:04:31Z</time>
      </trkpt>
      <trkpt lat="44.91812" lon="6.75193">
        <ele>2457.75</ele>
        <time>2017-01-12T12:04:32Z</time>
      </trkpt>
      <trkpt lat="44.91811" lon="6.75172">
        <ele>2454.38</ele>
        <time>2017-01-12T12:04:35Z</time>
      </trkpt>
      <trkpt lat="44.91806" lon="6.75172">
        <ele>2451.5</ele>
        <time>2017-01-12T12:04:38Z</time>
      </trkpt>
      <trkpt lat="44.91797" lon="6.75203">
        <ele>2449.58</ele>
        <time>2017-01-12T12:04:50Z</time>
      </trkpt>
      <trkpt lat="44.91798" lon="6.75204">
        <ele>2447.17</ele>
        <time>2017-01-12T12:05:03Z</time>
      </trkpt>
      <trkpt lat="44.91798" lon="6.75205">
        <ele>2447.65</ele>
        <time>2017-01-12T12:05:08Z</time>
      </trkpt>
      <trkpt lat="44.91786" lon="6.75224">
        <ele>2445.73</ele>
        <time>2017-01-12T12:05:17Z</time>
      </trkpt>
      <trkpt lat="44.91783" lon="6.75227">
        <ele>2445.25</ele>
        <time>2017-01-12T12:05:18Z</time>
      </trkpt>
      <trkpt lat="44.91773" lon="6.75224">
        <ele>2440.92</ele>
        <time>2017-01-12T12:05:22Z</time>
      </trkpt>
      <trkpt lat="44.91771" lon="6.75228">
        <ele>2440.44</ele>
        <time>2017-01-12T12:05:23Z</time>
      </trkpt>
      <trkpt lat="44.91761" lon="6.75222">
        <ele>2435.16</ele>
        <time>2017-01-12T12:05:29Z</time>
      </trkpt>
      <trkpt lat="44.91754" lon="6.75218">
        <ele>2436.12</ele>
        <time>2017-01-12T12:05:35Z</time>
      </trkpt>
      <trkpt lat="44.91755" lon="6.7522">
        <ele>2435.64</ele>
        <time>2017-01-12T12:05:49Z</time>
      </trkpt>
      <trkpt lat="44.91754" lon="6.7522">
        <ele>2435.64</ele>
        <time>2017-01-12T12:05:55Z</time>
      </trkpt>
      <trkpt lat="44.91752" lon="6.75222">
        <ele>2434.68</ele>
        <time>2017-01-12T12:05:57Z</time>
      </trkpt>
      <trkpt lat="44.9173" lon="6.75228">
        <ele>2432.27</ele>
        <time>2017-01-12T12:06:06Z</time>
      </trkpt>
      <trkpt lat="44.91726" lon="6.75229">
        <ele>2432.27</ele>
        <time>2017-01-12T12:06:17Z</time>
      </trkpt>
      <trkpt lat="44.91726" lon="6.7523">
        <ele>2432.27</ele>
        <time>2017-01-12T12:06:39Z</time>
      </trkpt>
      <trkpt lat="44.91726" lon="6.7523">
        <ele>2433.23</ele>
        <time>2017-01-12T12:07:03Z</time>
      </trkpt>
      <trkpt lat="44.91727" lon="6.75229">
        <ele>2431.79</ele>
        <time>2017-01-12T12:07:34Z</time>
      </trkpt>
      <trkpt lat="44.91719" lon="6.75245">
        <ele>2427.95</ele>
        <time>2017-01-12T12:07:41Z</time>
      </trkpt>
      <trkpt lat="44.91715" lon="6.7525">
        <ele>2422.66</ele>
        <time>2017-01-12T12:07:43Z</time>
      </trkpt>
      <trkpt lat="44.91711" lon="6.7525">
        <ele>2423.14</ele>
        <time>2017-01-12T12:07:44Z</time>
      </trkpt>
      <trkpt lat="44.91703" lon="6.75247">
        <ele>2422.18</ele>
        <time>2017-01-12T12:07:51Z</time>
      </trkpt>
      <trkpt lat="44.91705" lon="6.75244">
        <ele>2421.22</ele>
        <time>2017-01-12T12:08:11Z</time>
      </trkpt>
      <trkpt lat="44.91704" lon="6.75243">
        <ele>2420.74</ele>
        <time>2017-01-12T12:08:30Z</time>
      </trkpt>
      <trkpt lat="44.91696" lon="6.75246">
        <ele>2417.85</ele>
        <time>2017-01-12T12:08:34Z</time>
      </trkpt>
      <trkpt lat="44.91686" lon="6.75245">
        <ele>2415.45</ele>
        <time>2017-01-12T12:08:37Z</time>
      </trkpt>
      <trkpt lat="44.9168" lon="6.75242">
        <ele>2416.89</ele>
        <time>2017-01-12T12:08:47Z</time>
      </trkpt>
      <trkpt lat="44.91682" lon="6.75242">
        <ele>2414.97</ele>
        <time>2017-01-12T12:08:56Z</time>
      </trkpt>
      <trkpt lat="44.91676" lon="6.75242">
        <ele>2411.6</ele>
        <time>2017-01-12T12:09:02Z</time>
      </trkpt>
      <trkpt lat="44.91665" lon="6.7524">
        <ele>2408.24</ele>
        <time>2017-01-12T12:09:05Z</time>
      </trkpt>
      <trkpt lat="44.91662" lon="6.75239">
        <ele>2408.24</ele>
        <time>2017-01-12T12:09:06Z</time>
      </trkpt>
      <trkpt lat="44.91659" lon="6.75239">
        <ele>2409.2</ele>
        <time>2017-01-12T12:09:07Z</time>
      </trkpt>
      <trkpt lat="44.91658" lon="6.75253">
        <ele>2405.36</ele>
        <time>2017-01-12T12:09:10Z</time>
      </trkpt>
      <trkpt lat="44.91656" lon="6.75262">
        <ele>2401.03</ele>
        <time>2017-01-12T12:09:12Z</time>
      </trkpt>
      <trkpt lat="44.91653" lon="6.75264">
        <ele>2397.67</ele>
        <time>2017-01-12T12:09:13Z</time>
      </trkpt>
      <trkpt lat="44.91649" lon="6.75264">
        <ele>2396.22</ele>
        <time>2017-01-12T12:09:14Z</time>
      </trkpt>
      <trkpt lat="44.91642" lon="6.7528">
        <ele>2389.01</ele>
        <time>2017-01-12T12:09:19Z</time>
      </trkpt>
      <trkpt lat="44.91638" lon="6.75283">
        <ele>2385.65</ele>
        <time>2017-01-12T12:09:20Z</time>
      </trkpt>
      <trkpt lat="44.91637" lon="6.75287">
        <ele>2386.13</ele>
        <time>2017-01-12T12:09:21Z</time>
      </trkpt>
      <trkpt lat="44.91642" lon="6.75296">
        <ele>2383.25</ele>
        <time>2017-01-12T12:09:23Z</time>
      </trkpt>
      <trkpt lat="44.91645" lon="6.75304">
        <ele>2378.44</ele>
        <time>2017-01-12T12:09:27Z</time>
      </trkpt>
      <trkpt lat="44.91645" lon="6.75304">
        <ele>2378.44</ele>
        <time>2017-01-12T12:09:28Z</time>
      </trkpt>
      <trkpt lat="44.91645" lon="6.75301">
        <ele>2378.92</ele>
        <time>2017-01-12T12:09:47Z</time>
      </trkpt>
      <trkpt lat="44.91644" lon="6.75299">
        <ele>2378.92</ele>
        <time>2017-01-12T12:09:52Z</time>
      </trkpt>
      <trkpt lat="44.91645" lon="6.7531">
        <ele>2375.07</ele>
        <time>2017-01-12T12:09:56Z</time>
      </trkpt>
      <trkpt lat="44.91641" lon="6.75324">
        <ele>2369.79</ele>
        <time>2017-01-12T12:09:59Z</time>
      </trkpt>
      <trkpt lat="44.91636" lon="6.75327">
        <ele>2366.9</ele>
        <time>2017-01-12T12:10:00Z</time>
      </trkpt>
      <trkpt lat="44.91618" lon="6.75338">
        <ele>2361.14</ele>
        <time>2017-01-12T12:10:04Z</time>
      </trkpt>
      <trkpt lat="44.91603" lon="6.75352">
        <ele>2357.29</ele>
        <time>2017-01-12T12:10:07Z</time>
      </trkpt>
      <trkpt lat="44.91579" lon="6.75386">
        <ele>2353.44</ele>
        <time>2017-01-12T12:10:14Z</time>
      </trkpt>
      <trkpt lat="44.91575" lon="6.75392">
        <ele>2353.93</ele>
        <time>2017-01-12T12:10:15Z</time>
      </trkpt>
      <trkpt lat="44.91565" lon="6.75411">
        <ele>2350.08</ele>
        <time>2017-01-12T12:10:18Z</time>
      </trkpt>
      <trkpt lat="44.91562" lon="6.75418">
        <ele>2349.6</ele>
        <time>2017-01-12T12:10:19Z</time>
      </trkpt>
      <trkpt lat="44.91556" lon="6.75448">
        <ele>2348.16</ele>
        <time>2017-01-12T12:10:24Z</time>
      </trkpt>
      <trkpt lat="44.91551" lon="6.75475">
        <ele>2345.27</ele>
        <time>2017-01-12T12:10:30Z</time>
      </trkpt>
      <trkpt lat="44.9155" lon="6.75476">
        <ele>2344.79</ele>
        <time>2017-01-12T12:10:40Z</time>
      </trkpt>
      <trkpt lat="44.91551" lon="6.75477">
        <ele>2343.35</ele>
        <time>2017-01-12T12:10:53Z</time>
      </trkpt>
      <trkpt lat="44.91549" lon="6.75495">
        <ele>2339.51</ele>
        <time>2017-01-12T12:10:57Z</time>
      </trkpt>
      <trkpt lat="44.91542" lon="6.7551">
        <ele>2337.58</ele>
        <time>2017-01-12T12:11:01Z</time>
      </trkpt>
      <trkpt lat="44.91538" lon="6.75511">
        <ele>2334.7</ele>
        <time>2017-01-12T12:11:11Z</time>
      </trkpt>
      <trkpt lat="44.91538" lon="6.75512">
        <ele>2333.74</ele>
        <time>2017-01-12T12:11:42Z</time>
      </trkpt>
      <trkpt lat="44.91538" lon="6.75511">
        <ele>2333.26</ele>
        <time>2017-01-12T12:12:06Z</time>
      </trkpt>
      <trkpt lat="44.91538" lon="6.75511">
        <ele>2334.22</ele>
        <time>2017-01-12T12:12:24Z</time>
      </trkpt>
      <trkpt lat="44.91524" lon="6.75519">
        <ele>2332.78</ele>
        <time>2017-01-12T12:12:33Z</time>
      </trkpt>
      <trkpt lat="44.91514" lon="6.75525">
        <ele>2329.41</ele>
        <time>2017-01-12T12:12:39Z</time>
      </trkpt>
      <trkpt lat="44.91501" lon="6.75531">
        <ele>2328.93</ele>
        <time>2017-01-12T12:12:53Z</time>
      </trkpt>
      <trkpt lat="44.915" lon="6.75532">
        <ele>2328.93</ele>
        <time>2017-01-12T12:13:12Z</time>
      </trkpt>
      <trkpt lat="44.91501" lon="6.75533">
        <ele>2328.45</ele>
        <time>2017-01-12T12:13:31Z</time>
      </trkpt>
      <trkpt lat="44.915" lon="6.75532">
        <ele>2327.97</ele>
        <time>2017-01-12T12:13:55Z</time>
      </trkpt>
      <trkpt lat="44.915" lon="6.75533">
        <ele>2327.49</ele>
        <time>2017-01-12T12:14:15Z</time>
      </trkpt>
      <trkpt lat="44.91481" lon="6.75543">
        <ele>2324.12</ele>
        <time>2017-01-12T12:14:24Z</time>
      </trkpt>
      <trkpt lat="44.91457" lon="6.75561">
        <ele>2321.24</ele>
        <time>2017-01-12T12:14:37Z</time>
      </trkpt>
      <trkpt lat="44.9144" lon="6.75568">
        <ele>2317.88</ele>
        <time>2017-01-12T12:14:44Z</time>
      </trkpt>
      <trkpt lat="44.91427" lon="6.75575">
        <ele>2316.91</ele>
        <time>2017-01-12T12:14:53Z</time>
      </trkpt>
      <trkpt lat="44.91426" lon="6.75578">
        <ele>2315.95</ele>
        <time>2017-01-12T12:15:16Z</time>
      </trkpt>
      <trkpt lat="44.91425" lon="6.75576">
        <ele>2315.95</ele>
        <time>2017-01-12T12:15:39Z</time>
      </trkpt>
      <trkpt lat="44.91424" lon="6.75579">
        <ele>2315.95</ele>
        <time>2017-01-12T12:16:13Z</time>
      </trkpt>
      <trkpt lat="44.91426" lon="6.75583">
        <ele>2315.95</ele>
        <time>2017-01-12T12:16:40Z</time>
      </trkpt>
      <trkpt lat="44.91425" lon="6.75582">
        <ele>2315.95</ele>
        <time>2017-01-12T12:16:45Z</time>
      </trkpt>
      <trkpt lat="44.91412" lon="6.75596">
        <ele>2313.07</ele>
        <time>2017-01-12T12:16:53Z</time>
      </trkpt>
      <trkpt lat="44.9139" lon="6.75616">
        <ele>2310.67</ele>
        <time>2017-01-12T12:17:02Z</time>
      </trkpt>
      <trkpt lat="44.91379" lon="6.75619">
        <ele>2309.22</ele>
        <time>2017-01-12T12:17:05Z</time>
      </trkpt>
      <trkpt lat="44.91373" lon="6.75624">
        <ele>2308.26</ele>
        <time>2017-01-12T12:17:07Z</time>
      </trkpt>
      <trkpt lat="44.91366" lon="6.75635">
        <ele>2307.78</ele>
        <time>2017-01-12T12:17:13Z</time>
      </trkpt>
      <trkpt lat="44.91358" lon="6.75642">
        <ele>2307.3</ele>
        <time>2017-01-12T12:17:19Z</time>
      </trkpt>
      <trkpt lat="44.91345" lon="6.75642">
        <ele>2305.38</ele>
        <time>2017-01-12T12:17:31Z</time>
      </trkpt>
      <trkpt lat="44.91341" lon="6.75656">
        <ele>2304.9</ele>
        <time>2017-01-12T12:17:35Z</time>
      </trkpt>
      <trkpt lat="44.91334" lon="6.75686">
        <ele>2301.53</ele>
        <time>2017-01-12T12:17:47Z</time>
      </trkpt>
      <trkpt lat="44.91314" lon="6.75705">
        <ele>2298.65</ele>
        <time>2017-01-12T12:17:54Z</time>
      </trkpt>
      <trkpt lat="44.91298" lon="6.75729">
        <ele>2295.28</ele>
        <time>2017-01-12T12:18:01Z</time>
      </trkpt>
      <trkpt lat="44.91293" lon="6.75739">
        <ele>2294.32</ele>
        <time>2017-01-12T12:18:03Z</time>
      </trkpt>
      <trkpt lat="44.91282" lon="6.75782">
        <ele>2292.88</ele>
        <time>2017-01-12T12:18:15Z</time>
      </trkpt>
      <trkpt lat="44.91278" lon="6.75797">
        <ele>2291.92</ele>
        <time>2017-01-12T12:18:19Z</time>
      </trkpt>
      <trkpt lat="44.91274" lon="6.7584">
        <ele>2288.56</ele>
        <time>2017-01-12T12:18:28Z</time>
      </trkpt>
      <trkpt lat="44.91274" lon="6.75845">
        <ele>2288.56</ele>
        <time>2017-01-12T12:18:29Z</time>
      </trkpt>
      <trkpt lat="44.91275" lon="6.75894">
        <ele>2285.19</ele>
        <time>2017-01-12T12:18:42Z</time>
      </trkpt>
      <trkpt lat="44.91275" lon="6.75896">
        <ele>2285.19</ele>
        <time>2017-01-12T12:18:44Z</time>
      </trkpt>
      <trkpt lat="44.91276" lon="6.75909">
        <ele>2281.83</ele>
        <time>2017-01-12T12:18:48Z</time>
      </trkpt>
      <trkpt lat="44.91273" lon="6.75917">
        <ele>2281.35</ele>
        <time>2017-01-12T12:18:55Z</time>
      </trkpt>
      <trkpt lat="44.9127" lon="6.75939">
        <ele>2277.5</ele>
        <time>2017-01-12T12:19:00Z</time>
      </trkpt>
      <trkpt lat="44.91267" lon="6.7595">
        <ele>2276.06</ele>
        <time>2017-01-12T12:19:02Z</time>
      </trkpt>
      <trkpt lat="44.91258" lon="6.7597">
        <ele>2275.58</ele>
        <time>2017-01-12T12:19:11Z</time>
      </trkpt>
      <trkpt lat="44.91254" lon="6.75978">
        <ele>2274.62</ele>
        <time>2017-01-12T12:19:19Z</time>
      </trkpt>
      <trkpt lat="44.91244" lon="6.75998">
        <ele>2272.21</ele>
        <time>2017-01-12T12:19:26Z</time>
      </trkpt>
      <trkpt lat="44.91242" lon="6.76003">
        <ele>2271.73</ele>
        <time>2017-01-12T12:19:30Z</time>
      </trkpt>
      <trkpt lat="44.91232" lon="6.76017">
        <ele>2269.81</ele>
        <time>2017-01-12T12:19:42Z</time>
      </trkpt>
      <trkpt lat="44.9122" lon="6.7603">
        <ele>2266.93</ele>
        <time>2017-01-12T12:19:59Z</time>
      </trkpt>
      <trkpt lat="44.91219" lon="6.76046">
        <ele>2265.96</ele>
        <time>2017-01-12T12:20:03Z</time>
      </trkpt>
      <trkpt lat="44.91216" lon="6.76056">
        <ele>2263.56</ele>
        <time>2017-01-12T12:20:07Z</time>
      </trkpt>
      <trkpt lat="44.91209" lon="6.76067">
        <ele>2261.64</ele>
        <time>2017-01-12T12:20:13Z</time>
      </trkpt>
      <trkpt lat="44.91203" lon="6.76076">
        <ele>2259.72</ele>
        <time>2017-01-12T12:20:15Z</time>
      </trkpt>
      <trkpt lat="44.91199" lon="6.76093">
        <ele>2257.31</ele>
        <time>2017-01-12T12:20:18Z</time>
      </trkpt>
      <trkpt lat="44.91197" lon="6.76099">
        <ele>2257.31</ele>
        <time>2017-01-12T12:20:19Z</time>
      </trkpt>
      <trkpt lat="44.91193" lon="6.76121">
        <ele>2255.87</ele>
        <time>2017-01-12T12:20:27Z</time>
      </trkpt>
      <trkpt lat="44.91186" lon="6.76151">
        <ele>2252.51</ele>
        <time>2017-01-12T12:20:35Z</time>
      </trkpt>
      <trkpt lat="44.91182" lon="6.76161">
        <ele>2251.54</ele>
        <time>2017-01-12T12:20:43Z</time>
      </trkpt>
      <trkpt lat="44.91181" lon="6.76162">
        <ele>2253.47</ele>
        <time>2017-01-12T12:20:45Z</time>
      </trkpt>
      <trkpt lat="44.91181" lon="6.76163">
        <ele>2252.03</ele>
        <time>2017-01-12T12:20:50Z</time>
      </trkpt>
      <trkpt lat="44.91174" lon="6.76182">
        <ele>2250.1</ele>
        <time>2017-01-12T12:20:55Z</time>
      </trkpt>
      <trkpt lat="44.91171" lon="6.762">
        <ele>2247.7</ele>
        <time>2017-01-12T12:20:58Z</time>
      </trkpt>
      <trkpt lat="44.91172" lon="6.76219">
        <ele>2247.7</ele>
        <time>2017-01-12T12:21:07Z</time>
      </trkpt>
      <trkpt lat="44.91172" lon="6.7622">
        <ele>2247.7</ele>
        <time>2017-01-12T12:21:09Z</time>
      </trkpt>
      <trkpt lat="44.91172" lon="6.76233">
        <ele>2246.74</ele>
        <time>2017-01-12T12:21:14Z</time>
      </trkpt>
      <trkpt lat="44.91171" lon="6.76271">
        <ele>2244.33</ele>
        <time>2017-01-12T12:21:29Z</time>
      </trkpt>
      <trkpt lat="44.9117" lon="6.76272">
        <ele>2244.33</ele>
        <time>2017-01-12T12:21:45Z</time>
      </trkpt>
      <trkpt lat="44.91162" lon="6.76291">
        <ele>2241.93</ele>
        <time>2017-01-12T12:21:52Z</time>
      </trkpt>
      <trkpt lat="44.91153" lon="6.76312">
        <ele>2239.53</ele>
        <time>2017-01-12T12:21:57Z</time>
      </trkpt>
      <trkpt lat="44.91151" lon="6.76323">
        <ele>2238.09</ele>
        <time>2017-01-12T12:22:00Z</time>
      </trkpt>
      <trkpt lat="44.91143" lon="6.76338">
        <ele>2235.68</ele>
        <time>2017-01-12T12:22:06Z</time>
      </trkpt>
      <trkpt lat="44.91138" lon="6.76361">
        <ele>2232.32</ele>
        <time>2017-01-12T12:22:13Z</time>
      </trkpt>
      <trkpt lat="44.91132" lon="6.76367">
        <ele>2231.84</ele>
        <time>2017-01-12T12:22:24Z</time>
      </trkpt>
      <trkpt lat="44.9112" lon="6.76373">
        <ele>2228.95</ele>
        <time>2017-01-12T12:22:36Z</time>
      </trkpt>
      <trkpt lat="44.91114" lon="6.76377">
        <ele>2228.47</ele>
        <time>2017-01-12T12:22:38Z</time>
      </trkpt>
      <trkpt lat="44.91107" lon="6.7638">
        <ele>2228.95</ele>
        <time>2017-01-12T12:22:47Z</time>
      </trkpt>
      <trkpt lat="44.91106" lon="6.76382">
        <ele>2228.47</ele>
        <time>2017-01-12T12:22:54Z</time>
      </trkpt>
      <trkpt lat="44.91105" lon="6.76386">
        <ele>2227.99</ele>
        <time>2017-01-12T12:22:55Z</time>
      </trkpt>
      <trkpt lat="44.91103" lon="6.76391">
        <ele>2227.51</ele>
        <time>2017-01-12T12:22:56Z</time>
      </trkpt>
      <trkpt lat="44.91102" lon="6.76396">
        <ele>2227.51</ele>
        <time>2017-01-12T12:22:57Z</time>
      </trkpt>
      <trkpt lat="44.91101" lon="6.76401">
        <ele>2227.03</ele>
        <time>2017-01-12T12:22:58Z</time>
      </trkpt>
      <trkpt lat="44.91098" lon="6.7641">
        <ele>2227.03</ele>
        <time>2017-01-12T12:23:07Z</time>
      </trkpt>
      <trkpt lat="44.91088" lon="6.76428">
        <ele>2223.19</ele>
        <time>2017-01-12T12:23:20Z</time>
      </trkpt>
      <trkpt lat="44.91085" lon="6.76432">
        <ele>2223.19</ele>
        <time>2017-01-12T12:23:21Z</time>
      </trkpt>
      <trkpt lat="44.91078" lon="6.76465">
        <ele>2220.3</ele>
        <time>2017-01-12T12:23:28Z</time>
      </trkpt>
      <trkpt lat="44.91079" lon="6.76481">
        <ele>2218.86</ele>
        <time>2017-01-12T12:23:32Z</time>
      </trkpt>
      <trkpt lat="44.91077" lon="6.76514">
        <ele>2216.46</ele>
        <time>2017-01-12T12:23:42Z</time>
      </trkpt>
      <trkpt lat="44.91076" lon="6.76519">
        <ele>2215.5</ele>
        <time>2017-01-12T12:23:43Z</time>
      </trkpt>
      <trkpt lat="44.91081" lon="6.76521">
        <ele>2214.53</ele>
        <time>2017-01-12T12:23:52Z</time>
      </trkpt>
      <trkpt lat="44.91086" lon="6.76521">
        <ele>2213.57</ele>
        <time>2017-01-12T12:24:02Z</time>
      </trkpt>
      <trkpt lat="44.91098" lon="6.76534">
        <ele>2209.73</ele>
        <time>2017-01-12T12:24:06Z</time>
      </trkpt>
      <trkpt lat="44.91096" lon="6.76554">
        <ele>2207.81</ele>
        <time>2017-01-12T12:24:13Z</time>
      </trkpt>
      <trkpt lat="44.91093" lon="6.76555">
        <ele>2207.81</ele>
        <time>2017-01-12T12:24:33Z</time>
      </trkpt>
      <trkpt lat="44.91093" lon="6.76554">
        <ele>2207.32</ele>
        <time>2017-01-12T12:24:53Z</time>
      </trkpt>
      <trkpt lat="44.91093" lon="6.76556">
        <ele>2207.32</ele>
        <time>2017-01-12T12:24:59Z</time>
      </trkpt>
      <trkpt lat="44.91098" lon="6.76568">
        <ele>2203.48</ele>
        <time>2017-01-12T12:25:04Z</time>
      </trkpt>
      <trkpt lat="44.91094" lon="6.76578">
        <ele>2200.59</ele>
        <time>2017-01-12T12:25:08Z</time>
      </trkpt>
      <trkpt lat="44.91098" lon="6.76585">
        <ele>2197.23</ele>
        <time>2017-01-12T12:25:10Z</time>
      </trkpt>
      <trkpt lat="44.91103" lon="6.76593">
        <ele>2193.87</ele>
        <time>2017-01-12T12:25:13Z</time>
      </trkpt>
      <trkpt lat="44.911" lon="6.766">
        <ele>2190.98</ele>
        <time>2017-01-12T12:25:17Z</time>
      </trkpt>
      <trkpt lat="44.91104" lon="6.76607">
        <ele>2187.14</ele>
        <time>2017-01-12T12:25:21Z</time>
      </trkpt>
      <trkpt lat="44.91099" lon="6.7661">
        <ele>2184.73</ele>
        <time>2017-01-12T12:25:28Z</time>
      </trkpt>
      <trkpt lat="44.91097" lon="6.76611">
        <ele>2184.25</ele>
        <time>2017-01-12T12:25:30Z</time>
      </trkpt>
      <trkpt lat="44.91094" lon="6.76615">
        <ele>2182.33</ele>
        <time>2017-01-12T12:25:36Z</time>
      </trkpt>
      <trkpt lat="44.91093" lon="6.76616">
        <ele>2182.81</ele>
        <time>2017-01-12T12:25:44Z</time>
      </trkpt>
      <trkpt lat="44.91097" lon="6.7662">
        <ele>2181.37</ele>
        <time>2017-01-12T12:25:47Z</time>
      </trkpt>
      <trkpt lat="44.91095" lon="6.7662">
        <ele>2180.89</ele>
        <time>2017-01-12T12:25:59Z</time>
      </trkpt>
      <trkpt lat="44.91089" lon="6.76629">
        <ele>2177.04</ele>
        <time>2017-01-12T12:26:04Z</time>
      </trkpt>
      <trkpt lat="44.91088" lon="6.7663">
        <ele>2177.04</ele>
        <time>2017-01-12T12:26:18Z</time>
      </trkpt>
      <trkpt lat="44.91088" lon="6.7663">
        <ele>2177.52</ele>
        <time>2017-01-12T12:26:34Z</time>
      </trkpt>
      <trkpt lat="44.9109" lon="6.76634">
        <ele>2177.04</ele>
        <time>2017-01-12T12:26:39Z</time>
      </trkpt>
      <trkpt lat="44.91097" lon="6.76636">
        <ele>2176.56</ele>
        <time>2017-01-12T12:26:53Z</time>
      </trkpt>
      <trkpt lat="44.911" lon="6.76634">
        <ele>2176.56</ele>
        <time>2017-01-12T12:27:14Z</time>
      </trkpt>
      <trkpt lat="44.91097" lon="6.76639">
        <ele>2176.08</ele>
        <time>2017-01-12T12:27:34Z</time>
      </trkpt>
      <trkpt lat="44.91094" lon="6.76638">
        <ele>2176.08</ele>
        <time>2017-01-12T12:28:09Z</time>
      </trkpt>
      <trkpt lat="44.911" lon="6.76639">
        <ele>2176.56</ele>
        <time>2017-01-12T12:28:48Z</time>
      </trkpt>
      <trkpt lat="44.91103" lon="6.76636">
        <ele>2176.56</ele>
        <time>2017-01-12T12:29:28Z</time>
      </trkpt>
      <trkpt lat="44.91098" lon="6.76635">
        <ele>2177.04</ele>
        <time>2017-01-12T12:30:10Z</time>
      </trkpt>
      <trkpt lat="44.91099" lon="6.76632">
        <ele>2177.52</ele>
        <time>2017-01-12T12:30:45Z</time>
      </trkpt>
      <trkpt lat="44.91097" lon="6.76635">
        <ele>2178.97</ele>
        <time>2017-01-12T12:31:05Z</time>
      </trkpt>
      <trkpt lat="44.91098" lon="6.76637">
        <ele>2178.97</ele>
        <time>2017-01-12T12:31:26Z</time>
      </trkpt>
      <trkpt lat="44.91099" lon="6.76635">
        <ele>2178.97</ele>
        <time>2017-01-12T12:31:59Z</time>
      </trkpt>
      <trkpt lat="44.911" lon="6.76636">
        <ele>2178.97</ele>
        <time>2017-01-12T12:32:15Z</time>
      </trkpt>
      <trkpt lat="44.91115" lon="6.76631">
        <ele>2177.52</ele>
        <time>2017-01-12T12:32:21Z</time>
      </trkpt>
      <trkpt lat="44.91132" lon="6.76625">
        <ele>2175.12</ele>
        <time>2017-01-12T12:32:25Z</time>
      </trkpt>
      <trkpt lat="44.91154" lon="6.76617">
        <ele>2172.72</ele>
        <time>2017-01-12T12:32:30Z</time>
      </trkpt>
      <trkpt lat="44.91175" lon="6.76607">
        <ele>2170.79</ele>
        <time>2017-01-12T12:32:35Z</time>
      </trkpt>
      <trkpt lat="44.91192" lon="6.76606">
        <ele>2169.35</ele>
        <time>2017-01-12T12:32:39Z</time>
      </trkpt>
      <trkpt lat="44.9122" lon="6.76611">
        <ele>2165.51</ele>
        <time>2017-01-12T12:32:47Z</time>
      </trkpt>
      <trkpt lat="44.9123" lon="6.76606">
        <ele>2164.55</ele>
        <time>2017-01-12T12:32:49Z</time>
      </trkpt>
      <trkpt lat="44.91248" lon="6.766">
        <ele>2162.62</ele>
        <time>2017-01-12T12:32:52Z</time>
      </trkpt>
      <trkpt lat="44.91278" lon="6.76602">
        <ele>2159.74</ele>
        <time>2017-01-12T12:32:58Z</time>
      </trkpt>
      <trkpt lat="44.91286" lon="6.76605">
        <ele>2158.78</ele>
        <time>2017-01-12T12:33:00Z</time>
      </trkpt>
      <trkpt lat="44.91309" lon="6.76602">
        <ele>2155.89</ele>
        <time>2017-01-12T12:33:06Z</time>
      </trkpt>
      <trkpt lat="44.91327" lon="6.76606">
        <ele>2152.53</ele>
        <time>2017-01-12T12:33:11Z</time>
      </trkpt>
      <trkpt lat="44.91333" lon="6.76613">
        <ele>2151.57</ele>
        <time>2017-01-12T12:33:14Z</time>
      </trkpt>
      <trkpt lat="44.91356" lon="6.76619">
        <ele>2148.2</ele>
        <time>2017-01-12T12:33:23Z</time>
      </trkpt>
      <trkpt lat="44.91383" lon="6.76624">
        <ele>2145.32</ele>
        <time>2017-01-12T12:33:29Z</time>
      </trkpt>
      <trkpt lat="44.91425" lon="6.7662">
        <ele>2141.95</ele>
        <time>2017-01-12T12:33:40Z</time>
      </trkpt>
      <trkpt lat="44.9146" lon="6.76616">
        <ele>2139.07</ele>
        <time>2017-01-12T12:33:51Z</time>
      </trkpt>
      <trkpt lat="44.91475" lon="6.76605">
        <ele>2137.63</ele>
        <time>2017-01-12T12:33:55Z</time>
      </trkpt>
      <trkpt lat="44.91487" lon="6.76593">
        <ele>2136.19</ele>
        <time>2017-01-12T12:33:58Z</time>
      </trkpt>
      <trkpt lat="44.91502" lon="6.76587">
        <ele>2133.78</ele>
        <time>2017-01-12T12:34:02Z</time>
      </trkpt>
      <trkpt lat="44.91531" lon="6.76569">
        <ele>2128.98</ele>
        <time>2017-01-12T12:34:10Z</time>
      </trkpt>
      <trkpt lat="44.91545" lon="6.76558">
        <ele>2126.57</ele>
        <time>2017-01-12T12:34:18Z</time>
      </trkpt>
      <trkpt lat="44.91547" lon="6.76558">
        <ele>2126.09</ele>
        <time>2017-01-12T12:34:36Z</time>
      </trkpt>
      <trkpt lat="44.91546" lon="6.76559">
        <ele>2125.61</ele>
        <time>2017-01-12T12:34:45Z</time>
      </trkpt>
      <trkpt lat="44.91566" lon="6.76557">
        <ele>2121.77</ele>
        <time>2017-01-12T12:34:53Z</time>
      </trkpt>
      <trkpt lat="44.9158" lon="6.76554">
        <ele>2119.36</ele>
        <time>2017-01-12T12:34:57Z</time>
      </trkpt>
      <trkpt lat="44.91592" lon="6.76555">
        <ele>2117.44</ele>
        <time>2017-01-12T12:35:00Z</time>
      </trkpt>
      <trkpt lat="44.91596" lon="6.76556">
        <ele>2116</ele>
        <time>2017-01-12T12:35:01Z</time>
      </trkpt>
      <trkpt lat="44.91617" lon="6.76561">
        <ele>2112.63</ele>
        <time>2017-01-12T12:35:06Z</time>
      </trkpt>
      <trkpt lat="44.91633" lon="6.76562">
        <ele>2110.71</ele>
        <time>2017-01-12T12:35:10Z</time>
      </trkpt>
      <trkpt lat="44.91645" lon="6.76563">
        <ele>2108.31</ele>
        <time>2017-01-12T12:35:13Z</time>
      </trkpt>
      <trkpt lat="44.91683" lon="6.76582">
        <ele>2104.94</ele>
        <time>2017-01-12T12:35:25Z</time>
      </trkpt>
      <trkpt lat="44.9171" lon="6.76596">
        <ele>2101.58</ele>
        <time>2017-01-12T12:35:34Z</time>
      </trkpt>
      <trkpt lat="44.91713" lon="6.76596">
        <ele>2101.58</ele>
        <time>2017-01-12T12:35:35Z</time>
      </trkpt>
      <trkpt lat="44.91737" lon="6.76597">
        <ele>2098.21</ele>
        <time>2017-01-12T12:35:43Z</time>
      </trkpt>
      <trkpt lat="44.91745" lon="6.76596">
        <ele>2097.25</ele>
        <time>2017-01-12T12:35:45Z</time>
      </trkpt>
      <trkpt lat="44.91758" lon="6.76589">
        <ele>2096.29</ele>
        <time>2017-01-12T12:35:48Z</time>
      </trkpt>
      <trkpt lat="44.9177" lon="6.76583">
        <ele>2094.37</ele>
        <time>2017-01-12T12:35:51Z</time>
      </trkpt>
      <trkpt lat="44.91783" lon="6.76569">
        <ele>2092.93</ele>
        <time>2017-01-12T12:35:54Z</time>
      </trkpt>
      <trkpt lat="44.91799" lon="6.76554">
        <ele>2091</ele>
        <time>2017-01-12T12:35:58Z</time>
      </trkpt>
      <trkpt lat="44.91827" lon="6.76522">
        <ele>2087.16</ele>
        <time>2017-01-12T12:36:06Z</time>
      </trkpt>
      <trkpt lat="44.91852" lon="6.76512">
        <ele>2082.83</ele>
        <time>2017-01-12T12:36:12Z</time>
      </trkpt>
      <trkpt lat="44.91856" lon="6.76511">
        <ele>2082.35</ele>
        <time>2017-01-12T12:36:13Z</time>
      </trkpt>
      <trkpt lat="44.9187" lon="6.76509">
        <ele>2080.91</ele>
        <time>2017-01-12T12:36:16Z</time>
      </trkpt>
      <trkpt lat="44.91896" lon="6.76506">
        <ele>2077.07</ele>
        <time>2017-01-12T12:36:21Z</time>
      </trkpt>
      <trkpt lat="44.91901" lon="6.76505">
        <ele>2076.59</ele>
        <time>2017-01-12T12:36:28Z</time>
      </trkpt>
      <trkpt lat="44.91902" lon="6.76506">
        <ele>2076.59</ele>
        <time>2017-01-12T12:36:42Z</time>
      </trkpt>
      <trkpt lat="44.91928" lon="6.76496">
        <ele>2073.7</ele>
        <time>2017-01-12T12:36:52Z</time>
      </trkpt>
      <trkpt lat="44.91968" lon="6.7649">
        <ele>2070.34</ele>
        <time>2017-01-12T12:37:03Z</time>
      </trkpt>
      <trkpt lat="44.92009" lon="6.76489">
        <ele>2067.45</ele>
        <time>2017-01-12T12:37:14Z</time>
      </trkpt>
      <trkpt lat="44.92054" lon="6.76486">
        <ele>2065.05</ele>
        <time>2017-01-12T12:37:29Z</time>
      </trkpt>
      <trkpt lat="44.92068" lon="6.76503">
        <ele>2065.53</ele>
        <time>2017-01-12T12:37:41Z</time>
      </trkpt>
      <trkpt lat="44.92076" lon="6.76516">
        <ele>2065.53</ele>
        <time>2017-01-12T12:37:55Z</time>
      </trkpt>
      <trkpt lat="44.92084" lon="6.76533">
        <ele>2064.09</ele>
        <time>2017-01-12T12:38:10Z</time>
      </trkpt>
      <trkpt lat="44.92084" lon="6.76539">
        <ele>2064.09</ele>
        <time>2017-01-12T12:38:15Z</time>
      </trkpt>
      <trkpt lat="44.92088" lon="6.76549">
        <ele>2064.57</ele>
        <time>2017-01-12T12:38:26Z</time>
      </trkpt>
      <trkpt lat="44.92089" lon="6.76552">
        <ele>2065.05</ele>
        <time>2017-01-12T12:38:29Z</time>
      </trkpt>
      <trkpt lat="44.92092" lon="6.76556">
        <ele>2065.05</ele>
        <time>2017-01-12T12:38:44Z</time>
      </trkpt>
      <trkpt lat="44.92093" lon="6.76556">
        <ele>2065.05</ele>
        <time>2017-01-12T12:39:02Z</time>
      </trkpt>
      <trkpt lat="44.92093" lon="6.76554">
        <ele>2065.05</ele>
        <time>2017-01-12T12:39:16Z</time>
      </trkpt>
      <trkpt lat="44.92094" lon="6.76556">
        <ele>2064.57</ele>
        <time>2017-01-12T12:39:30Z</time>
      </trkpt>
      <trkpt lat="44.92094" lon="6.76558">
        <ele>2064.09</ele>
        <time>2017-01-12T12:39:38Z</time>
      </trkpt>
      <trkpt lat="44.92096" lon="6.76558">
        <ele>2064.09</ele>
        <time>2017-01-12T12:39:39Z</time>
      </trkpt>
      <trkpt lat="44.92122" lon="6.76547">
        <ele>2063.61</ele>
        <time>2017-01-12T12:39:53Z</time>
      </trkpt>
      <trkpt lat="44.92154" lon="6.76534">
        <ele>2061.2</ele>
        <time>2017-01-12T12:40:08Z</time>
      </trkpt>
      <trkpt lat="44.9216" lon="6.76532">
        <ele>2061.2</ele>
        <time>2017-01-12T12:40:10Z</time>
      </trkpt>
      <trkpt lat="44.92179" lon="6.76531">
        <ele>2057.84</ele>
        <time>2017-01-12T12:40:18Z</time>
      </trkpt>
      <trkpt lat="44.92183" lon="6.7653">
        <ele>2056.88</ele>
        <time>2017-01-12T12:40:19Z</time>
      </trkpt>
      <trkpt lat="44.92189" lon="6.7653">
        <ele>2055.44</ele>
        <time>2017-01-12T12:40:20Z</time>
      </trkpt>
      <trkpt lat="44.92195" lon="6.76529">
        <ele>2053.99</ele>
        <time>2017-01-12T12:40:21Z</time>
      </trkpt>
      <trkpt lat="44.92202" lon="6.76528">
        <ele>2052.55</ele>
        <time>2017-01-12T12:40:22Z</time>
      </trkpt>
      <trkpt lat="44.9221" lon="6.76527">
        <ele>2048.71</ele>
        <time>2017-01-12T12:40:23Z</time>
      </trkpt>
      <trkpt lat="44.92219" lon="6.76526">
        <ele>2046.3</ele>
        <time>2017-01-12T12:40:24Z</time>
      </trkpt>
      <trkpt lat="44.92238" lon="6.76523">
        <ele>2042.94</ele>
        <time>2017-01-12T12:40:26Z</time>
      </trkpt>
      <trkpt lat="44.92258" lon="6.76517">
        <ele>2041.98</ele>
        <time>2017-01-12T12:40:28Z</time>
      </trkpt>
      <trkpt lat="44.923" lon="6.76504">
        <ele>2037.65</ele>
        <time>2017-01-12T12:40:33Z</time>
      </trkpt>
      <trkpt lat="44.92325" lon="6.76496">
        <ele>2038.13</ele>
        <time>2017-01-12T12:40:37Z</time>
      </trkpt>
      <trkpt lat="44.92353" lon="6.76489">
        <ele>2034.77</ele>
        <time>2017-01-12T12:40:41Z</time>
      </trkpt>
      <trkpt lat="44.92359" lon="6.76488">
        <ele>2034.77</ele>
        <time>2017-01-12T12:40:42Z</time>
      </trkpt>
      <trkpt lat="44.92375" lon="6.76483">
        <ele>2034.29</ele>
        <time>2017-01-12T12:40:45Z</time>
      </trkpt>
      <trkpt lat="44.92378" lon="6.76482">
        <ele>2033.81</ele>
        <time>2017-01-12T12:40:46Z</time>
      </trkpt>
      <trkpt lat="44.92379" lon="6.76478">
        <ele>2034.77</ele>
        <time>2017-01-12T12:40:56Z</time>
      </trkpt>
      <trkpt lat="44.92384" lon="6.76482">
        <ele>2035.73</ele>
        <time>2017-01-12T12:41:11Z</time>
      </trkpt>
      <trkpt lat="44.9239" lon="6.76486">
        <ele>2036.21</ele>
        <time>2017-01-12T12:41:27Z</time>
      </trkpt>
      <trkpt lat="44.92401" lon="6.76485">
        <ele>2036.21</ele>
        <time>2017-01-12T12:41:40Z</time>
      </trkpt>
      <trkpt lat="44.92402" lon="6.76485">
        <ele>2036.21</ele>
        <time>2017-01-12T12:41:42Z</time>
      </trkpt>
      <trkpt lat="44.92414" lon="6.76482">
        <ele>2036.21</ele>
        <time>2017-01-12T12:41:56Z</time>
      </trkpt>
      <trkpt lat="44.92428" lon="6.76486">
        <ele>2034.77</ele>
        <time>2017-01-12T12:42:06Z</time>
      </trkpt>
      <trkpt lat="44.9246" lon="6.76485">
        <ele>2031.4</ele>
        <time>2017-01-12T12:42:18Z</time>
      </trkpt>
      <trkpt lat="44.92484" lon="6.76487">
        <ele>2027.56</ele>
        <time>2017-01-12T12:42:26Z</time>
      </trkpt>
      <trkpt lat="44.92521" lon="6.76486">
        <ele>2024.19</ele>
        <time>2017-01-12T12:42:33Z</time>
      </trkpt>
      <trkpt lat="44.92543" lon="6.76486">
        <ele>2022.27</ele>
        <time>2017-01-12T12:42:37Z</time>
      </trkpt>
      <trkpt lat="44.9257" lon="6.76485">
        <ele>2020.35</ele>
        <time>2017-01-12T12:42:42Z</time>
      </trkpt>
      <trkpt lat="44.92576" lon="6.76483">
        <ele>2020.35</ele>
        <time>2017-01-12T12:42:43Z</time>
      </trkpt>
      <trkpt lat="44.92629" lon="6.76472">
        <ele>2018.91</ele>
        <time>2017-01-12T12:42:55Z</time>
      </trkpt>
      <trkpt lat="44.92654" lon="6.76466">
        <ele>2017.46</ele>
        <time>2017-01-12T12:43:01Z</time>
      </trkpt>
      <trkpt lat="44.92658" lon="6.76463">
        <ele>2016.98</ele>
        <time>2017-01-12T12:43:02Z</time>
      </trkpt>
      <trkpt lat="44.92704" lon="6.76438">
        <ele>2014.1</ele>
        <time>2017-01-12T12:43:15Z</time>
      </trkpt>
      <trkpt lat="44.92742" lon="6.76423">
        <ele>2010.73</ele>
        <time>2017-01-12T12:43:26Z</time>
      </trkpt>
      <trkpt lat="44.92746" lon="6.76423">
        <ele>2010.73</ele>
        <time>2017-01-12T12:43:27Z</time>
      </trkpt>
      <trkpt lat="44.92751" lon="6.76423">
        <ele>2010.73</ele>
        <time>2017-01-12T12:43:28Z</time>
      </trkpt>
      <trkpt lat="44.92768" lon="6.76427">
        <ele>2009.29</ele>
        <time>2017-01-12T12:43:32Z</time>
      </trkpt>
      <trkpt lat="44.92773" lon="6.76426">
        <ele>2008.33</ele>
        <time>2017-01-12T12:43:33Z</time>
      </trkpt>
      <trkpt lat="44.92777" lon="6.76424">
        <ele>2007.85</ele>
        <time>2017-01-12T12:43:34Z</time>
      </trkpt>
      <trkpt lat="44.92782" lon="6.76422">
        <ele>2006.89</ele>
        <time>2017-01-12T12:43:35Z</time>
      </trkpt>
      <trkpt lat="44.92788" lon="6.76421">
        <ele>2006.41</ele>
        <time>2017-01-12T12:43:36Z</time>
      </trkpt>
      <trkpt lat="44.92793" lon="6.76421">
        <ele>2005.93</ele>
        <time>2017-01-12T12:43:37Z</time>
      </trkpt>
      <trkpt lat="44.92797" lon="6.7642">
        <ele>2005.45</ele>
        <time>2017-01-12T12:43:38Z</time>
      </trkpt>
      <trkpt lat="44.92802" lon="6.76418">
        <ele>2004.97</ele>
        <time>2017-01-12T12:43:39Z</time>
      </trkpt>
      <trkpt lat="44.92807" lon="6.76418">
        <ele>2004.01</ele>
        <time>2017-01-12T12:43:40Z</time>
      </trkpt>
      <trkpt lat="44.92813" lon="6.76418">
        <ele>2003.52</ele>
        <time>2017-01-12T12:43:41Z</time>
      </trkpt>
      <trkpt lat="44.92818" lon="6.76418">
        <ele>2002.56</ele>
        <time>2017-01-12T12:43:42Z</time>
      </trkpt>
      <trkpt lat="44.9283" lon="6.76418">
        <ele>2001.6</ele>
        <time>2017-01-12T12:43:44Z</time>
      </trkpt>
      <trkpt lat="44.92852" lon="6.76415">
        <ele>1999.68</ele>
        <time>2017-01-12T12:43:48Z</time>
      </trkpt>
      <trkpt lat="44.92857" lon="6.76416">
        <ele>1998.24</ele>
        <time>2017-01-12T12:43:49Z</time>
      </trkpt>
      <trkpt lat="44.92863" lon="6.76417">
        <ele>1997.76</ele>
        <time>2017-01-12T12:43:50Z</time>
      </trkpt>
      <trkpt lat="44.92868" lon="6.76417">
        <ele>1997.76</ele>
        <time>2017-01-12T12:43:51Z</time>
      </trkpt>
      <trkpt lat="44.92873" lon="6.76418">
        <ele>1996.8</ele>
        <time>2017-01-12T12:43:52Z</time>
      </trkpt>
      <trkpt lat="44.92878" lon="6.76421">
        <ele>1996.32</ele>
        <time>2017-01-12T12:43:53Z</time>
      </trkpt>
      <trkpt lat="44.92893" lon="6.76425">
        <ele>1995.35</ele>
        <time>2017-01-12T12:43:56Z</time>
      </trkpt>
      <trkpt lat="44.92898" lon="6.76426">
        <ele>1994.39</ele>
        <time>2017-01-12T12:43:57Z</time>
      </trkpt>
      <trkpt lat="44.92904" lon="6.76426">
        <ele>1994.87</ele>
        <time>2017-01-12T12:43:58Z</time>
      </trkpt>
      <trkpt lat="44.92909" lon="6.76427">
        <ele>1993.43</ele>
        <time>2017-01-12T12:43:59Z</time>
      </trkpt>
      <trkpt lat="44.92915" lon="6.76429">
        <ele>1991.51</ele>
        <time>2017-01-12T12:44:00Z</time>
      </trkpt>
      <trkpt lat="44.92921" lon="6.76431">
        <ele>1992.95</ele>
        <time>2017-01-12T12:44:01Z</time>
      </trkpt>
      <trkpt lat="44.92927" lon="6.76434">
        <ele>1991.51</ele>
        <time>2017-01-12T12:44:02Z</time>
      </trkpt>
      <trkpt lat="44.92932" lon="6.76436">
        <ele>1990.55</ele>
        <time>2017-01-12T12:44:03Z</time>
      </trkpt>
      <trkpt lat="44.92937" lon="6.76438">
        <ele>1989.59</ele>
        <time>2017-01-12T12:44:04Z</time>
      </trkpt>
      <trkpt lat="44.92943" lon="6.7644">
        <ele>1987.18</ele>
        <time>2017-01-12T12:44:05Z</time>
      </trkpt>
      <trkpt lat="44.92948" lon="6.76443">
        <ele>1987.66</ele>
        <time>2017-01-12T12:44:06Z</time>
      </trkpt>
      <trkpt lat="44.9296" lon="6.76444">
        <ele>1985.74</ele>
        <time>2017-01-12T12:44:08Z</time>
      </trkpt>
      <trkpt lat="44.92966" lon="6.76445">
        <ele>1984.78</ele>
        <time>2017-01-12T12:44:09Z</time>
      </trkpt>
      <trkpt lat="44.92972" lon="6.76446">
        <ele>1984.3</ele>
        <time>2017-01-12T12:44:10Z</time>
      </trkpt>
      <trkpt lat="44.92978" lon="6.76445">
        <ele>1983.34</ele>
        <time>2017-01-12T12:44:11Z</time>
      </trkpt>
      <trkpt lat="44.92985" lon="6.76445">
        <ele>1981.9</ele>
        <time>2017-01-12T12:44:12Z</time>
      </trkpt>
      <trkpt lat="44.93017" lon="6.76443">
        <ele>1979.49</ele>
        <time>2017-01-12T12:44:17Z</time>
      </trkpt>
      <trkpt lat="44.93048" lon="6.76436">
        <ele>1979.49</ele>
        <time>2017-01-12T12:44:27Z</time>
      </trkpt>
      <trkpt lat="44.93079" lon="6.76437">
        <ele>1975.65</ele>
        <time>2017-01-12T12:44:34Z</time>
      </trkpt>
      <trkpt lat="44.93083" lon="6.76438">
        <ele>1975.65</ele>
        <time>2017-01-12T12:44:35Z</time>
      </trkpt>
      <trkpt lat="44.93088" lon="6.76439">
        <ele>1974.69</ele>
        <time>2017-01-12T12:44:36Z</time>
      </trkpt>
      <trkpt lat="44.93093" lon="6.76442">
        <ele>1974.69</ele>
        <time>2017-01-12T12:44:37Z</time>
      </trkpt>
      <trkpt lat="44.93101" lon="6.76446">
        <ele>1974.2</ele>
        <time>2017-01-12T12:44:39Z</time>
      </trkpt>
      <trkpt lat="44.93108" lon="6.76452">
        <ele>1974.2</ele>
        <time>2017-01-12T12:44:41Z</time>
      </trkpt>
      <trkpt lat="44.93114" lon="6.7646">
        <ele>1972.76</ele>
        <time>2017-01-12T12:44:43Z</time>
      </trkpt>
      <trkpt lat="44.93118" lon="6.76464">
        <ele>1971.8</ele>
        <time>2017-01-12T12:44:44Z</time>
      </trkpt>
      <trkpt lat="44.93119" lon="6.7647">
        <ele>1971.32</ele>
        <time>2017-01-12T12:44:45Z</time>
      </trkpt>
      <trkpt lat="44.93121" lon="6.76477">
        <ele>1970.84</ele>
        <time>2017-01-12T12:44:46Z</time>
      </trkpt>
      <trkpt lat="44.93125" lon="6.7649">
        <ele>1968.92</ele>
        <time>2017-01-12T12:44:48Z</time>
      </trkpt>
      <trkpt lat="44.93127" lon="6.76498">
        <ele>1967.48</ele>
        <time>2017-01-12T12:44:49Z</time>
      </trkpt>
      <trkpt lat="44.9313" lon="6.76504">
        <ele>1967.48</ele>
        <time>2017-01-12T12:44:50Z</time>
      </trkpt>
      <trkpt lat="44.93134" lon="6.7651">
        <ele>1966.51</ele>
        <time>2017-01-12T12:44:51Z</time>
      </trkpt>
      <trkpt lat="44.93137" lon="6.76517">
        <ele>1964.59</ele>
        <time>2017-01-12T12:44:52Z</time>
      </trkpt>
      <trkpt lat="44.93141" lon="6.76523">
        <ele>1964.59</ele>
        <time>2017-01-12T12:44:53Z</time>
      </trkpt>
      <trkpt lat="44.93149" lon="6.76532">
        <ele>1962.67</ele>
        <time>2017-01-12T12:44:55Z</time>
      </trkpt>
      <trkpt lat="44.93153" lon="6.76533">
        <ele>1961.23</ele>
        <time>2017-01-12T12:44:56Z</time>
      </trkpt>
      <trkpt lat="44.93157" lon="6.76531">
        <ele>1959.78</ele>
        <time>2017-01-12T12:44:57Z</time>
      </trkpt>
      <trkpt lat="44.93159" lon="6.76527">
        <ele>1959.78</ele>
        <time>2017-01-12T12:44:58Z</time>
      </trkpt>
      <trkpt lat="44.9316" lon="6.76525">
        <ele>1960.27</ele>
        <time>2017-01-12T12:44:59Z</time>
      </trkpt>
      <trkpt lat="44.93166" lon="6.76515">
        <ele>1957.86</ele>
        <time>2017-01-12T12:45:00Z</time>
      </trkpt>
      <trkpt lat="44.93172" lon="6.7651">
        <ele>1957.38</ele>
        <time>2017-01-12T12:45:01Z</time>
      </trkpt>
      <trkpt lat="44.93178" lon="6.76504">
        <ele>1957.86</ele>
        <time>2017-01-12T12:45:02Z</time>
      </trkpt>
      <trkpt lat="44.93183" lon="6.765">
        <ele>1955.94</ele>
        <time>2017-01-12T12:45:03Z</time>
      </trkpt>
      <trkpt lat="44.93189" lon="6.76497">
        <ele>1955.46</ele>
        <time>2017-01-12T12:45:04Z</time>
      </trkpt>
      <trkpt lat="44.93194" lon="6.76494">
        <ele>1954.98</ele>
        <time>2017-01-12T12:45:05Z</time>
      </trkpt>
      <trkpt lat="44.93199" lon="6.76491">
        <ele>1954.98</ele>
        <time>2017-01-12T12:45:06Z</time>
      </trkpt>
      <trkpt lat="44.93214" lon="6.76485">
        <ele>1953.54</ele>
        <time>2017-01-12T12:45:09Z</time>
      </trkpt>
      <trkpt lat="44.93233" lon="6.76495">
        <ele>1950.65</ele>
        <time>2017-01-12T12:45:15Z</time>
      </trkpt>
      <trkpt lat="44.93237" lon="6.76497">
        <ele>1949.69</ele>
        <time>2017-01-12T12:45:16Z</time>
      </trkpt>
      <trkpt lat="44.93243" lon="6.76501">
        <ele>1948.73</ele>
        <time>2017-01-12T12:45:17Z</time>
      </trkpt>
      <trkpt lat="44.93254" lon="6.76506">
        <ele>1946.81</ele>
        <time>2017-01-12T12:45:19Z</time>
      </trkpt>
      <trkpt lat="44.93259" lon="6.76509">
        <ele>1946.33</ele>
        <time>2017-01-12T12:45:20Z</time>
      </trkpt>
      <trkpt lat="44.93265" lon="6.76512">
        <ele>1946.33</ele>
        <time>2017-01-12T12:45:21Z</time>
      </trkpt>
      <trkpt lat="44.9327" lon="6.76515">
        <ele>1945.36</ele>
        <time>2017-01-12T12:45:22Z</time>
      </trkpt>
      <trkpt lat="44.93274" lon="6.76518">
        <ele>1944.88</ele>
        <time>2017-01-12T12:45:23Z</time>
      </trkpt>
      <trkpt lat="44.93279" lon="6.76522">
        <ele>1945.36</ele>
        <time>2017-01-12T12:45:24Z</time>
      </trkpt>
      <trkpt lat="44.93282" lon="6.76526">
        <ele>1944.4</ele>
        <time>2017-01-12T12:45:25Z</time>
      </trkpt>
      <trkpt lat="44.93285" lon="6.7653">
        <ele>1942.96</ele>
        <time>2017-01-12T12:45:26Z</time>
      </trkpt>
      <trkpt lat="44.93292" lon="6.76537">
        <ele>1941.52</ele>
        <time>2017-01-12T12:45:28Z</time>
      </trkpt>
      <trkpt lat="44.933" lon="6.76548">
        <ele>1940.56</ele>
        <time>2017-01-12T12:45:30Z</time>
      </trkpt>
      <trkpt lat="44.93305" lon="6.76551">
        <ele>1939.12</ele>
        <time>2017-01-12T12:45:31Z</time>
      </trkpt>
      <trkpt lat="44.93311" lon="6.76553">
        <ele>1938.16</ele>
        <time>2017-01-12T12:45:32Z</time>
      </trkpt>
      <trkpt lat="44.93315" lon="6.76554">
        <ele>1938.16</ele>
        <time>2017-01-12T12:45:33Z</time>
      </trkpt>
      <trkpt lat="44.9332" lon="6.76554">
        <ele>1937.67</ele>
        <time>2017-01-12T12:45:34Z</time>
      </trkpt>
      <trkpt lat="44.93325" lon="6.76554">
        <ele>1937.19</ele>
        <time>2017-01-12T12:45:35Z</time>
      </trkpt>
      <trkpt lat="44.93335" lon="6.76553">
        <ele>1935.75</ele>
        <time>2017-01-12T12:45:37Z</time>
      </trkpt>
      <trkpt lat="44.9334" lon="6.76552">
        <ele>1935.27</ele>
        <time>2017-01-12T12:45:38Z</time>
      </trkpt>
      <trkpt lat="44.93346" lon="6.76552">
        <ele>1934.31</ele>
        <time>2017-01-12T12:45:39Z</time>
      </trkpt>
      <trkpt lat="44.93401" lon="6.76576">
        <ele>1932.87</ele>
        <time>2017-01-12T12:45:50Z</time>
      </trkpt>
      <trkpt lat="44.93425" lon="6.76584">
        <ele>1932.87</ele>
        <time>2017-01-12T12:46:01Z</time>
      </trkpt>
      <trkpt lat="44.93441" lon="6.76588">
        <ele>1932.87</ele>
        <time>2017-01-12T12:46:16Z</time>
      </trkpt>
      <trkpt lat="44.93449" lon="6.76592">
        <ele>1933.35</ele>
        <time>2017-01-12T12:46:30Z</time>
      </trkpt>
      <trkpt lat="44.93455" lon="6.76593">
        <ele>1932.39</ele>
        <time>2017-01-12T12:46:43Z</time>
      </trkpt>
      <trkpt lat="44.93454" lon="6.76593">
        <ele>1931.91</ele>
        <time>2017-01-12T12:47:00Z</time>
      </trkpt>
      <trkpt lat="44.93455" lon="6.76595">
        <ele>1932.87</ele>
        <time>2017-01-12T12:47:17Z</time>
      </trkpt>
      <trkpt lat="44.93456" lon="6.76592">
        <ele>1932.39</ele>
        <time>2017-01-12T12:47:31Z</time>
      </trkpt>
      <trkpt lat="44.93459" lon="6.76592">
        <ele>1932.39</ele>
        <time>2017-01-12T12:47:45Z</time>
      </trkpt>
      <trkpt lat="44.9346" lon="6.76593">
        <ele>1931.91</ele>
        <time>2017-01-12T12:48:01Z</time>
      </trkpt>
      <trkpt lat="44.93461" lon="6.76594">
        <ele>1932.39</ele>
        <time>2017-01-12T12:48:19Z</time>
      </trkpt>
      <trkpt lat="44.93462" lon="6.76595">
        <ele>1932.87</ele>
        <time>2017-01-12T12:48:32Z</time>
      </trkpt>
      <trkpt lat="44.93461" lon="6.76597">
        <ele>1932.87</ele>
        <time>2017-01-12T12:48:34Z</time>
      </trkpt>
      <trkpt lat="44.93459" lon="6.766">
        <ele>1932.87</ele>
        <time>2017-01-12T12:48:37Z</time>
      </trkpt>
      <trkpt lat="44.9346" lon="6.76606">
        <ele>1934.31</ele>
        <time>2017-01-12T12:48:41Z</time>
      </trkpt>
      <trkpt lat="44.93465" lon="6.76618">
        <ele>1932.87</ele>
        <time>2017-01-12T12:48:53Z</time>
      </trkpt>
      <trkpt lat="44.93466" lon="6.76617">
        <ele>1933.35</ele>
        <time>2017-01-12T12:49:07Z</time>
      </trkpt>
      <trkpt lat="44.93465" lon="6.76612">
        <ele>1933.35</ele>
        <time>2017-01-12T12:49:11Z</time>
      </trkpt>
      <trkpt lat="44.93461" lon="6.76621">
        <ele>1936.71</ele>
        <time>2017-01-12T13:12:13Z</time>
      </trkpt>
      <trkpt lat="44.93461" lon="6.76621">
        <ele>1936.71</ele>
        <time>2017-01-12T13:12:14Z</time>
      </trkpt>
      <trkpt lat="44.93463" lon="6.76617">
        <ele>1933.35</ele>
        <time>2017-01-12T13:12:26Z</time>
      </trkpt>
      <trkpt lat="44.93462" lon="6.76618">
        <ele>1931.91</ele>
        <time>2017-01-12T13:12:29Z</time>
      </trkpt>
      <trkpt lat="44.93462" lon="6.76616">
        <ele>1930.46</ele>
        <time>2017-01-12T13:12:32Z</time>
      </trkpt>
      <trkpt lat="44.9346" lon="6.76609">
        <ele>1927.58</ele>
        <time>2017-01-12T13:12:41Z</time>
      </trkpt>
      <trkpt lat="44.93456" lon="6.76603">
        <ele>1924.7</ele>
        <time>2017-01-12T13:12:53Z</time>
      </trkpt>
      <trkpt lat="44.93461" lon="6.76595">
        <ele>1923.25</ele>
        <time>2017-01-12T13:13:12Z</time>
      </trkpt>
      <trkpt lat="44.93458" lon="6.76592">
        <ele>1923.25</ele>
        <time>2017-01-12T13:13:28Z</time>
      </trkpt>
      <trkpt lat="44.93459" lon="6.76593">
        <ele>1923.25</ele>
        <time>2017-01-12T13:13:42Z</time>
      </trkpt>
      <trkpt lat="44.93458" lon="6.76594">
        <ele>1923.25</ele>
        <time>2017-01-12T13:13:55Z</time>
      </trkpt>
      <trkpt lat="44.93458" lon="6.76594">
        <ele>1923.25</ele>
        <time>2017-01-12T13:14:10Z</time>
      </trkpt>
      <trkpt lat="44.93458" lon="6.76596">
        <ele>1923.25</ele>
        <time>2017-01-12T13:14:27Z</time>
      </trkpt>
      <trkpt lat="44.93458" lon="6.76593">
        <ele>1923.25</ele>
        <time>2017-01-12T13:14:45Z</time>
      </trkpt>
      <trkpt lat="44.93458" lon="6.76592">
        <ele>1923.25</ele>
        <time>2017-01-12T13:15:03Z</time>
      </trkpt>
      <trkpt lat="44.9346" lon="6.76594">
        <ele>1923.25</ele>
        <time>2017-01-12T13:15:21Z</time>
      </trkpt>
      <trkpt lat="44.93459" lon="6.76595">
        <ele>1923.25</ele>
        <time>2017-01-12T13:15:50Z</time>
      </trkpt>
      <trkpt lat="44.9346" lon="6.76596">
        <ele>1923.25</ele>
        <time>2017-01-12T13:16:19Z</time>
      </trkpt>
      <trkpt lat="44.9346" lon="6.76598">
        <ele>1923.74</ele>
        <time>2017-01-12T13:16:43Z</time>
      </trkpt>
      <trkpt lat="44.93462" lon="6.76596">
        <ele>1924.7</ele>
        <time>2017-01-12T13:17:11Z</time>
      </trkpt>
      <trkpt lat="44.93463" lon="6.76595">
        <ele>1923.74</ele>
        <time>2017-01-12T13:17:31Z</time>
      </trkpt>
      <trkpt lat="44.9346" lon="6.76598">
        <ele>1923.74</ele>
        <time>2017-01-12T13:17:48Z</time>
      </trkpt>
      <trkpt lat="44.93463" lon="6.76593">
        <ele>1924.22</ele>
        <time>2017-01-12T13:18:09Z</time>
      </trkpt>
      <trkpt lat="44.93466" lon="6.76591">
        <ele>1923.74</ele>
        <time>2017-01-12T13:18:14Z</time>
      </trkpt>
      <trkpt lat="44.93477" lon="6.76578">
        <ele>1922.77</ele>
        <time>2017-01-12T13:18:21Z</time>
      </trkpt>
      <trkpt lat="44.93481" lon="6.76574">
        <ele>1920.37</ele>
        <time>2017-01-12T13:18:22Z</time>
      </trkpt>
      <trkpt lat="44.93484" lon="6.76567">
        <ele>1918.45</ele>
        <time>2017-01-12T13:18:23Z</time>
      </trkpt>
      <trkpt lat="44.93488" lon="6.76558">
        <ele>1917.01</ele>
        <time>2017-01-12T13:18:24Z</time>
      </trkpt>
      <trkpt lat="44.9349" lon="6.7655">
        <ele>1917.01</ele>
        <time>2017-01-12T13:18:25Z</time>
      </trkpt>
      <trkpt lat="44.93491" lon="6.76543">
        <ele>1917.49</ele>
        <time>2017-01-12T13:18:26Z</time>
      </trkpt>
      <trkpt lat="44.93491" lon="6.76538">
        <ele>1917.97</ele>
        <time>2017-01-12T13:18:27Z</time>
      </trkpt>
      <trkpt lat="44.93491" lon="6.76517">
        <ele>1918.93</ele>
        <time>2017-01-12T13:18:36Z</time>
      </trkpt>
      <trkpt lat="44.93485" lon="6.76507">
        <ele>1919.41</ele>
        <time>2017-01-12T13:18:49Z</time>
      </trkpt>
      <trkpt lat="44.93484" lon="6.76505">
        <ele>1918.93</ele>
        <time>2017-01-12T13:18:50Z</time>
      </trkpt>
      <trkpt lat="44.93462" lon="6.76484">
        <ele>1917.49</ele>
        <time>2017-01-12T13:19:03Z</time>
      </trkpt>
      <trkpt lat="44.93423" lon="6.76459">
        <ele>1915.08</ele>
        <time>2017-01-12T13:19:21Z</time>
      </trkpt>
      <trkpt lat="44.93408" lon="6.76443">
        <ele>1913.16</ele>
        <time>2017-01-12T13:19:26Z</time>
      </trkpt>
      <trkpt lat="44.93395" lon="6.76427">
        <ele>1909.8</ele>
        <time>2017-01-12T13:19:30Z</time>
      </trkpt>
      <trkpt lat="44.93388" lon="6.76417">
        <ele>1909.32</ele>
        <time>2017-01-12T13:19:32Z</time>
      </trkpt>
      <trkpt lat="44.93373" lon="6.76402">
        <ele>1905.47</ele>
        <time>2017-01-12T13:19:35Z</time>
      </trkpt>
      <trkpt lat="44.93354" lon="6.76378">
        <ele>1904.51</ele>
        <time>2017-01-12T13:19:39Z</time>
      </trkpt>
      <trkpt lat="44.93351" lon="6.76372">
        <ele>1903.55</ele>
        <time>2017-01-12T13:19:40Z</time>
      </trkpt>
      <trkpt lat="44.93344" lon="6.76362">
        <ele>1904.03</ele>
        <time>2017-01-12T13:19:42Z</time>
      </trkpt>
      <trkpt lat="44.9334" lon="6.76359">
        <ele>1904.03</ele>
        <time>2017-01-12T13:19:43Z</time>
      </trkpt>
      <trkpt lat="44.93336" lon="6.76354">
        <ele>1903.07</ele>
        <time>2017-01-12T13:19:44Z</time>
      </trkpt>
      <trkpt lat="44.9333" lon="6.76343">
        <ele>1901.14</ele>
        <time>2017-01-12T13:19:46Z</time>
      </trkpt>
      <trkpt lat="44.93327" lon="6.76336">
        <ele>1901.14</ele>
        <time>2017-01-12T13:19:47Z</time>
      </trkpt>
      <trkpt lat="44.93324" lon="6.7633">
        <ele>1899.7</ele>
        <time>2017-01-12T13:19:48Z</time>
      </trkpt>
      <trkpt lat="44.93321" lon="6.76325">
        <ele>1898.26</ele>
        <time>2017-01-12T13:19:49Z</time>
      </trkpt>
      <trkpt lat="44.93317" lon="6.7632">
        <ele>1898.26</ele>
        <time>2017-01-12T13:19:50Z</time>
      </trkpt>
      <trkpt lat="44.93315" lon="6.76314">
        <ele>1896.34</ele>
        <time>2017-01-12T13:19:51Z</time>
      </trkpt>
      <trkpt lat="44.93311" lon="6.76307">
        <ele>1896.34</ele>
        <time>2017-01-12T13:19:52Z</time>
      </trkpt>
      <trkpt lat="44.93308" lon="6.76302">
        <ele>1895.38</ele>
        <time>2017-01-12T13:19:53Z</time>
      </trkpt>
      <trkpt lat="44.93304" lon="6.76295">
        <ele>1892.49</ele>
        <time>2017-01-12T13:19:54Z</time>
      </trkpt>
      <trkpt lat="44.93302" lon="6.76288">
        <ele>1892.97</ele>
        <time>2017-01-12T13:19:55Z</time>
      </trkpt>
      <trkpt lat="44.93299" lon="6.76279">
        <ele>1891.05</ele>
        <time>2017-01-12T13:19:56Z</time>
      </trkpt>
      <trkpt lat="44.93295" lon="6.76262">
        <ele>1889.61</ele>
        <time>2017-01-12T13:19:58Z</time>
      </trkpt>
      <trkpt lat="44.93295" lon="6.76255">
        <ele>1888.17</ele>
        <time>2017-01-12T13:19:59Z</time>
      </trkpt>
      <trkpt lat="44.93299" lon="6.76238">
        <ele>1887.69</ele>
        <time>2017-01-12T13:20:01Z</time>
      </trkpt>
      <trkpt lat="44.93303" lon="6.76222">
        <ele>1886.24</ele>
        <time>2017-01-12T13:20:03Z</time>
      </trkpt>
      <trkpt lat="44.93305" lon="6.76216">
        <ele>1884.8</ele>
        <time>2017-01-12T13:20:04Z</time>
      </trkpt>
      <trkpt lat="44.93308" lon="6.7621">
        <ele>1884.8</ele>
        <time>2017-01-12T13:20:05Z</time>
      </trkpt>
      <trkpt lat="44.9331" lon="6.76202">
        <ele>1885.28</ele>
        <time>2017-01-12T13:20:06Z</time>
      </trkpt>
      <trkpt lat="44.93313" lon="6.76196">
        <ele>1883.36</ele>
        <time>2017-01-12T13:20:07Z</time>
      </trkpt>
      <trkpt lat="44.93316" lon="6.7619">
        <ele>1881.92</ele>
        <time>2017-01-12T13:20:08Z</time>
      </trkpt>
      <trkpt lat="44.9332" lon="6.76183">
        <ele>1879.03</ele>
        <time>2017-01-12T13:20:09Z</time>
      </trkpt>
      <trkpt lat="44.93322" lon="6.76175">
        <ele>1880</ele>
        <time>2017-01-12T13:20:10Z</time>
      </trkpt>
      <trkpt lat="44.93323" lon="6.76166">
        <ele>1878.55</ele>
        <time>2017-01-12T13:20:11Z</time>
      </trkpt>
      <trkpt lat="44.93326" lon="6.76159">
        <ele>1875.67</ele>
        <time>2017-01-12T13:20:12Z</time>
      </trkpt>
      <trkpt lat="44.93329" lon="6.76152">
        <ele>1873.75</ele>
        <time>2017-01-12T13:20:13Z</time>
      </trkpt>
      <trkpt lat="44.93332" lon="6.76144">
        <ele>1874.23</ele>
        <time>2017-01-12T13:20:14Z</time>
      </trkpt>
      <trkpt lat="44.93334" lon="6.76135">
        <ele>1873.75</ele>
        <time>2017-01-12T13:20:15Z</time>
      </trkpt>
      <trkpt lat="44.93336" lon="6.76126">
        <ele>1872.3</ele>
        <time>2017-01-12T13:20:16Z</time>
      </trkpt>
      <trkpt lat="44.93338" lon="6.76118">
        <ele>1869.9</ele>
        <time>2017-01-12T13:20:17Z</time>
      </trkpt>
      <trkpt lat="44.9334" lon="6.76111">
        <ele>1869.9</ele>
        <time>2017-01-12T13:20:18Z</time>
      </trkpt>
      <trkpt lat="44.93343" lon="6.76104">
        <ele>1867.98</ele>
        <time>2017-01-12T13:20:19Z</time>
      </trkpt>
      <trkpt lat="44.93347" lon="6.76099">
        <ele>1866.54</ele>
        <time>2017-01-12T13:20:20Z</time>
      </trkpt>
      <trkpt lat="44.93352" lon="6.76094">
        <ele>1867.02</ele>
        <time>2017-01-12T13:20:21Z</time>
      </trkpt>
      <trkpt lat="44.93375" lon="6.7606">
        <ele>1863.65</ele>
        <time>2017-01-12T13:20:26Z</time>
      </trkpt>
      <trkpt lat="44.93384" lon="6.76049">
        <ele>1860.77</ele>
        <time>2017-01-12T13:20:28Z</time>
      </trkpt>
      <trkpt lat="44.93395" lon="6.76038">
        <ele>1860.77</ele>
        <time>2017-01-12T13:20:30Z</time>
      </trkpt>
      <trkpt lat="44.93401" lon="6.76032">
        <ele>1859.81</ele>
        <time>2017-01-12T13:20:31Z</time>
      </trkpt>
      <trkpt lat="44.93408" lon="6.76028">
        <ele>1856.92</ele>
        <time>2017-01-12T13:20:32Z</time>
      </trkpt>
      <trkpt lat="44.93414" lon="6.76025">
        <ele>1855.96</ele>
        <time>2017-01-12T13:20:33Z</time>
      </trkpt>
      <trkpt lat="44.93419" lon="6.7602">
        <ele>1856.44</ele>
        <time>2017-01-12T13:20:34Z</time>
      </trkpt>
      <trkpt lat="44.93424" lon="6.76016">
        <ele>1857.4</ele>
        <time>2017-01-12T13:20:35Z</time>
      </trkpt>
      <trkpt lat="44.9343" lon="6.76012">
        <ele>1855.96</ele>
        <time>2017-01-12T13:20:36Z</time>
      </trkpt>
      <trkpt lat="44.93435" lon="6.76012">
        <ele>1854.52</ele>
        <time>2017-01-12T13:20:37Z</time>
      </trkpt>
      <trkpt lat="44.93441" lon="6.76011">
        <ele>1852.12</ele>
        <time>2017-01-12T13:20:38Z</time>
      </trkpt>
      <trkpt lat="44.93446" lon="6.76009">
        <ele>1852.6</ele>
        <time>2017-01-12T13:20:39Z</time>
      </trkpt>
      <trkpt lat="44.93451" lon="6.76006">
        <ele>1852.12</ele>
        <time>2017-01-12T13:20:40Z</time>
      </trkpt>
      <trkpt lat="44.93455" lon="6.76004">
        <ele>1850.19</ele>
        <time>2017-01-12T13:20:41Z</time>
      </trkpt>
      <trkpt lat="44.9346" lon="6.76004">
        <ele>1849.23</ele>
        <time>2017-01-12T13:20:42Z</time>
      </trkpt>
      <trkpt lat="44.93465" lon="6.76005">
        <ele>1848.27</ele>
        <time>2017-01-12T13:20:43Z</time>
      </trkpt>
      <trkpt lat="44.93471" lon="6.76005">
        <ele>1847.79</ele>
        <time>2017-01-12T13:20:44Z</time>
      </trkpt>
      <trkpt lat="44.9348" lon="6.76004">
        <ele>1844.91</ele>
        <time>2017-01-12T13:20:46Z</time>
      </trkpt>
      <trkpt lat="44.93489" lon="6.76005">
        <ele>1844.43</ele>
        <time>2017-01-12T13:20:48Z</time>
      </trkpt>
      <trkpt lat="44.93492" lon="6.76">
        <ele>1844.91</ele>
        <time>2017-01-12T13:20:49Z</time>
      </trkpt>
      <trkpt lat="44.93495" lon="6.75997">
        <ele>1843.47</ele>
        <time>2017-01-12T13:20:51Z</time>
      </trkpt>
      <trkpt lat="44.93496" lon="6.75996">
        <ele>1843.47</ele>
        <time>2017-01-12T13:20:52Z</time>
      </trkpt>
      <trkpt lat="44.935" lon="6.75997">
        <ele>1842.98</ele>
        <time>2017-01-12T13:20:53Z</time>
      </trkpt>
      <trkpt lat="44.93525" lon="6.75993">
        <ele>1839.62</ele>
        <time>2017-01-12T13:21:00Z</time>
      </trkpt>
      <trkpt lat="44.93538" lon="6.7599">
        <ele>1837.22</ele>
        <time>2017-01-12T13:21:03Z</time>
      </trkpt>
      <trkpt lat="44.93544" lon="6.75987">
        <ele>1835.77</ele>
        <time>2017-01-12T13:21:04Z</time>
      </trkpt>
      <trkpt lat="44.93547" lon="6.75981">
        <ele>1833.85</ele>
        <time>2017-01-12T13:21:05Z</time>
      </trkpt>
      <trkpt lat="44.93553" lon="6.75976">
        <ele>1831.45</ele>
        <time>2017-01-12T13:21:06Z</time>
      </trkpt>
      <trkpt lat="44.93558" lon="6.75968">
        <ele>1830.49</ele>
        <time>2017-01-12T13:21:07Z</time>
      </trkpt>
      <trkpt lat="44.9357" lon="6.75934">
        <ele>1824.72</ele>
        <time>2017-01-12T13:21:10Z</time>
      </trkpt>
      <trkpt lat="44.93582" lon="6.75912">
        <ele>1824.24</ele>
        <time>2017-01-12T13:21:13Z</time>
      </trkpt>
      <trkpt lat="44.93586" lon="6.7591">
        <ele>1820.87</ele>
        <time>2017-01-12T13:21:14Z</time>
      </trkpt>
      <trkpt lat="44.93589" lon="6.75905">
        <ele>1819.43</ele>
        <time>2017-01-12T13:21:15Z</time>
      </trkpt>
      <trkpt lat="44.93592" lon="6.759">
        <ele>1819.43</ele>
        <time>2017-01-12T13:21:16Z</time>
      </trkpt>
      <trkpt lat="44.93595" lon="6.75894">
        <ele>1818.47</ele>
        <time>2017-01-12T13:21:17Z</time>
      </trkpt>
      <trkpt lat="44.93598" lon="6.75889">
        <ele>1816.55</ele>
        <time>2017-01-12T13:21:18Z</time>
      </trkpt>
      <trkpt lat="44.93602" lon="6.75884">
        <ele>1815.59</ele>
        <time>2017-01-12T13:21:19Z</time>
      </trkpt>
      <trkpt lat="44.93607" lon="6.75878">
        <ele>1814.15</ele>
        <time>2017-01-12T13:21:20Z</time>
      </trkpt>
      <trkpt lat="44.93618" lon="6.75869">
        <ele>1811.74</ele>
        <time>2017-01-12T13:21:22Z</time>
      </trkpt>
      <trkpt lat="44.93625" lon="6.75864">
        <ele>1811.26</ele>
        <time>2017-01-12T13:21:23Z</time>
      </trkpt>
      <trkpt lat="44.93633" lon="6.75862">
        <ele>1808.86</ele>
        <time>2017-01-12T13:21:24Z</time>
      </trkpt>
      <trkpt lat="44.93641" lon="6.75859">
        <ele>1807.42</ele>
        <time>2017-01-12T13:21:25Z</time>
      </trkpt>
      <trkpt lat="44.93648" lon="6.75855">
        <ele>1807.42</ele>
        <time>2017-01-12T13:21:26Z</time>
      </trkpt>
      <trkpt lat="44.93654" lon="6.7585">
        <ele>1806.94</ele>
        <time>2017-01-12T13:21:27Z</time>
      </trkpt>
      <trkpt lat="44.9366" lon="6.75846">
        <ele>1804.53</ele>
        <time>2017-01-12T13:21:28Z</time>
      </trkpt>
      <trkpt lat="44.93667" lon="6.75843">
        <ele>1804.05</ele>
        <time>2017-01-12T13:21:29Z</time>
      </trkpt>
      <trkpt lat="44.93673" lon="6.75838">
        <ele>1804.53</ele>
        <time>2017-01-12T13:21:30Z</time>
      </trkpt>
      <trkpt lat="44.93679" lon="6.75834">
        <ele>1803.09</ele>
        <time>2017-01-12T13:21:31Z</time>
      </trkpt>
      <trkpt lat="44.93686" lon="6.7583">
        <ele>1802.13</ele>
        <time>2017-01-12T13:21:32Z</time>
      </trkpt>
      <trkpt lat="44.93691" lon="6.75826">
        <ele>1801.17</ele>
        <time>2017-01-12T13:21:33Z</time>
      </trkpt>
      <trkpt lat="44.93696" lon="6.75823">
        <ele>1800.69</ele>
        <time>2017-01-12T13:21:34Z</time>
      </trkpt>
      <trkpt lat="44.93702" lon="6.75821">
        <ele>1800.21</ele>
        <time>2017-01-12T13:21:35Z</time>
      </trkpt>
      <trkpt lat="44.93707" lon="6.75818">
        <ele>1799.73</ele>
        <time>2017-01-12T13:21:36Z</time>
      </trkpt>
      <trkpt lat="44.93711" lon="6.75815">
        <ele>1799.24</ele>
        <time>2017-01-12T13:21:37Z</time>
      </trkpt>
      <trkpt lat="44.93713" lon="6.7581">
        <ele>1799.24</ele>
        <time>2017-01-12T13:21:38Z</time>
      </trkpt>
      <trkpt lat="44.93715" lon="6.75803">
        <ele>1798.28</ele>
        <time>2017-01-12T13:21:39Z</time>
      </trkpt>
      <trkpt lat="44.93717" lon="6.75796">
        <ele>1797.8</ele>
        <time>2017-01-12T13:21:40Z</time>
      </trkpt>
      <trkpt lat="44.93727" lon="6.75752">
        <ele>1795.88</ele>
        <time>2017-01-12T13:21:46Z</time>
      </trkpt>
      <trkpt lat="44.93728" lon="6.75745">
        <ele>1795.4</ele>
        <time>2017-01-12T13:21:47Z</time>
      </trkpt>
      <trkpt lat="44.93731" lon="6.75726">
        <ele>1794.44</ele>
        <time>2017-01-12T13:21:50Z</time>
      </trkpt>
      <trkpt lat="44.93733" lon="6.75722">
        <ele>1793.48</ele>
        <time>2017-01-12T13:21:51Z</time>
      </trkpt>
      <trkpt lat="44.93736" lon="6.75716">
        <ele>1793</ele>
        <time>2017-01-12T13:21:52Z</time>
      </trkpt>
      <trkpt lat="44.93738" lon="6.75711">
        <ele>1793</ele>
        <time>2017-01-12T13:21:53Z</time>
      </trkpt>
      <trkpt lat="44.9374" lon="6.75704">
        <ele>1793</ele>
        <time>2017-01-12T13:21:54Z</time>
      </trkpt>
      <trkpt lat="44.93742" lon="6.75699">
        <ele>1792.52</ele>
        <time>2017-01-12T13:21:55Z</time>
      </trkpt>
      <trkpt lat="44.93745" lon="6.75694">
        <ele>1790.59</ele>
        <time>2017-01-12T13:21:56Z</time>
      </trkpt>
      <trkpt lat="44.93747" lon="6.75687">
        <ele>1790.59</ele>
        <time>2017-01-12T13:21:57Z</time>
      </trkpt>
      <trkpt lat="44.9375" lon="6.75679">
        <ele>1790.11</ele>
        <time>2017-01-12T13:21:58Z</time>
      </trkpt>
      <trkpt lat="44.93753" lon="6.75673">
        <ele>1788.67</ele>
        <time>2017-01-12T13:21:59Z</time>
      </trkpt>
      <trkpt lat="44.93758" lon="6.75665">
        <ele>1786.27</ele>
        <time>2017-01-12T13:22:00Z</time>
      </trkpt>
      <trkpt lat="44.93761" lon="6.75656">
        <ele>1785.79</ele>
        <time>2017-01-12T13:22:01Z</time>
      </trkpt>
      <trkpt lat="44.93763" lon="6.75646">
        <ele>1784.34</ele>
        <time>2017-01-12T13:22:02Z</time>
      </trkpt>
      <trkpt lat="44.93764" lon="6.75636">
        <ele>1782.42</ele>
        <time>2017-01-12T13:22:03Z</time>
      </trkpt>
      <trkpt lat="44.93765" lon="6.75625">
        <ele>1782.42</ele>
        <time>2017-01-12T13:22:04Z</time>
      </trkpt>
      <trkpt lat="44.93767" lon="6.75601">
        <ele>1780.5</ele>
        <time>2017-01-12T13:22:06Z</time>
      </trkpt>
      <trkpt lat="44.93766" lon="6.75549">
        <ele>1777.13</ele>
        <time>2017-01-12T13:22:10Z</time>
      </trkpt>
      <trkpt lat="44.93765" lon="6.75535">
        <ele>1777.13</ele>
        <time>2017-01-12T13:22:11Z</time>
      </trkpt>
      <trkpt lat="44.93763" lon="6.75451">
        <ele>1777.13</ele>
        <time>2017-01-12T13:22:20Z</time>
      </trkpt>
      <trkpt lat="44.93776" lon="6.75418">
        <ele>1780.02</ele>
        <time>2017-01-12T13:22:37Z</time>
      </trkpt>
      <trkpt lat="44.93785" lon="6.754">
        <ele>1780.5</ele>
        <time>2017-01-12T13:22:52Z</time>
      </trkpt>
      <trkpt lat="44.93789" lon="6.75393">
        <ele>1780.5</ele>
        <time>2017-01-12T13:23:06Z</time>
      </trkpt>
      <trkpt lat="44.9379" lon="6.75353">
        <ele>1778.58</ele>
        <time>2017-01-12T13:23:18Z</time>
      </trkpt>
      <trkpt lat="44.93795" lon="6.75303">
        <ele>1777.13</ele>
        <time>2017-01-12T13:23:30Z</time>
      </trkpt>
      <trkpt lat="44.93787" lon="6.75265">
        <ele>1774.25</ele>
        <time>2017-01-12T13:23:41Z</time>
      </trkpt>
      <trkpt lat="44.93776" lon="6.75231">
        <ele>1770.41</ele>
        <time>2017-01-12T13:23:47Z</time>
      </trkpt>
      <trkpt lat="44.93766" lon="6.75206">
        <ele>1765.6</ele>
        <time>2017-01-12T13:23:50Z</time>
      </trkpt>
      <trkpt lat="44.93759" lon="6.75185">
        <ele>1763.68</ele>
        <time>2017-01-12T13:23:52Z</time>
      </trkpt>
      <trkpt lat="44.93756" lon="6.75174">
        <ele>1764.16</ele>
        <time>2017-01-12T13:23:53Z</time>
      </trkpt>
      <trkpt lat="44.93755" lon="6.75163">
        <ele>1763.2</ele>
        <time>2017-01-12T13:23:54Z</time>
      </trkpt>
      <trkpt lat="44.93756" lon="6.75152">
        <ele>1762.23</ele>
        <time>2017-01-12T13:23:55Z</time>
      </trkpt>
      <trkpt lat="44.93758" lon="6.75141">
        <ele>1761.75</ele>
        <time>2017-01-12T13:23:56Z</time>
      </trkpt>
      <trkpt lat="44.9376" lon="6.75132">
        <ele>1760.79</ele>
        <time>2017-01-12T13:23:57Z</time>
      </trkpt>
      <trkpt lat="44.93761" lon="6.75126">
        <ele>1762.23</ele>
        <time>2017-01-12T13:23:58Z</time>
      </trkpt>
      <trkpt lat="44.93761" lon="6.7512">
        <ele>1764.16</ele>
        <time>2017-01-12T13:23:59Z</time>
      </trkpt>
      <trkpt lat="44.93761" lon="6.75116">
        <ele>1764.64</ele>
        <time>2017-01-12T13:24:00Z</time>
      </trkpt>
      <trkpt lat="44.93764" lon="6.7511">
        <ele>1764.64</ele>
        <time>2017-01-12T13:24:10Z</time>
      </trkpt>
      <trkpt lat="44.93768" lon="6.75106">
        <ele>1764.64</ele>
        <time>2017-01-12T13:24:26Z</time>
      </trkpt>
      <trkpt lat="44.93762" lon="6.75104">
        <ele>1765.12</ele>
        <time>2017-01-12T13:24:44Z</time>
      </trkpt>
      <trkpt lat="44.93762" lon="6.75109">
        <ele>1764.64</ele>
        <time>2017-01-12T13:25:04Z</time>
      </trkpt>
      <trkpt lat="44.93763" lon="6.75108">
        <ele>1765.12</ele>
        <time>2017-01-12T13:25:21Z</time>
      </trkpt>
      <trkpt lat="44.93765" lon="6.7511">
        <ele>1764.64</ele>
        <time>2017-01-12T13:25:43Z</time>
      </trkpt>
      <trkpt lat="44.93766" lon="6.75111">
        <ele>1765.12</ele>
        <time>2017-01-12T13:25:58Z</time>
      </trkpt>
      <trkpt lat="44.93756" lon="6.75103">
        <ele>1766.56</ele>
        <time>2017-01-12T13:26:13Z</time>
      </trkpt>
      <trkpt lat="44.93748" lon="6.75093">
        <ele>1767.04</ele>
        <time>2017-01-12T13:26:25Z</time>
      </trkpt>
      <trkpt lat="44.9374" lon="6.75082">
        <ele>1767.52</ele>
        <time>2017-01-12T13:26:39Z</time>
      </trkpt>
      <trkpt lat="44.93736" lon="6.75077">
        <ele>1767.52</ele>
        <time>2017-01-12T13:26:46Z</time>
      </trkpt>
      <trkpt lat="44.9373" lon="6.75068">
        <ele>1768.48</ele>
        <time>2017-01-12T13:26:57Z</time>
      </trkpt>
      <trkpt lat="44.93726" lon="6.75056">
        <ele>1768.48</ele>
        <time>2017-01-12T13:27:08Z</time>
      </trkpt>
      <trkpt lat="44.93721" lon="6.75047">
        <ele>1768.48</ele>
        <time>2017-01-12T13:27:18Z</time>
      </trkpt>
      <trkpt lat="44.93711" lon="6.75035">
        <ele>1768.48</ele>
        <time>2017-01-12T13:27:32Z</time>
      </trkpt>
      <trkpt lat="44.93706" lon="6.75024">
        <ele>1769.44</ele>
        <time>2017-01-12T13:27:44Z</time>
      </trkpt>
      <trkpt lat="44.93699" lon="6.75013">
        <ele>1770.41</ele>
        <time>2017-01-12T13:27:56Z</time>
      </trkpt>
      <trkpt lat="44.93693" lon="6.75001">
        <ele>1770.89</ele>
        <time>2017-01-12T13:28:08Z</time>
      </trkpt>
      <trkpt lat="44.93689" lon="6.7499">
        <ele>1772.33</ele>
        <time>2017-01-12T13:28:21Z</time>
      </trkpt>
      <trkpt lat="44.93691" lon="6.74979">
        <ele>1772.33</ele>
        <time>2017-01-12T13:28:34Z</time>
      </trkpt>
      <trkpt lat="44.937" lon="6.7497">
        <ele>1772.33</ele>
        <time>2017-01-12T13:28:47Z</time>
      </trkpt>
      <trkpt lat="44.93701" lon="6.74969">
        <ele>1772.33</ele>
        <time>2017-01-12T13:28:49Z</time>
      </trkpt>
      <trkpt lat="44.93703" lon="6.74964">
        <ele>1772.33</ele>
        <time>2017-01-12T13:28:53Z</time>
      </trkpt>
      <trkpt lat="44.93701" lon="6.74948">
        <ele>1772.81</ele>
        <time>2017-01-12T13:29:05Z</time>
      </trkpt>
      <trkpt lat="44.937" lon="6.74929">
        <ele>1774.25</ele>
        <time>2017-01-12T13:29:20Z</time>
      </trkpt>
      <trkpt lat="44.93701" lon="6.74926">
        <ele>1774.25</ele>
        <time>2017-01-12T13:29:23Z</time>
      </trkpt>
      <trkpt lat="44.93704" lon="6.74911">
        <ele>1775.21</ele>
        <time>2017-01-12T13:29:36Z</time>
      </trkpt>
      <trkpt lat="44.93704" lon="6.74908">
        <ele>1775.69</ele>
        <time>2017-01-12T13:29:39Z</time>
      </trkpt>
      <trkpt lat="44.93706" lon="6.74895">
        <ele>1776.17</ele>
        <time>2017-01-12T13:29:52Z</time>
      </trkpt>
      <trkpt lat="44.93708" lon="6.74886">
        <ele>1777.61</ele>
        <time>2017-01-12T13:30:00Z</time>
      </trkpt>
      <trkpt lat="44.93714" lon="6.74877">
        <ele>1778.58</ele>
        <time>2017-01-12T13:30:12Z</time>
      </trkpt>
      <trkpt lat="44.93715" lon="6.74876">
        <ele>1779.06</ele>
        <time>2017-01-12T13:30:13Z</time>
      </trkpt>
      <trkpt lat="44.93721" lon="6.74872">
        <ele>1779.06</ele>
        <time>2017-01-12T13:30:21Z</time>
      </trkpt>
      <trkpt lat="44.93732" lon="6.74861">
        <ele>1780.02</ele>
        <time>2017-01-12T13:30:37Z</time>
      </trkpt>
      <trkpt lat="44.93738" lon="6.74848">
        <ele>1780.98</ele>
        <time>2017-01-12T13:30:49Z</time>
      </trkpt>
      <trkpt lat="44.93738" lon="6.74846">
        <ele>1780.98</ele>
        <time>2017-01-12T13:30:51Z</time>
      </trkpt>
      <trkpt lat="44.93739" lon="6.74842">
        <ele>1781.46</ele>
        <time>2017-01-12T13:30:54Z</time>
      </trkpt>
      <trkpt lat="44.93742" lon="6.74827">
        <ele>1782.9</ele>
        <time>2017-01-12T13:31:06Z</time>
      </trkpt>
      <trkpt lat="44.93741" lon="6.74816">
        <ele>1783.38</ele>
        <time>2017-01-12T13:31:17Z</time>
      </trkpt>
      <trkpt lat="44.93734" lon="6.74808">
        <ele>1783.38</ele>
        <time>2017-01-12T13:31:30Z</time>
      </trkpt>
      <trkpt lat="44.93727" lon="6.74812">
        <ele>1784.34</ele>
        <time>2017-01-12T13:31:43Z</time>
      </trkpt>
      <trkpt lat="44.93727" lon="6.74809">
        <ele>1784.82</ele>
        <time>2017-01-12T13:31:56Z</time>
      </trkpt>
      <trkpt lat="44.9374" lon="6.74799">
        <ele>1784.34</ele>
        <time>2017-01-12T13:32:17Z</time>
      </trkpt>
      <trkpt lat="44.93735" lon="6.74801">
        <ele>1784.82</ele>
        <time>2017-01-12T13:32:38Z</time>
      </trkpt>
      <trkpt lat="44.93734" lon="6.74802">
        <ele>1784.82</ele>
        <time>2017-01-12T13:32:42Z</time>
      </trkpt>
    </trkseg>
  </trk>
</gpx>